<?xml version="1.0" encoding="UTF-8" standalone="no" ?>
<gpx xmlns="http://www.topografix.com/GPX/1/1" xmlns:xsi="http://www.w3.org/2001/XMLSchema-instance" xsi:schemaLocation="http://www.topografix.com/GPX/1/1 http://www.topografix.com/GPX/1/1/gpx.xsd" version="1.1" creator="VisuGPX - https://www.visugpx.com">
  <metadata>
    <name>2020-08-27 - Metabief piste bleue &quot;cordillère&quot;</name>
    <desc><![CDATA[Descente de la piste bleue après être monté en télésiège]]></desc>
  </metadata>
  <trk>
    <name><![CDATA[2020-08-27-02]]></name>
    <trkseg>
      <trkpt lat="46.75095" lon="6.35375">
        <ele>1424.3</ele>
        <time>2020-08-27T13:29:37Z</time>
      </trkpt>
      <trkpt lat="46.75095" lon="6.35375">
        <ele>1424.5</ele>
        <time>2020-08-27T13:29:38Z</time>
      </trkpt>
      <trkpt lat="46.75095" lon="6.35376">
        <ele>1424.6</ele>
        <time>2020-08-27T13:29:39Z</time>
      </trkpt>
      <trkpt lat="46.75095" lon="6.35376">
        <ele>1424.8</ele>
        <time>2020-08-27T13:29:40Z</time>
      </trkpt>
      <trkpt lat="46.75095" lon="6.35377">
        <ele>1424.9</ele>
        <time>2020-08-27T13:29:41Z</time>
      </trkpt>
      <trkpt lat="46.75095" lon="6.35377">
        <ele>1425.1</ele>
        <time>2020-08-27T13:29:42Z</time>
      </trkpt>
      <trkpt lat="46.75095" lon="6.35377">
        <ele>1425.2</ele>
        <time>2020-08-27T13:29:43Z</time>
      </trkpt>
      <trkpt lat="46.75096" lon="6.35377">
        <ele>1425.3</ele>
        <time>2020-08-27T13:29:44Z</time>
      </trkpt>
      <trkpt lat="46.75097" lon="6.35376">
        <ele>1425.4</ele>
        <time>2020-08-27T13:29:45Z</time>
      </trkpt>
      <trkpt lat="46.75097" lon="6.35375">
        <ele>1425.5</ele>
        <time>2020-08-27T13:29:46Z</time>
      </trkpt>
      <trkpt lat="46.75098" lon="6.35373">
        <ele>1425.6</ele>
        <time>2020-08-27T13:29:47Z</time>
      </trkpt>
      <trkpt lat="46.75099" lon="6.3537">
        <ele>1425.7</ele>
        <time>2020-08-27T13:29:48Z</time>
      </trkpt>
      <trkpt lat="46.75099" lon="6.35366">
        <ele>1425.8</ele>
        <time>2020-08-27T13:29:49Z</time>
      </trkpt>
      <trkpt lat="46.75099" lon="6.35363">
        <ele>1425.9</ele>
        <time>2020-08-27T13:29:50Z</time>
      </trkpt>
      <trkpt lat="46.75099" lon="6.35358">
        <ele>1425.9</ele>
        <time>2020-08-27T13:29:51Z</time>
      </trkpt>
      <trkpt lat="46.75098" lon="6.35354">
        <ele>1426</ele>
        <time>2020-08-27T13:29:52Z</time>
      </trkpt>
      <trkpt lat="46.75098" lon="6.3535">
        <ele>1426.1</ele>
        <time>2020-08-27T13:29:53Z</time>
      </trkpt>
      <trkpt lat="46.75098" lon="6.35345">
        <ele>1426.1</ele>
        <time>2020-08-27T13:29:54Z</time>
      </trkpt>
      <trkpt lat="46.75097" lon="6.3534">
        <ele>1426.1</ele>
        <time>2020-08-27T13:29:55Z</time>
      </trkpt>
      <trkpt lat="46.75097" lon="6.35335">
        <ele>1426.1</ele>
        <time>2020-08-27T13:29:56Z</time>
      </trkpt>
      <trkpt lat="46.75097" lon="6.3533">
        <ele>1426</ele>
        <time>2020-08-27T13:29:57Z</time>
      </trkpt>
      <trkpt lat="46.75097" lon="6.35325">
        <ele>1426</ele>
        <time>2020-08-27T13:29:58Z</time>
      </trkpt>
      <trkpt lat="46.75098" lon="6.3532">
        <ele>1426</ele>
        <time>2020-08-27T13:29:59Z</time>
      </trkpt>
      <trkpt lat="46.75098" lon="6.35316">
        <ele>1426</ele>
        <time>2020-08-27T13:30:00Z</time>
      </trkpt>
      <trkpt lat="46.75099" lon="6.35311">
        <ele>1426</ele>
        <time>2020-08-27T13:30:01Z</time>
      </trkpt>
      <trkpt lat="46.751" lon="6.35305">
        <ele>1426</ele>
        <time>2020-08-27T13:30:02Z</time>
      </trkpt>
      <trkpt lat="46.75101" lon="6.353">
        <ele>1426</ele>
        <time>2020-08-27T13:30:03Z</time>
      </trkpt>
      <trkpt lat="46.75102" lon="6.35294">
        <ele>1426</ele>
        <time>2020-08-27T13:30:04Z</time>
      </trkpt>
      <trkpt lat="46.75102" lon="6.3529">
        <ele>1425.9</ele>
        <time>2020-08-27T13:30:05Z</time>
      </trkpt>
      <trkpt lat="46.75103" lon="6.35285">
        <ele>1425.9</ele>
        <time>2020-08-27T13:30:06Z</time>
      </trkpt>
      <trkpt lat="46.75103" lon="6.3528">
        <ele>1425.9</ele>
        <time>2020-08-27T13:30:07Z</time>
      </trkpt>
      <trkpt lat="46.75103" lon="6.35275">
        <ele>1425.8</ele>
        <time>2020-08-27T13:30:08Z</time>
      </trkpt>
      <trkpt lat="46.75102" lon="6.3527">
        <ele>1425.7</ele>
        <time>2020-08-27T13:30:09Z</time>
      </trkpt>
      <trkpt lat="46.75102" lon="6.35265">
        <ele>1425.6</ele>
        <time>2020-08-27T13:30:10Z</time>
      </trkpt>
      <trkpt lat="46.75101" lon="6.3526">
        <ele>1425.5</ele>
        <time>2020-08-27T13:30:11Z</time>
      </trkpt>
      <trkpt lat="46.75101" lon="6.35256">
        <ele>1425.5</ele>
        <time>2020-08-27T13:30:12Z</time>
      </trkpt>
      <trkpt lat="46.75101" lon="6.35252">
        <ele>1425.4</ele>
        <time>2020-08-27T13:30:13Z</time>
      </trkpt>
      <trkpt lat="46.751" lon="6.35249">
        <ele>1425.3</ele>
        <time>2020-08-27T13:30:14Z</time>
      </trkpt>
      <trkpt lat="46.75099" lon="6.35245">
        <ele>1425.2</ele>
        <time>2020-08-27T13:30:15Z</time>
      </trkpt>
      <trkpt lat="46.75098" lon="6.35241">
        <ele>1425.1</ele>
        <time>2020-08-27T13:30:16Z</time>
      </trkpt>
      <trkpt lat="46.75097" lon="6.35239">
        <ele>1424.9</ele>
        <time>2020-08-27T13:30:17Z</time>
      </trkpt>
      <trkpt lat="46.75095" lon="6.35238">
        <ele>1424.8</ele>
        <time>2020-08-27T13:30:18Z</time>
      </trkpt>
      <trkpt lat="46.75094" lon="6.35237">
        <ele>1424.6</ele>
        <time>2020-08-27T13:30:19Z</time>
      </trkpt>
      <trkpt lat="46.75092" lon="6.35236">
        <ele>1424.4</ele>
        <time>2020-08-27T13:30:20Z</time>
      </trkpt>
      <trkpt lat="46.75091" lon="6.35236">
        <ele>1424.2</ele>
        <time>2020-08-27T13:30:21Z</time>
      </trkpt>
      <trkpt lat="46.7509" lon="6.35237">
        <ele>1424</ele>
        <time>2020-08-27T13:30:22Z</time>
      </trkpt>
      <trkpt lat="46.75089" lon="6.35238">
        <ele>1423.9</ele>
        <time>2020-08-27T13:30:23Z</time>
      </trkpt>
      <trkpt lat="46.75087" lon="6.35238">
        <ele>1423.7</ele>
        <time>2020-08-27T13:30:24Z</time>
      </trkpt>
      <trkpt lat="46.75086" lon="6.35239">
        <ele>1423.5</ele>
        <time>2020-08-27T13:30:25Z</time>
      </trkpt>
      <trkpt lat="46.75085" lon="6.3524">
        <ele>1423.4</ele>
        <time>2020-08-27T13:30:26Z</time>
      </trkpt>
      <trkpt lat="46.75083" lon="6.35242">
        <ele>1423.2</ele>
        <time>2020-08-27T13:30:27Z</time>
      </trkpt>
      <trkpt lat="46.75082" lon="6.35245">
        <ele>1423.1</ele>
        <time>2020-08-27T13:30:28Z</time>
      </trkpt>
      <trkpt lat="46.75082" lon="6.35249">
        <ele>1423</ele>
        <time>2020-08-27T13:30:29Z</time>
      </trkpt>
      <trkpt lat="46.75081" lon="6.35252">
        <ele>1422.9</ele>
        <time>2020-08-27T13:30:30Z</time>
      </trkpt>
      <trkpt lat="46.75081" lon="6.35256">
        <ele>1422.8</ele>
        <time>2020-08-27T13:30:31Z</time>
      </trkpt>
      <trkpt lat="46.7508" lon="6.35261">
        <ele>1422.7</ele>
        <time>2020-08-27T13:30:32Z</time>
      </trkpt>
      <trkpt lat="46.75079" lon="6.35266">
        <ele>1422.6</ele>
        <time>2020-08-27T13:30:33Z</time>
      </trkpt>
      <trkpt lat="46.75077" lon="6.35271">
        <ele>1422.5</ele>
        <time>2020-08-27T13:30:34Z</time>
      </trkpt>
      <trkpt lat="46.75076" lon="6.35277">
        <ele>1422.4</ele>
        <time>2020-08-27T13:30:35Z</time>
      </trkpt>
      <trkpt lat="46.75076" lon="6.35284">
        <ele>1422.3</ele>
        <time>2020-08-27T13:30:36Z</time>
      </trkpt>
      <trkpt lat="46.75075" lon="6.35289">
        <ele>1422</ele>
        <time>2020-08-27T13:30:37Z</time>
      </trkpt>
      <trkpt lat="46.75072" lon="6.35292">
        <ele>1421.7</ele>
        <time>2020-08-27T13:30:38Z</time>
      </trkpt>
      <trkpt lat="46.75071" lon="6.35292">
        <ele>1421.5</ele>
        <time>2020-08-27T13:30:39Z</time>
      </trkpt>
      <trkpt lat="46.7507" lon="6.35287">
        <ele>1421.2</ele>
        <time>2020-08-27T13:30:40Z</time>
      </trkpt>
      <trkpt lat="46.75071" lon="6.3528">
        <ele>1421</ele>
        <time>2020-08-27T13:30:41Z</time>
      </trkpt>
      <trkpt lat="46.7507" lon="6.35274">
        <ele>1420.8</ele>
        <time>2020-08-27T13:30:42Z</time>
      </trkpt>
      <trkpt lat="46.7507" lon="6.35267">
        <ele>1420.6</ele>
        <time>2020-08-27T13:30:43Z</time>
      </trkpt>
      <trkpt lat="46.7507" lon="6.3526">
        <ele>1420.4</ele>
        <time>2020-08-27T13:30:44Z</time>
      </trkpt>
      <trkpt lat="46.75069" lon="6.35253">
        <ele>1420.2</ele>
        <time>2020-08-27T13:30:45Z</time>
      </trkpt>
      <trkpt lat="46.75068" lon="6.35246">
        <ele>1420</ele>
        <time>2020-08-27T13:30:46Z</time>
      </trkpt>
      <trkpt lat="46.75067" lon="6.35239">
        <ele>1419.8</ele>
        <time>2020-08-27T13:30:47Z</time>
      </trkpt>
      <trkpt lat="46.75065" lon="6.35233">
        <ele>1419.5</ele>
        <time>2020-08-27T13:30:48Z</time>
      </trkpt>
      <trkpt lat="46.75063" lon="6.35226">
        <ele>1419.2</ele>
        <time>2020-08-27T13:30:49Z</time>
      </trkpt>
      <trkpt lat="46.75061" lon="6.3522">
        <ele>1419</ele>
        <time>2020-08-27T13:30:50Z</time>
      </trkpt>
      <trkpt lat="46.7506" lon="6.35214">
        <ele>1418.7</ele>
        <time>2020-08-27T13:30:51Z</time>
      </trkpt>
      <trkpt lat="46.75059" lon="6.35208">
        <ele>1418.5</ele>
        <time>2020-08-27T13:30:52Z</time>
      </trkpt>
      <trkpt lat="46.75058" lon="6.35203">
        <ele>1418.3</ele>
        <time>2020-08-27T13:30:53Z</time>
      </trkpt>
      <trkpt lat="46.75057" lon="6.35197">
        <ele>1418.1</ele>
        <time>2020-08-27T13:30:54Z</time>
      </trkpt>
      <trkpt lat="46.75057" lon="6.35192">
        <ele>1417.9</ele>
        <time>2020-08-27T13:30:55Z</time>
      </trkpt>
      <trkpt lat="46.75055" lon="6.35185">
        <ele>1417.6</ele>
        <time>2020-08-27T13:30:56Z</time>
      </trkpt>
      <trkpt lat="46.75053" lon="6.35179">
        <ele>1417.4</ele>
        <time>2020-08-27T13:30:57Z</time>
      </trkpt>
      <trkpt lat="46.75052" lon="6.35174">
        <ele>1417.1</ele>
        <time>2020-08-27T13:30:58Z</time>
      </trkpt>
      <trkpt lat="46.75051" lon="6.35169">
        <ele>1416.9</ele>
        <time>2020-08-27T13:30:59Z</time>
      </trkpt>
      <trkpt lat="46.7505" lon="6.35164">
        <ele>1416.7</ele>
        <time>2020-08-27T13:31:00Z</time>
      </trkpt>
      <trkpt lat="46.75049" lon="6.3516">
        <ele>1416.5</ele>
        <time>2020-08-27T13:31:01Z</time>
      </trkpt>
      <trkpt lat="46.75049" lon="6.35156">
        <ele>1416.3</ele>
        <time>2020-08-27T13:31:02Z</time>
      </trkpt>
      <trkpt lat="46.75048" lon="6.35153">
        <ele>1416.1</ele>
        <time>2020-08-27T13:31:03Z</time>
      </trkpt>
      <trkpt lat="46.75048" lon="6.3515">
        <ele>1415.9</ele>
        <time>2020-08-27T13:31:04Z</time>
      </trkpt>
      <trkpt lat="46.75048" lon="6.35149">
        <ele>1415.8</ele>
        <time>2020-08-27T13:31:05Z</time>
      </trkpt>
      <trkpt lat="46.75047" lon="6.35148">
        <ele>1415.5</ele>
        <time>2020-08-27T13:31:06Z</time>
      </trkpt>
      <trkpt lat="46.75047" lon="6.35147">
        <ele>1415.2</ele>
        <time>2020-08-27T13:31:07Z</time>
      </trkpt>
      <trkpt lat="46.75047" lon="6.35146">
        <ele>1415</ele>
        <time>2020-08-27T13:31:08Z</time>
      </trkpt>
      <trkpt lat="46.75047" lon="6.35146">
        <ele>1414.7</ele>
        <time>2020-08-27T13:31:09Z</time>
      </trkpt>
      <trkpt lat="46.75047" lon="6.35147">
        <ele>1414.6</ele>
        <time>2020-08-27T13:31:10Z</time>
      </trkpt>
      <trkpt lat="46.75047" lon="6.35147">
        <ele>1414.4</ele>
        <time>2020-08-27T13:31:11Z</time>
      </trkpt>
      <trkpt lat="46.75046" lon="6.35147">
        <ele>1414.2</ele>
        <time>2020-08-27T13:31:12Z</time>
      </trkpt>
      <trkpt lat="46.75046" lon="6.35146">
        <ele>1414.1</ele>
        <time>2020-08-27T13:31:13Z</time>
      </trkpt>
      <trkpt lat="46.75045" lon="6.35145">
        <ele>1414</ele>
        <time>2020-08-27T13:31:14Z</time>
      </trkpt>
      <trkpt lat="46.75045" lon="6.35144">
        <ele>1413.9</ele>
        <time>2020-08-27T13:31:15Z</time>
      </trkpt>
      <trkpt lat="46.75044" lon="6.35144">
        <ele>1413.7</ele>
        <time>2020-08-27T13:31:16Z</time>
      </trkpt>
      <trkpt lat="46.75044" lon="6.35143">
        <ele>1413.6</ele>
        <time>2020-08-27T13:31:17Z</time>
      </trkpt>
      <trkpt lat="46.75044" lon="6.35143">
        <ele>1413.5</ele>
        <time>2020-08-27T13:31:18Z</time>
      </trkpt>
      <trkpt lat="46.75044" lon="6.35143">
        <ele>1413.4</ele>
        <time>2020-08-27T13:31:19Z</time>
      </trkpt>
      <trkpt lat="46.75044" lon="6.35142">
        <ele>1413.3</ele>
        <time>2020-08-27T13:31:20Z</time>
      </trkpt>
      <trkpt lat="46.75044" lon="6.35142">
        <ele>1413.2</ele>
        <time>2020-08-27T13:31:21Z</time>
      </trkpt>
      <trkpt lat="46.75044" lon="6.35142">
        <ele>1413.1</ele>
        <time>2020-08-27T13:31:22Z</time>
      </trkpt>
      <trkpt lat="46.75044" lon="6.35142">
        <ele>1413</ele>
        <time>2020-08-27T13:31:23Z</time>
      </trkpt>
      <trkpt lat="46.75044" lon="6.35142">
        <ele>1412.9</ele>
        <time>2020-08-27T13:31:24Z</time>
      </trkpt>
      <trkpt lat="46.75043" lon="6.35142">
        <ele>1412.9</ele>
        <time>2020-08-27T13:31:25Z</time>
      </trkpt>
      <trkpt lat="46.75043" lon="6.35142">
        <ele>1412.8</ele>
        <time>2020-08-27T13:31:26Z</time>
      </trkpt>
      <trkpt lat="46.75043" lon="6.35142">
        <ele>1412.7</ele>
        <time>2020-08-27T13:31:27Z</time>
      </trkpt>
      <trkpt lat="46.75043" lon="6.35142">
        <ele>1412.7</ele>
        <time>2020-08-27T13:31:28Z</time>
      </trkpt>
      <trkpt lat="46.75043" lon="6.35142">
        <ele>1412.6</ele>
        <time>2020-08-27T13:31:29Z</time>
      </trkpt>
      <trkpt lat="46.75043" lon="6.35142">
        <ele>1412.6</ele>
        <time>2020-08-27T13:31:30Z</time>
      </trkpt>
      <trkpt lat="46.75043" lon="6.35142">
        <ele>1412.5</ele>
        <time>2020-08-27T13:31:31Z</time>
      </trkpt>
      <trkpt lat="46.75043" lon="6.35142">
        <ele>1412.5</ele>
        <time>2020-08-27T13:31:32Z</time>
      </trkpt>
      <trkpt lat="46.75043" lon="6.35142">
        <ele>1412.4</ele>
        <time>2020-08-27T13:31:33Z</time>
      </trkpt>
      <trkpt lat="46.75043" lon="6.35142">
        <ele>1412.4</ele>
        <time>2020-08-27T13:31:34Z</time>
      </trkpt>
      <trkpt lat="46.75044" lon="6.35143">
        <ele>1412.4</ele>
        <time>2020-08-27T13:31:35Z</time>
      </trkpt>
      <trkpt lat="46.75044" lon="6.35143">
        <ele>1412.3</ele>
        <time>2020-08-27T13:31:36Z</time>
      </trkpt>
      <trkpt lat="46.75044" lon="6.35143">
        <ele>1412.3</ele>
        <time>2020-08-27T13:31:37Z</time>
      </trkpt>
      <trkpt lat="46.75044" lon="6.35143">
        <ele>1412.3</ele>
        <time>2020-08-27T13:31:38Z</time>
      </trkpt>
      <trkpt lat="46.75045" lon="6.35144">
        <ele>1412.2</ele>
        <time>2020-08-27T13:31:39Z</time>
      </trkpt>
      <trkpt lat="46.75045" lon="6.35145">
        <ele>1412.2</ele>
        <time>2020-08-27T13:31:40Z</time>
      </trkpt>
      <trkpt lat="46.75045" lon="6.35146">
        <ele>1412.2</ele>
        <time>2020-08-27T13:31:41Z</time>
      </trkpt>
      <trkpt lat="46.75045" lon="6.35146">
        <ele>1412.2</ele>
        <time>2020-08-27T13:31:42Z</time>
      </trkpt>
      <trkpt lat="46.75045" lon="6.35146">
        <ele>1412.1</ele>
        <time>2020-08-27T13:31:43Z</time>
      </trkpt>
      <trkpt lat="46.75045" lon="6.35146">
        <ele>1412.1</ele>
        <time>2020-08-27T13:31:44Z</time>
      </trkpt>
      <trkpt lat="46.75045" lon="6.35145">
        <ele>1412.1</ele>
        <time>2020-08-27T13:31:45Z</time>
      </trkpt>
      <trkpt lat="46.75045" lon="6.35145">
        <ele>1412.1</ele>
        <time>2020-08-27T13:31:46Z</time>
      </trkpt>
      <trkpt lat="46.75045" lon="6.35145">
        <ele>1412</ele>
        <time>2020-08-27T13:31:47Z</time>
      </trkpt>
      <trkpt lat="46.75045" lon="6.35145">
        <ele>1412.1</ele>
        <time>2020-08-27T13:31:48Z</time>
      </trkpt>
      <trkpt lat="46.75045" lon="6.35146">
        <ele>1412.1</ele>
        <time>2020-08-27T13:31:49Z</time>
      </trkpt>
      <trkpt lat="46.75045" lon="6.35146">
        <ele>1412.1</ele>
        <time>2020-08-27T13:31:50Z</time>
      </trkpt>
      <trkpt lat="46.75045" lon="6.35146">
        <ele>1412.1</ele>
        <time>2020-08-27T13:31:51Z</time>
      </trkpt>
      <trkpt lat="46.75045" lon="6.35146">
        <ele>1412.1</ele>
        <time>2020-08-27T13:31:52Z</time>
      </trkpt>
      <trkpt lat="46.75045" lon="6.35146">
        <ele>1412.1</ele>
        <time>2020-08-27T13:31:53Z</time>
      </trkpt>
      <trkpt lat="46.75045" lon="6.35147">
        <ele>1412</ele>
        <time>2020-08-27T13:31:54Z</time>
      </trkpt>
      <trkpt lat="46.75045" lon="6.35147">
        <ele>1412</ele>
        <time>2020-08-27T13:31:55Z</time>
      </trkpt>
      <trkpt lat="46.75045" lon="6.35148">
        <ele>1412</ele>
        <time>2020-08-27T13:31:56Z</time>
      </trkpt>
      <trkpt lat="46.75046" lon="6.35148">
        <ele>1412</ele>
        <time>2020-08-27T13:31:57Z</time>
      </trkpt>
      <trkpt lat="46.75046" lon="6.35148">
        <ele>1412</ele>
        <time>2020-08-27T13:31:58Z</time>
      </trkpt>
      <trkpt lat="46.75046" lon="6.35148">
        <ele>1412</ele>
        <time>2020-08-27T13:31:59Z</time>
      </trkpt>
      <trkpt lat="46.75046" lon="6.35148">
        <ele>1411.9</ele>
        <time>2020-08-27T13:32:00Z</time>
      </trkpt>
      <trkpt lat="46.75046" lon="6.35148">
        <ele>1411.9</ele>
        <time>2020-08-27T13:32:01Z</time>
      </trkpt>
      <trkpt lat="46.75045" lon="6.35148">
        <ele>1411.9</ele>
        <time>2020-08-27T13:32:02Z</time>
      </trkpt>
      <trkpt lat="46.75044" lon="6.35147">
        <ele>1411.9</ele>
        <time>2020-08-27T13:32:03Z</time>
      </trkpt>
      <trkpt lat="46.75043" lon="6.35145">
        <ele>1411.9</ele>
        <time>2020-08-27T13:32:04Z</time>
      </trkpt>
      <trkpt lat="46.75042" lon="6.35141">
        <ele>1411.9</ele>
        <time>2020-08-27T13:32:05Z</time>
      </trkpt>
      <trkpt lat="46.7504" lon="6.35136">
        <ele>1411.9</ele>
        <time>2020-08-27T13:32:06Z</time>
      </trkpt>
      <trkpt lat="46.75038" lon="6.35131">
        <ele>1411.8</ele>
        <time>2020-08-27T13:32:07Z</time>
      </trkpt>
      <trkpt lat="46.75038" lon="6.35126">
        <ele>1411.8</ele>
        <time>2020-08-27T13:32:08Z</time>
      </trkpt>
      <trkpt lat="46.75039" lon="6.35121">
        <ele>1411.8</ele>
        <time>2020-08-27T13:32:09Z</time>
      </trkpt>
      <trkpt lat="46.75042" lon="6.35118">
        <ele>1411.6</ele>
        <time>2020-08-27T13:32:10Z</time>
      </trkpt>
      <trkpt lat="46.75046" lon="6.35115">
        <ele>1411.5</ele>
        <time>2020-08-27T13:32:11Z</time>
      </trkpt>
      <trkpt lat="46.75049" lon="6.35114">
        <ele>1411.3</ele>
        <time>2020-08-27T13:32:12Z</time>
      </trkpt>
      <trkpt lat="46.75052" lon="6.35113">
        <ele>1411.1</ele>
        <time>2020-08-27T13:32:13Z</time>
      </trkpt>
      <trkpt lat="46.75054" lon="6.35111">
        <ele>1411</ele>
        <time>2020-08-27T13:32:14Z</time>
      </trkpt>
      <trkpt lat="46.75057" lon="6.3511">
        <ele>1410.8</ele>
        <time>2020-08-27T13:32:15Z</time>
      </trkpt>
      <trkpt lat="46.75059" lon="6.35107">
        <ele>1410.6</ele>
        <time>2020-08-27T13:32:16Z</time>
      </trkpt>
      <trkpt lat="46.75061" lon="6.35104">
        <ele>1410.2</ele>
        <time>2020-08-27T13:32:17Z</time>
      </trkpt>
      <trkpt lat="46.75065" lon="6.351">
        <ele>1409.8</ele>
        <time>2020-08-27T13:32:18Z</time>
      </trkpt>
      <trkpt lat="46.75068" lon="6.35096">
        <ele>1409.4</ele>
        <time>2020-08-27T13:32:19Z</time>
      </trkpt>
      <trkpt lat="46.7507" lon="6.35091">
        <ele>1409</ele>
        <time>2020-08-27T13:32:20Z</time>
      </trkpt>
      <trkpt lat="46.7507" lon="6.35084">
        <ele>1408.6</ele>
        <time>2020-08-27T13:32:21Z</time>
      </trkpt>
      <trkpt lat="46.75071" lon="6.35075">
        <ele>1408.1</ele>
        <time>2020-08-27T13:32:22Z</time>
      </trkpt>
      <trkpt lat="46.75071" lon="6.35065">
        <ele>1407.7</ele>
        <time>2020-08-27T13:32:23Z</time>
      </trkpt>
      <trkpt lat="46.75071" lon="6.35057">
        <ele>1407.1</ele>
        <time>2020-08-27T13:32:24Z</time>
      </trkpt>
      <trkpt lat="46.75071" lon="6.35051">
        <ele>1406.3</ele>
        <time>2020-08-27T13:32:25Z</time>
      </trkpt>
      <trkpt lat="46.75071" lon="6.35049">
        <ele>1405.6</ele>
        <time>2020-08-27T13:32:26Z</time>
      </trkpt>
      <trkpt lat="46.75072" lon="6.35048">
        <ele>1405</ele>
        <time>2020-08-27T13:32:27Z</time>
      </trkpt>
      <trkpt lat="46.75072" lon="6.35048">
        <ele>1404.4</ele>
        <time>2020-08-27T13:32:28Z</time>
      </trkpt>
      <trkpt lat="46.75072" lon="6.35048">
        <ele>1403.8</ele>
        <time>2020-08-27T13:32:29Z</time>
      </trkpt>
      <trkpt lat="46.75072" lon="6.35047">
        <ele>1403.2</ele>
        <time>2020-08-27T13:32:30Z</time>
      </trkpt>
      <trkpt lat="46.75072" lon="6.35047">
        <ele>1402.7</ele>
        <time>2020-08-27T13:32:31Z</time>
      </trkpt>
      <trkpt lat="46.75073" lon="6.35047">
        <ele>1402.2</ele>
        <time>2020-08-27T13:32:32Z</time>
      </trkpt>
      <trkpt lat="46.75073" lon="6.35048">
        <ele>1401.8</ele>
        <time>2020-08-27T13:32:33Z</time>
      </trkpt>
      <trkpt lat="46.75074" lon="6.35048">
        <ele>1401.3</ele>
        <time>2020-08-27T13:32:34Z</time>
      </trkpt>
      <trkpt lat="46.75074" lon="6.35047">
        <ele>1400.9</ele>
        <time>2020-08-27T13:32:35Z</time>
      </trkpt>
      <trkpt lat="46.75074" lon="6.35047">
        <ele>1400.5</ele>
        <time>2020-08-27T13:32:36Z</time>
      </trkpt>
      <trkpt lat="46.75074" lon="6.35046">
        <ele>1400.1</ele>
        <time>2020-08-27T13:32:37Z</time>
      </trkpt>
      <trkpt lat="46.75073" lon="6.35044">
        <ele>1399.7</ele>
        <time>2020-08-27T13:32:38Z</time>
      </trkpt>
      <trkpt lat="46.75071" lon="6.35042">
        <ele>1399.4</ele>
        <time>2020-08-27T13:32:39Z</time>
      </trkpt>
      <trkpt lat="46.75069" lon="6.3504">
        <ele>1399.1</ele>
        <time>2020-08-27T13:32:40Z</time>
      </trkpt>
      <trkpt lat="46.75066" lon="6.35039">
        <ele>1398.8</ele>
        <time>2020-08-27T13:32:41Z</time>
      </trkpt>
      <trkpt lat="46.75064" lon="6.35037">
        <ele>1398.5</ele>
        <time>2020-08-27T13:32:42Z</time>
      </trkpt>
      <trkpt lat="46.75062" lon="6.35034">
        <ele>1398.3</ele>
        <time>2020-08-27T13:32:43Z</time>
      </trkpt>
      <trkpt lat="46.7506" lon="6.35031">
        <ele>1398.1</ele>
        <time>2020-08-27T13:32:44Z</time>
      </trkpt>
      <trkpt lat="46.75057" lon="6.35028">
        <ele>1397.7</ele>
        <time>2020-08-27T13:32:45Z</time>
      </trkpt>
      <trkpt lat="46.75054" lon="6.35024">
        <ele>1397.4</ele>
        <time>2020-08-27T13:32:46Z</time>
      </trkpt>
      <trkpt lat="46.7505" lon="6.35021">
        <ele>1397.1</ele>
        <time>2020-08-27T13:32:47Z</time>
      </trkpt>
      <trkpt lat="46.75045" lon="6.35019">
        <ele>1396.7</ele>
        <time>2020-08-27T13:32:48Z</time>
      </trkpt>
      <trkpt lat="46.75041" lon="6.35018">
        <ele>1396.4</ele>
        <time>2020-08-27T13:32:49Z</time>
      </trkpt>
      <trkpt lat="46.75037" lon="6.35018">
        <ele>1396.1</ele>
        <time>2020-08-27T13:32:50Z</time>
      </trkpt>
      <trkpt lat="46.75033" lon="6.35017">
        <ele>1395.9</ele>
        <time>2020-08-27T13:32:51Z</time>
      </trkpt>
      <trkpt lat="46.75028" lon="6.35017">
        <ele>1395.7</ele>
        <time>2020-08-27T13:32:52Z</time>
      </trkpt>
      <trkpt lat="46.75024" lon="6.35016">
        <ele>1395.4</ele>
        <time>2020-08-27T13:32:53Z</time>
      </trkpt>
      <trkpt lat="46.75019" lon="6.35015">
        <ele>1395.2</ele>
        <time>2020-08-27T13:32:54Z</time>
      </trkpt>
      <trkpt lat="46.75015" lon="6.35013">
        <ele>1394.9</ele>
        <time>2020-08-27T13:32:55Z</time>
      </trkpt>
      <trkpt lat="46.75011" lon="6.35009">
        <ele>1394.6</ele>
        <time>2020-08-27T13:32:56Z</time>
      </trkpt>
      <trkpt lat="46.75009" lon="6.35004">
        <ele>1394.3</ele>
        <time>2020-08-27T13:32:57Z</time>
      </trkpt>
      <trkpt lat="46.75006" lon="6.34998">
        <ele>1394.1</ele>
        <time>2020-08-27T13:32:58Z</time>
      </trkpt>
      <trkpt lat="46.75003" lon="6.34992">
        <ele>1393.8</ele>
        <time>2020-08-27T13:32:59Z</time>
      </trkpt>
      <trkpt lat="46.75" lon="6.34986">
        <ele>1393.6</ele>
        <time>2020-08-27T13:33:00Z</time>
      </trkpt>
      <trkpt lat="46.74997" lon="6.34979">
        <ele>1393.4</ele>
        <time>2020-08-27T13:33:01Z</time>
      </trkpt>
      <trkpt lat="46.74994" lon="6.34972">
        <ele>1393</ele>
        <time>2020-08-27T13:33:02Z</time>
      </trkpt>
      <trkpt lat="46.7499" lon="6.34966">
        <ele>1392.6</ele>
        <time>2020-08-27T13:33:03Z</time>
      </trkpt>
      <trkpt lat="46.74986" lon="6.34962">
        <ele>1392.2</ele>
        <time>2020-08-27T13:33:04Z</time>
      </trkpt>
      <trkpt lat="46.74983" lon="6.34959">
        <ele>1391.9</ele>
        <time>2020-08-27T13:33:05Z</time>
      </trkpt>
      <trkpt lat="46.7498" lon="6.34956">
        <ele>1391.5</ele>
        <time>2020-08-27T13:33:06Z</time>
      </trkpt>
      <trkpt lat="46.74976" lon="6.34951">
        <ele>1391.2</ele>
        <time>2020-08-27T13:33:07Z</time>
      </trkpt>
      <trkpt lat="46.74972" lon="6.34946">
        <ele>1390.9</ele>
        <time>2020-08-27T13:33:08Z</time>
      </trkpt>
      <trkpt lat="46.74969" lon="6.34939">
        <ele>1390.5</ele>
        <time>2020-08-27T13:33:09Z</time>
      </trkpt>
      <trkpt lat="46.74967" lon="6.34931">
        <ele>1390.2</ele>
        <time>2020-08-27T13:33:10Z</time>
      </trkpt>
      <trkpt lat="46.74965" lon="6.34922">
        <ele>1389.7</ele>
        <time>2020-08-27T13:33:11Z</time>
      </trkpt>
      <trkpt lat="46.74962" lon="6.34912">
        <ele>1389.2</ele>
        <time>2020-08-27T13:33:12Z</time>
      </trkpt>
      <trkpt lat="46.7496" lon="6.34902">
        <ele>1388.8</ele>
        <time>2020-08-27T13:33:13Z</time>
      </trkpt>
      <trkpt lat="46.74957" lon="6.34891">
        <ele>1388.3</ele>
        <time>2020-08-27T13:33:14Z</time>
      </trkpt>
      <trkpt lat="46.74955" lon="6.34881">
        <ele>1387.8</ele>
        <time>2020-08-27T13:33:15Z</time>
      </trkpt>
      <trkpt lat="46.74952" lon="6.3487">
        <ele>1387.2</ele>
        <time>2020-08-27T13:33:16Z</time>
      </trkpt>
      <trkpt lat="46.74949" lon="6.34861">
        <ele>1386.6</ele>
        <time>2020-08-27T13:33:17Z</time>
      </trkpt>
      <trkpt lat="46.74946" lon="6.34852">
        <ele>1386</ele>
        <time>2020-08-27T13:33:18Z</time>
      </trkpt>
      <trkpt lat="46.74943" lon="6.34843">
        <ele>1385.5</ele>
        <time>2020-08-27T13:33:19Z</time>
      </trkpt>
      <trkpt lat="46.74941" lon="6.34835">
        <ele>1384.9</ele>
        <time>2020-08-27T13:33:20Z</time>
      </trkpt>
      <trkpt lat="46.74939" lon="6.34829">
        <ele>1384.3</ele>
        <time>2020-08-27T13:33:21Z</time>
      </trkpt>
      <trkpt lat="46.74936" lon="6.34825">
        <ele>1383.7</ele>
        <time>2020-08-27T13:33:22Z</time>
      </trkpt>
      <trkpt lat="46.74933" lon="6.34822">
        <ele>1383.1</ele>
        <time>2020-08-27T13:33:23Z</time>
      </trkpt>
      <trkpt lat="46.7493" lon="6.3482">
        <ele>1382.5</ele>
        <time>2020-08-27T13:33:24Z</time>
      </trkpt>
      <trkpt lat="46.74927" lon="6.34817">
        <ele>1381.9</ele>
        <time>2020-08-27T13:33:25Z</time>
      </trkpt>
      <trkpt lat="46.74924" lon="6.34814">
        <ele>1381.3</ele>
        <time>2020-08-27T13:33:26Z</time>
      </trkpt>
      <trkpt lat="46.74921" lon="6.34811">
        <ele>1380.7</ele>
        <time>2020-08-27T13:33:27Z</time>
      </trkpt>
      <trkpt lat="46.74919" lon="6.34807">
        <ele>1380</ele>
        <time>2020-08-27T13:33:28Z</time>
      </trkpt>
      <trkpt lat="46.74918" lon="6.34801">
        <ele>1379.3</ele>
        <time>2020-08-27T13:33:29Z</time>
      </trkpt>
      <trkpt lat="46.74918" lon="6.34797">
        <ele>1378.7</ele>
        <time>2020-08-27T13:33:30Z</time>
      </trkpt>
      <trkpt lat="46.74918" lon="6.34795">
        <ele>1378.1</ele>
        <time>2020-08-27T13:33:31Z</time>
      </trkpt>
      <trkpt lat="46.74918" lon="6.34793">
        <ele>1377.6</ele>
        <time>2020-08-27T13:33:32Z</time>
      </trkpt>
      <trkpt lat="46.74918" lon="6.34793">
        <ele>1377</ele>
        <time>2020-08-27T13:33:33Z</time>
      </trkpt>
      <trkpt lat="46.74918" lon="6.34793">
        <ele>1376.5</ele>
        <time>2020-08-27T13:33:34Z</time>
      </trkpt>
      <trkpt lat="46.74918" lon="6.34792">
        <ele>1375.9</ele>
        <time>2020-08-27T13:33:35Z</time>
      </trkpt>
      <trkpt lat="46.74918" lon="6.34791">
        <ele>1375.4</ele>
        <time>2020-08-27T13:33:36Z</time>
      </trkpt>
      <trkpt lat="46.74918" lon="6.34791">
        <ele>1374.9</ele>
        <time>2020-08-27T13:33:37Z</time>
      </trkpt>
      <trkpt lat="46.74917" lon="6.34791">
        <ele>1374.4</ele>
        <time>2020-08-27T13:33:38Z</time>
      </trkpt>
      <trkpt lat="46.74917" lon="6.34791">
        <ele>1374</ele>
        <time>2020-08-27T13:33:39Z</time>
      </trkpt>
      <trkpt lat="46.74916" lon="6.34791">
        <ele>1373.6</ele>
        <time>2020-08-27T13:33:40Z</time>
      </trkpt>
      <trkpt lat="46.74916" lon="6.34791">
        <ele>1373.2</ele>
        <time>2020-08-27T13:33:41Z</time>
      </trkpt>
      <trkpt lat="46.74915" lon="6.34791">
        <ele>1372.8</ele>
        <time>2020-08-27T13:33:42Z</time>
      </trkpt>
      <trkpt lat="46.74915" lon="6.34791">
        <ele>1372.5</ele>
        <time>2020-08-27T13:33:43Z</time>
      </trkpt>
      <trkpt lat="46.74914" lon="6.34791">
        <ele>1372.1</ele>
        <time>2020-08-27T13:33:44Z</time>
      </trkpt>
      <trkpt lat="46.74913" lon="6.3479">
        <ele>1371.8</ele>
        <time>2020-08-27T13:33:45Z</time>
      </trkpt>
      <trkpt lat="46.74913" lon="6.3479">
        <ele>1371.5</ele>
        <time>2020-08-27T13:33:46Z</time>
      </trkpt>
      <trkpt lat="46.74913" lon="6.34789">
        <ele>1371.2</ele>
        <time>2020-08-27T13:33:47Z</time>
      </trkpt>
      <trkpt lat="46.74913" lon="6.34788">
        <ele>1370.9</ele>
        <time>2020-08-27T13:33:48Z</time>
      </trkpt>
      <trkpt lat="46.74913" lon="6.34786">
        <ele>1370.6</ele>
        <time>2020-08-27T13:33:49Z</time>
      </trkpt>
      <trkpt lat="46.74912" lon="6.34784">
        <ele>1370.3</ele>
        <time>2020-08-27T13:33:50Z</time>
      </trkpt>
      <trkpt lat="46.74912" lon="6.34781">
        <ele>1370</ele>
        <time>2020-08-27T13:33:51Z</time>
      </trkpt>
      <trkpt lat="46.74911" lon="6.34778">
        <ele>1369.8</ele>
        <time>2020-08-27T13:33:52Z</time>
      </trkpt>
      <trkpt lat="46.74911" lon="6.34776">
        <ele>1369.5</ele>
        <time>2020-08-27T13:33:53Z</time>
      </trkpt>
      <trkpt lat="46.74911" lon="6.34772">
        <ele>1369.1</ele>
        <time>2020-08-27T13:33:54Z</time>
      </trkpt>
      <trkpt lat="46.7491" lon="6.34768">
        <ele>1368.8</ele>
        <time>2020-08-27T13:33:55Z</time>
      </trkpt>
      <trkpt lat="46.74909" lon="6.34764">
        <ele>1368.4</ele>
        <time>2020-08-27T13:33:56Z</time>
      </trkpt>
      <trkpt lat="46.74909" lon="6.34761">
        <ele>1368.1</ele>
        <time>2020-08-27T13:33:57Z</time>
      </trkpt>
      <trkpt lat="46.74909" lon="6.3476">
        <ele>1367.8</ele>
        <time>2020-08-27T13:33:58Z</time>
      </trkpt>
      <trkpt lat="46.74909" lon="6.34759">
        <ele>1367.5</ele>
        <time>2020-08-27T13:33:59Z</time>
      </trkpt>
      <trkpt lat="46.74909" lon="6.34758">
        <ele>1367.3</ele>
        <time>2020-08-27T13:34:00Z</time>
      </trkpt>
      <trkpt lat="46.74909" lon="6.34757">
        <ele>1367</ele>
        <time>2020-08-27T13:34:01Z</time>
      </trkpt>
      <trkpt lat="46.74908" lon="6.34755">
        <ele>1366.8</ele>
        <time>2020-08-27T13:34:02Z</time>
      </trkpt>
      <trkpt lat="46.74906" lon="6.34752">
        <ele>1366.5</ele>
        <time>2020-08-27T13:34:03Z</time>
      </trkpt>
      <trkpt lat="46.74905" lon="6.34746">
        <ele>1366.3</ele>
        <time>2020-08-27T13:34:04Z</time>
      </trkpt>
      <trkpt lat="46.74903" lon="6.34741">
        <ele>1366.1</ele>
        <time>2020-08-27T13:34:05Z</time>
      </trkpt>
      <trkpt lat="46.74901" lon="6.34736">
        <ele>1365.8</ele>
        <time>2020-08-27T13:34:06Z</time>
      </trkpt>
      <trkpt lat="46.74899" lon="6.34731">
        <ele>1365.5</ele>
        <time>2020-08-27T13:34:07Z</time>
      </trkpt>
      <trkpt lat="46.74897" lon="6.34727">
        <ele>1365.1</ele>
        <time>2020-08-27T13:34:08Z</time>
      </trkpt>
      <trkpt lat="46.74895" lon="6.34722">
        <ele>1364.7</ele>
        <time>2020-08-27T13:34:09Z</time>
      </trkpt>
      <trkpt lat="46.74894" lon="6.34717">
        <ele>1364.3</ele>
        <time>2020-08-27T13:34:10Z</time>
      </trkpt>
      <trkpt lat="46.74892" lon="6.34713">
        <ele>1363.8</ele>
        <time>2020-08-27T13:34:11Z</time>
      </trkpt>
      <trkpt lat="46.74891" lon="6.34708">
        <ele>1363.3</ele>
        <time>2020-08-27T13:34:12Z</time>
      </trkpt>
      <trkpt lat="46.7489" lon="6.34702">
        <ele>1362.7</ele>
        <time>2020-08-27T13:34:13Z</time>
      </trkpt>
      <trkpt lat="46.74889" lon="6.34697">
        <ele>1362.2</ele>
        <time>2020-08-27T13:34:14Z</time>
      </trkpt>
      <trkpt lat="46.74889" lon="6.34692">
        <ele>1361.7</ele>
        <time>2020-08-27T13:34:15Z</time>
      </trkpt>
      <trkpt lat="46.74889" lon="6.34687">
        <ele>1361.1</ele>
        <time>2020-08-27T13:34:16Z</time>
      </trkpt>
      <trkpt lat="46.74889" lon="6.34682">
        <ele>1360.5</ele>
        <time>2020-08-27T13:34:17Z</time>
      </trkpt>
      <trkpt lat="46.74889" lon="6.34675">
        <ele>1359.7</ele>
        <time>2020-08-27T13:34:18Z</time>
      </trkpt>
      <trkpt lat="46.74888" lon="6.34669">
        <ele>1359</ele>
        <time>2020-08-27T13:34:19Z</time>
      </trkpt>
      <trkpt lat="46.74887" lon="6.34663">
        <ele>1358.3</ele>
        <time>2020-08-27T13:34:20Z</time>
      </trkpt>
      <trkpt lat="46.74886" lon="6.34658">
        <ele>1357.7</ele>
        <time>2020-08-27T13:34:21Z</time>
      </trkpt>
      <trkpt lat="46.74886" lon="6.34654">
        <ele>1357.1</ele>
        <time>2020-08-27T13:34:22Z</time>
      </trkpt>
      <trkpt lat="46.74887" lon="6.3465">
        <ele>1356.4</ele>
        <time>2020-08-27T13:34:23Z</time>
      </trkpt>
      <trkpt lat="46.74886" lon="6.34646">
        <ele>1355.8</ele>
        <time>2020-08-27T13:34:24Z</time>
      </trkpt>
      <trkpt lat="46.74886" lon="6.34642">
        <ele>1355</ele>
        <time>2020-08-27T13:34:25Z</time>
      </trkpt>
      <trkpt lat="46.74884" lon="6.34638">
        <ele>1354.3</ele>
        <time>2020-08-27T13:34:26Z</time>
      </trkpt>
      <trkpt lat="46.74883" lon="6.34634">
        <ele>1353.6</ele>
        <time>2020-08-27T13:34:27Z</time>
      </trkpt>
      <trkpt lat="46.74883" lon="6.34628">
        <ele>1352.9</ele>
        <time>2020-08-27T13:34:28Z</time>
      </trkpt>
      <trkpt lat="46.74884" lon="6.34622">
        <ele>1352.3</ele>
        <time>2020-08-27T13:34:29Z</time>
      </trkpt>
      <trkpt lat="46.74885" lon="6.34615">
        <ele>1351.7</ele>
        <time>2020-08-27T13:34:30Z</time>
      </trkpt>
      <trkpt lat="46.74886" lon="6.34608">
        <ele>1351.1</ele>
        <time>2020-08-27T13:34:31Z</time>
      </trkpt>
      <trkpt lat="46.74886" lon="6.346">
        <ele>1350.4</ele>
        <time>2020-08-27T13:34:32Z</time>
      </trkpt>
      <trkpt lat="46.74886" lon="6.34592">
        <ele>1349.8</ele>
        <time>2020-08-27T13:34:33Z</time>
      </trkpt>
      <trkpt lat="46.74887" lon="6.34584">
        <ele>1349.1</ele>
        <time>2020-08-27T13:34:34Z</time>
      </trkpt>
      <trkpt lat="46.74888" lon="6.34576">
        <ele>1348.5</ele>
        <time>2020-08-27T13:34:35Z</time>
      </trkpt>
      <trkpt lat="46.7489" lon="6.34568">
        <ele>1347.9</ele>
        <time>2020-08-27T13:34:36Z</time>
      </trkpt>
      <trkpt lat="46.74892" lon="6.3456">
        <ele>1347.4</ele>
        <time>2020-08-27T13:34:37Z</time>
      </trkpt>
      <trkpt lat="46.74894" lon="6.34553">
        <ele>1346.9</ele>
        <time>2020-08-27T13:34:38Z</time>
      </trkpt>
      <trkpt lat="46.74897" lon="6.34546">
        <ele>1346.2</ele>
        <time>2020-08-27T13:34:39Z</time>
      </trkpt>
      <trkpt lat="46.74901" lon="6.34539">
        <ele>1345.6</ele>
        <time>2020-08-27T13:34:40Z</time>
      </trkpt>
      <trkpt lat="46.74904" lon="6.34534">
        <ele>1345</ele>
        <time>2020-08-27T13:34:41Z</time>
      </trkpt>
      <trkpt lat="46.74907" lon="6.34529">
        <ele>1344.4</ele>
        <time>2020-08-27T13:34:42Z</time>
      </trkpt>
      <trkpt lat="46.74911" lon="6.34526">
        <ele>1343.9</ele>
        <time>2020-08-27T13:34:43Z</time>
      </trkpt>
      <trkpt lat="46.74915" lon="6.34523">
        <ele>1343.4</ele>
        <time>2020-08-27T13:34:44Z</time>
      </trkpt>
      <trkpt lat="46.74918" lon="6.34521">
        <ele>1343</ele>
        <time>2020-08-27T13:34:45Z</time>
      </trkpt>
      <trkpt lat="46.74922" lon="6.34519">
        <ele>1342.6</ele>
        <time>2020-08-27T13:34:46Z</time>
      </trkpt>
      <trkpt lat="46.74926" lon="6.34517">
        <ele>1342.2</ele>
        <time>2020-08-27T13:34:47Z</time>
      </trkpt>
      <trkpt lat="46.7493" lon="6.34515">
        <ele>1341.8</ele>
        <time>2020-08-27T13:34:48Z</time>
      </trkpt>
      <trkpt lat="46.74933" lon="6.34513">
        <ele>1341.5</ele>
        <time>2020-08-27T13:34:49Z</time>
      </trkpt>
      <trkpt lat="46.74936" lon="6.3451">
        <ele>1341.3</ele>
        <time>2020-08-27T13:34:50Z</time>
      </trkpt>
      <trkpt lat="46.7494" lon="6.34508">
        <ele>1341</ele>
        <time>2020-08-27T13:34:51Z</time>
      </trkpt>
      <trkpt lat="46.74943" lon="6.34505">
        <ele>1340.8</ele>
        <time>2020-08-27T13:34:52Z</time>
      </trkpt>
      <trkpt lat="46.74946" lon="6.34503">
        <ele>1340.6</ele>
        <time>2020-08-27T13:34:53Z</time>
      </trkpt>
      <trkpt lat="46.7495" lon="6.34501">
        <ele>1340.4</ele>
        <time>2020-08-27T13:34:54Z</time>
      </trkpt>
      <trkpt lat="46.74953" lon="6.34498">
        <ele>1340.2</ele>
        <time>2020-08-27T13:34:55Z</time>
      </trkpt>
      <trkpt lat="46.74957" lon="6.34496">
        <ele>1340</ele>
        <time>2020-08-27T13:34:56Z</time>
      </trkpt>
      <trkpt lat="46.7496" lon="6.34493">
        <ele>1339.8</ele>
        <time>2020-08-27T13:34:57Z</time>
      </trkpt>
      <trkpt lat="46.74963" lon="6.3449">
        <ele>1339.4</ele>
        <time>2020-08-27T13:34:58Z</time>
      </trkpt>
      <trkpt lat="46.74966" lon="6.34487">
        <ele>1339.1</ele>
        <time>2020-08-27T13:34:59Z</time>
      </trkpt>
      <trkpt lat="46.74967" lon="6.34484">
        <ele>1338.8</ele>
        <time>2020-08-27T13:35:00Z</time>
      </trkpt>
      <trkpt lat="46.74968" lon="6.34483">
        <ele>1338.3</ele>
        <time>2020-08-27T13:35:01Z</time>
      </trkpt>
      <trkpt lat="46.7497" lon="6.34481">
        <ele>1338</ele>
        <time>2020-08-27T13:35:02Z</time>
      </trkpt>
      <trkpt lat="46.74972" lon="6.3448">
        <ele>1337.5</ele>
        <time>2020-08-27T13:35:03Z</time>
      </trkpt>
      <trkpt lat="46.74973" lon="6.34478">
        <ele>1337.1</ele>
        <time>2020-08-27T13:35:04Z</time>
      </trkpt>
      <trkpt lat="46.74975" lon="6.34475">
        <ele>1336.6</ele>
        <time>2020-08-27T13:35:05Z</time>
      </trkpt>
      <trkpt lat="46.74977" lon="6.34472">
        <ele>1336.1</ele>
        <time>2020-08-27T13:35:06Z</time>
      </trkpt>
      <trkpt lat="46.7498" lon="6.34471">
        <ele>1335.7</ele>
        <time>2020-08-27T13:35:07Z</time>
      </trkpt>
      <trkpt lat="46.74983" lon="6.34472">
        <ele>1335.2</ele>
        <time>2020-08-27T13:35:08Z</time>
      </trkpt>
      <trkpt lat="46.74985" lon="6.34473">
        <ele>1334.7</ele>
        <time>2020-08-27T13:35:09Z</time>
      </trkpt>
      <trkpt lat="46.74987" lon="6.34473">
        <ele>1334.3</ele>
        <time>2020-08-27T13:35:10Z</time>
      </trkpt>
      <trkpt lat="46.74989" lon="6.34473">
        <ele>1333.9</ele>
        <time>2020-08-27T13:35:11Z</time>
      </trkpt>
      <trkpt lat="46.74991" lon="6.34474">
        <ele>1333.5</ele>
        <time>2020-08-27T13:35:12Z</time>
      </trkpt>
      <trkpt lat="46.74993" lon="6.34475">
        <ele>1333.1</ele>
        <time>2020-08-27T13:35:13Z</time>
      </trkpt>
      <trkpt lat="46.74994" lon="6.34476">
        <ele>1332.8</ele>
        <time>2020-08-27T13:35:14Z</time>
      </trkpt>
      <trkpt lat="46.74997" lon="6.34478">
        <ele>1332.5</ele>
        <time>2020-08-27T13:35:15Z</time>
      </trkpt>
      <trkpt lat="46.74998" lon="6.34479">
        <ele>1332.3</ele>
        <time>2020-08-27T13:35:16Z</time>
      </trkpt>
      <trkpt lat="46.75" lon="6.34481">
        <ele>1332</ele>
        <time>2020-08-27T13:35:17Z</time>
      </trkpt>
      <trkpt lat="46.75003" lon="6.34482">
        <ele>1331.8</ele>
        <time>2020-08-27T13:35:18Z</time>
      </trkpt>
      <trkpt lat="46.75005" lon="6.34484">
        <ele>1331.6</ele>
        <time>2020-08-27T13:35:19Z</time>
      </trkpt>
      <trkpt lat="46.75006" lon="6.34486">
        <ele>1331.4</ele>
        <time>2020-08-27T13:35:20Z</time>
      </trkpt>
      <trkpt lat="46.75008" lon="6.34488">
        <ele>1331.2</ele>
        <time>2020-08-27T13:35:21Z</time>
      </trkpt>
      <trkpt lat="46.75009" lon="6.34489">
        <ele>1331.1</ele>
        <time>2020-08-27T13:35:22Z</time>
      </trkpt>
      <trkpt lat="46.7501" lon="6.34491">
        <ele>1331</ele>
        <time>2020-08-27T13:35:23Z</time>
      </trkpt>
      <trkpt lat="46.75012" lon="6.34491">
        <ele>1330.9</ele>
        <time>2020-08-27T13:35:24Z</time>
      </trkpt>
      <trkpt lat="46.75014" lon="6.34492">
        <ele>1330.9</ele>
        <time>2020-08-27T13:35:25Z</time>
      </trkpt>
      <trkpt lat="46.75017" lon="6.34494">
        <ele>1330.8</ele>
        <time>2020-08-27T13:35:26Z</time>
      </trkpt>
      <trkpt lat="46.7502" lon="6.34496">
        <ele>1330.8</ele>
        <time>2020-08-27T13:35:27Z</time>
      </trkpt>
      <trkpt lat="46.75022" lon="6.34497">
        <ele>1330.8</ele>
        <time>2020-08-27T13:35:28Z</time>
      </trkpt>
      <trkpt lat="46.75024" lon="6.34499">
        <ele>1330.8</ele>
        <time>2020-08-27T13:35:29Z</time>
      </trkpt>
      <trkpt lat="46.75026" lon="6.345">
        <ele>1330.8</ele>
        <time>2020-08-27T13:35:30Z</time>
      </trkpt>
      <trkpt lat="46.75029" lon="6.34502">
        <ele>1330.8</ele>
        <time>2020-08-27T13:35:31Z</time>
      </trkpt>
      <trkpt lat="46.75032" lon="6.34503">
        <ele>1330.8</ele>
        <time>2020-08-27T13:35:32Z</time>
      </trkpt>
      <trkpt lat="46.75033" lon="6.34505">
        <ele>1330.8</ele>
        <time>2020-08-27T13:35:33Z</time>
      </trkpt>
      <trkpt lat="46.75035" lon="6.34505">
        <ele>1330.9</ele>
        <time>2020-08-27T13:35:34Z</time>
      </trkpt>
      <trkpt lat="46.75037" lon="6.34506">
        <ele>1331</ele>
        <time>2020-08-27T13:35:35Z</time>
      </trkpt>
      <trkpt lat="46.75039" lon="6.34508">
        <ele>1331.1</ele>
        <time>2020-08-27T13:35:36Z</time>
      </trkpt>
      <trkpt lat="46.75041" lon="6.34509">
        <ele>1331.2</ele>
        <time>2020-08-27T13:35:37Z</time>
      </trkpt>
      <trkpt lat="46.75043" lon="6.3451">
        <ele>1331.3</ele>
        <time>2020-08-27T13:35:38Z</time>
      </trkpt>
      <trkpt lat="46.75044" lon="6.34512">
        <ele>1331.4</ele>
        <time>2020-08-27T13:35:39Z</time>
      </trkpt>
      <trkpt lat="46.75046" lon="6.34513">
        <ele>1331.5</ele>
        <time>2020-08-27T13:35:40Z</time>
      </trkpt>
      <trkpt lat="46.75048" lon="6.34514">
        <ele>1331.5</ele>
        <time>2020-08-27T13:35:41Z</time>
      </trkpt>
      <trkpt lat="46.7505" lon="6.34515">
        <ele>1331.6</ele>
        <time>2020-08-27T13:35:42Z</time>
      </trkpt>
      <trkpt lat="46.75053" lon="6.34515">
        <ele>1331.6</ele>
        <time>2020-08-27T13:35:43Z</time>
      </trkpt>
      <trkpt lat="46.75057" lon="6.34515">
        <ele>1331.6</ele>
        <time>2020-08-27T13:35:44Z</time>
      </trkpt>
      <trkpt lat="46.75059" lon="6.34513">
        <ele>1331.5</ele>
        <time>2020-08-27T13:35:45Z</time>
      </trkpt>
      <trkpt lat="46.75061" lon="6.34512">
        <ele>1331.5</ele>
        <time>2020-08-27T13:35:46Z</time>
      </trkpt>
      <trkpt lat="46.75064" lon="6.34512">
        <ele>1331.5</ele>
        <time>2020-08-27T13:35:47Z</time>
      </trkpt>
      <trkpt lat="46.75067" lon="6.34512">
        <ele>1331.4</ele>
        <time>2020-08-27T13:35:48Z</time>
      </trkpt>
      <trkpt lat="46.75071" lon="6.34512">
        <ele>1331.4</ele>
        <time>2020-08-27T13:35:49Z</time>
      </trkpt>
      <trkpt lat="46.75074" lon="6.34511">
        <ele>1331.4</ele>
        <time>2020-08-27T13:35:50Z</time>
      </trkpt>
      <trkpt lat="46.75078" lon="6.3451">
        <ele>1331.4</ele>
        <time>2020-08-27T13:35:51Z</time>
      </trkpt>
      <trkpt lat="46.75082" lon="6.34509">
        <ele>1331.4</ele>
        <time>2020-08-27T13:35:52Z</time>
      </trkpt>
      <trkpt lat="46.75084" lon="6.34508">
        <ele>1331.4</ele>
        <time>2020-08-27T13:35:53Z</time>
      </trkpt>
      <trkpt lat="46.75087" lon="6.34507">
        <ele>1331.4</ele>
        <time>2020-08-27T13:35:54Z</time>
      </trkpt>
      <trkpt lat="46.75088" lon="6.34506">
        <ele>1331.4</ele>
        <time>2020-08-27T13:35:55Z</time>
      </trkpt>
      <trkpt lat="46.75091" lon="6.34505">
        <ele>1331.3</ele>
        <time>2020-08-27T13:35:56Z</time>
      </trkpt>
      <trkpt lat="46.75093" lon="6.34504">
        <ele>1331.3</ele>
        <time>2020-08-27T13:35:57Z</time>
      </trkpt>
      <trkpt lat="46.75095" lon="6.34503">
        <ele>1331.3</ele>
        <time>2020-08-27T13:35:58Z</time>
      </trkpt>
      <trkpt lat="46.75096" lon="6.34502">
        <ele>1331.3</ele>
        <time>2020-08-27T13:35:59Z</time>
      </trkpt>
      <trkpt lat="46.75098" lon="6.34502">
        <ele>1331.3</ele>
        <time>2020-08-27T13:36:00Z</time>
      </trkpt>
      <trkpt lat="46.751" lon="6.34503">
        <ele>1331.3</ele>
        <time>2020-08-27T13:36:01Z</time>
      </trkpt>
      <trkpt lat="46.75102" lon="6.34504">
        <ele>1331.1</ele>
        <time>2020-08-27T13:36:02Z</time>
      </trkpt>
      <trkpt lat="46.75105" lon="6.34507">
        <ele>1331</ele>
        <time>2020-08-27T13:36:03Z</time>
      </trkpt>
      <trkpt lat="46.75108" lon="6.34511">
        <ele>1330.9</ele>
        <time>2020-08-27T13:36:04Z</time>
      </trkpt>
      <trkpt lat="46.75111" lon="6.34516">
        <ele>1330.8</ele>
        <time>2020-08-27T13:36:05Z</time>
      </trkpt>
      <trkpt lat="46.75114" lon="6.34519">
        <ele>1330.7</ele>
        <time>2020-08-27T13:36:06Z</time>
      </trkpt>
      <trkpt lat="46.75117" lon="6.34522">
        <ele>1330.7</ele>
        <time>2020-08-27T13:36:07Z</time>
      </trkpt>
      <trkpt lat="46.7512" lon="6.34526">
        <ele>1330.7</ele>
        <time>2020-08-27T13:36:08Z</time>
      </trkpt>
      <trkpt lat="46.75123" lon="6.34529">
        <ele>1330.8</ele>
        <time>2020-08-27T13:36:09Z</time>
      </trkpt>
      <trkpt lat="46.75125" lon="6.34531">
        <ele>1330.8</ele>
        <time>2020-08-27T13:36:10Z</time>
      </trkpt>
      <trkpt lat="46.75128" lon="6.34534">
        <ele>1330.9</ele>
        <time>2020-08-27T13:36:11Z</time>
      </trkpt>
      <trkpt lat="46.75131" lon="6.34538">
        <ele>1330.9</ele>
        <time>2020-08-27T13:36:12Z</time>
      </trkpt>
      <trkpt lat="46.75133" lon="6.34541">
        <ele>1331</ele>
        <time>2020-08-27T13:36:13Z</time>
      </trkpt>
      <trkpt lat="46.75135" lon="6.34545">
        <ele>1331</ele>
        <time>2020-08-27T13:36:14Z</time>
      </trkpt>
      <trkpt lat="46.75138" lon="6.34548">
        <ele>1331.1</ele>
        <time>2020-08-27T13:36:15Z</time>
      </trkpt>
      <trkpt lat="46.7514" lon="6.34551">
        <ele>1331.1</ele>
        <time>2020-08-27T13:36:16Z</time>
      </trkpt>
      <trkpt lat="46.75142" lon="6.34553">
        <ele>1331</ele>
        <time>2020-08-27T13:36:17Z</time>
      </trkpt>
      <trkpt lat="46.75144" lon="6.34556">
        <ele>1331</ele>
        <time>2020-08-27T13:36:18Z</time>
      </trkpt>
      <trkpt lat="46.75147" lon="6.34559">
        <ele>1331</ele>
        <time>2020-08-27T13:36:19Z</time>
      </trkpt>
      <trkpt lat="46.75149" lon="6.34561">
        <ele>1331</ele>
        <time>2020-08-27T13:36:20Z</time>
      </trkpt>
      <trkpt lat="46.75152" lon="6.34564">
        <ele>1331</ele>
        <time>2020-08-27T13:36:21Z</time>
      </trkpt>
      <trkpt lat="46.75154" lon="6.34566">
        <ele>1331</ele>
        <time>2020-08-27T13:36:22Z</time>
      </trkpt>
      <trkpt lat="46.75157" lon="6.34569">
        <ele>1330.9</ele>
        <time>2020-08-27T13:36:23Z</time>
      </trkpt>
      <trkpt lat="46.75159" lon="6.34572">
        <ele>1330.9</ele>
        <time>2020-08-27T13:36:24Z</time>
      </trkpt>
      <trkpt lat="46.75162" lon="6.34575">
        <ele>1330.9</ele>
        <time>2020-08-27T13:36:25Z</time>
      </trkpt>
      <trkpt lat="46.75165" lon="6.34578">
        <ele>1330.9</ele>
        <time>2020-08-27T13:36:26Z</time>
      </trkpt>
      <trkpt lat="46.75168" lon="6.34582">
        <ele>1330.9</ele>
        <time>2020-08-27T13:36:27Z</time>
      </trkpt>
      <trkpt lat="46.7517" lon="6.34585">
        <ele>1330.9</ele>
        <time>2020-08-27T13:36:28Z</time>
      </trkpt>
      <trkpt lat="46.75173" lon="6.34589">
        <ele>1330.9</ele>
        <time>2020-08-27T13:36:29Z</time>
      </trkpt>
      <trkpt lat="46.75176" lon="6.34592">
        <ele>1330.9</ele>
        <time>2020-08-27T13:36:30Z</time>
      </trkpt>
      <trkpt lat="46.75178" lon="6.34596">
        <ele>1330.9</ele>
        <time>2020-08-27T13:36:31Z</time>
      </trkpt>
      <trkpt lat="46.7518" lon="6.346">
        <ele>1330.8</ele>
        <time>2020-08-27T13:36:32Z</time>
      </trkpt>
      <trkpt lat="46.75182" lon="6.34604">
        <ele>1330.8</ele>
        <time>2020-08-27T13:36:33Z</time>
      </trkpt>
      <trkpt lat="46.75184" lon="6.34608">
        <ele>1330.7</ele>
        <time>2020-08-27T13:36:34Z</time>
      </trkpt>
      <trkpt lat="46.75185" lon="6.34612">
        <ele>1330.7</ele>
        <time>2020-08-27T13:36:35Z</time>
      </trkpt>
      <trkpt lat="46.75186" lon="6.34616">
        <ele>1330.7</ele>
        <time>2020-08-27T13:36:36Z</time>
      </trkpt>
      <trkpt lat="46.75188" lon="6.34619">
        <ele>1330.7</ele>
        <time>2020-08-27T13:36:37Z</time>
      </trkpt>
      <trkpt lat="46.7519" lon="6.34622">
        <ele>1330.7</ele>
        <time>2020-08-27T13:36:38Z</time>
      </trkpt>
      <trkpt lat="46.75192" lon="6.34626">
        <ele>1330.6</ele>
        <time>2020-08-27T13:36:39Z</time>
      </trkpt>
      <trkpt lat="46.75194" lon="6.34629">
        <ele>1330.7</ele>
        <time>2020-08-27T13:36:40Z</time>
      </trkpt>
      <trkpt lat="46.75195" lon="6.34632">
        <ele>1330.7</ele>
        <time>2020-08-27T13:36:41Z</time>
      </trkpt>
      <trkpt lat="46.75197" lon="6.34635">
        <ele>1330.7</ele>
        <time>2020-08-27T13:36:42Z</time>
      </trkpt>
      <trkpt lat="46.75198" lon="6.34639">
        <ele>1330.7</ele>
        <time>2020-08-27T13:36:43Z</time>
      </trkpt>
      <trkpt lat="46.752" lon="6.34642">
        <ele>1330.7</ele>
        <time>2020-08-27T13:36:44Z</time>
      </trkpt>
      <trkpt lat="46.75201" lon="6.34645">
        <ele>1330.7</ele>
        <time>2020-08-27T13:36:45Z</time>
      </trkpt>
      <trkpt lat="46.75202" lon="6.34648">
        <ele>1330.8</ele>
        <time>2020-08-27T13:36:46Z</time>
      </trkpt>
      <trkpt lat="46.75204" lon="6.34651">
        <ele>1330.8</ele>
        <time>2020-08-27T13:36:47Z</time>
      </trkpt>
      <trkpt lat="46.75205" lon="6.34655">
        <ele>1330.8</ele>
        <time>2020-08-27T13:36:48Z</time>
      </trkpt>
      <trkpt lat="46.75207" lon="6.34658">
        <ele>1330.8</ele>
        <time>2020-08-27T13:36:49Z</time>
      </trkpt>
      <trkpt lat="46.75209" lon="6.34662">
        <ele>1330.8</ele>
        <time>2020-08-27T13:36:50Z</time>
      </trkpt>
      <trkpt lat="46.75211" lon="6.34665">
        <ele>1330.8</ele>
        <time>2020-08-27T13:36:51Z</time>
      </trkpt>
      <trkpt lat="46.75213" lon="6.34667">
        <ele>1330.9</ele>
        <time>2020-08-27T13:36:52Z</time>
      </trkpt>
      <trkpt lat="46.75214" lon="6.3467">
        <ele>1331</ele>
        <time>2020-08-27T13:36:53Z</time>
      </trkpt>
      <trkpt lat="46.75216" lon="6.34673">
        <ele>1331</ele>
        <time>2020-08-27T13:36:54Z</time>
      </trkpt>
      <trkpt lat="46.75218" lon="6.34676">
        <ele>1331.1</ele>
        <time>2020-08-27T13:36:55Z</time>
      </trkpt>
      <trkpt lat="46.75219" lon="6.34679">
        <ele>1331.1</ele>
        <time>2020-08-27T13:36:56Z</time>
      </trkpt>
      <trkpt lat="46.75221" lon="6.34681">
        <ele>1331.2</ele>
        <time>2020-08-27T13:36:57Z</time>
      </trkpt>
      <trkpt lat="46.75222" lon="6.34684">
        <ele>1331.3</ele>
        <time>2020-08-27T13:36:58Z</time>
      </trkpt>
      <trkpt lat="46.75223" lon="6.34686">
        <ele>1331.3</ele>
        <time>2020-08-27T13:36:59Z</time>
      </trkpt>
      <trkpt lat="46.75225" lon="6.34688">
        <ele>1331.3</ele>
        <time>2020-08-27T13:37:00Z</time>
      </trkpt>
      <trkpt lat="46.75226" lon="6.3469">
        <ele>1331.4</ele>
        <time>2020-08-27T13:37:01Z</time>
      </trkpt>
      <trkpt lat="46.75227" lon="6.34692">
        <ele>1331.4</ele>
        <time>2020-08-27T13:37:02Z</time>
      </trkpt>
      <trkpt lat="46.75228" lon="6.34694">
        <ele>1331.5</ele>
        <time>2020-08-27T13:37:03Z</time>
      </trkpt>
      <trkpt lat="46.75229" lon="6.34697">
        <ele>1331.5</ele>
        <time>2020-08-27T13:37:04Z</time>
      </trkpt>
      <trkpt lat="46.7523" lon="6.34699">
        <ele>1331.6</ele>
        <time>2020-08-27T13:37:05Z</time>
      </trkpt>
      <trkpt lat="46.75231" lon="6.34701">
        <ele>1331.8</ele>
        <time>2020-08-27T13:37:06Z</time>
      </trkpt>
      <trkpt lat="46.75232" lon="6.34702">
        <ele>1331.9</ele>
        <time>2020-08-27T13:37:07Z</time>
      </trkpt>
      <trkpt lat="46.75233" lon="6.34704">
        <ele>1332.1</ele>
        <time>2020-08-27T13:37:08Z</time>
      </trkpt>
      <trkpt lat="46.75234" lon="6.34706">
        <ele>1332.2</ele>
        <time>2020-08-27T13:37:09Z</time>
      </trkpt>
      <trkpt lat="46.75236" lon="6.34709">
        <ele>1332.4</ele>
        <time>2020-08-27T13:37:10Z</time>
      </trkpt>
      <trkpt lat="46.75237" lon="6.34711">
        <ele>1332.5</ele>
        <time>2020-08-27T13:37:11Z</time>
      </trkpt>
      <trkpt lat="46.75238" lon="6.34713">
        <ele>1332.6</ele>
        <time>2020-08-27T13:37:12Z</time>
      </trkpt>
      <trkpt lat="46.75238" lon="6.34715">
        <ele>1332.7</ele>
        <time>2020-08-27T13:37:13Z</time>
      </trkpt>
      <trkpt lat="46.75239" lon="6.34717">
        <ele>1332.7</ele>
        <time>2020-08-27T13:37:14Z</time>
      </trkpt>
      <trkpt lat="46.7524" lon="6.3472">
        <ele>1332.8</ele>
        <time>2020-08-27T13:37:15Z</time>
      </trkpt>
      <trkpt lat="46.75241" lon="6.34722">
        <ele>1332.9</ele>
        <time>2020-08-27T13:37:16Z</time>
      </trkpt>
      <trkpt lat="46.75242" lon="6.34724">
        <ele>1333</ele>
        <time>2020-08-27T13:37:17Z</time>
      </trkpt>
      <trkpt lat="46.75243" lon="6.34726">
        <ele>1333</ele>
        <time>2020-08-27T13:37:18Z</time>
      </trkpt>
      <trkpt lat="46.75244" lon="6.34728">
        <ele>1333.1</ele>
        <time>2020-08-27T13:37:19Z</time>
      </trkpt>
      <trkpt lat="46.75244" lon="6.3473">
        <ele>1333.1</ele>
        <time>2020-08-27T13:37:20Z</time>
      </trkpt>
      <trkpt lat="46.75245" lon="6.34733">
        <ele>1333.2</ele>
        <time>2020-08-27T13:37:21Z</time>
      </trkpt>
      <trkpt lat="46.75247" lon="6.34736">
        <ele>1333.2</ele>
        <time>2020-08-27T13:37:22Z</time>
      </trkpt>
      <trkpt lat="46.75249" lon="6.34739">
        <ele>1333.3</ele>
        <time>2020-08-27T13:37:23Z</time>
      </trkpt>
      <trkpt lat="46.75251" lon="6.34742">
        <ele>1333.3</ele>
        <time>2020-08-27T13:37:24Z</time>
      </trkpt>
      <trkpt lat="46.75252" lon="6.34746">
        <ele>1333.4</ele>
        <time>2020-08-27T13:37:25Z</time>
      </trkpt>
      <trkpt lat="46.75254" lon="6.34749">
        <ele>1333.4</ele>
        <time>2020-08-27T13:37:26Z</time>
      </trkpt>
      <trkpt lat="46.75256" lon="6.34754">
        <ele>1333.5</ele>
        <time>2020-08-27T13:37:27Z</time>
      </trkpt>
      <trkpt lat="46.75258" lon="6.34758">
        <ele>1333.5</ele>
        <time>2020-08-27T13:37:28Z</time>
      </trkpt>
      <trkpt lat="46.7526" lon="6.34762">
        <ele>1333.5</ele>
        <time>2020-08-27T13:37:29Z</time>
      </trkpt>
      <trkpt lat="46.75262" lon="6.34765">
        <ele>1333.6</ele>
        <time>2020-08-27T13:37:30Z</time>
      </trkpt>
      <trkpt lat="46.75264" lon="6.34769">
        <ele>1333.6</ele>
        <time>2020-08-27T13:37:31Z</time>
      </trkpt>
      <trkpt lat="46.75266" lon="6.34772">
        <ele>1333.6</ele>
        <time>2020-08-27T13:37:32Z</time>
      </trkpt>
      <trkpt lat="46.75268" lon="6.34776">
        <ele>1333.6</ele>
        <time>2020-08-27T13:37:33Z</time>
      </trkpt>
      <trkpt lat="46.7527" lon="6.34778">
        <ele>1333.7</ele>
        <time>2020-08-27T13:37:34Z</time>
      </trkpt>
      <trkpt lat="46.75271" lon="6.34781">
        <ele>1333.7</ele>
        <time>2020-08-27T13:37:35Z</time>
      </trkpt>
      <trkpt lat="46.75273" lon="6.34783">
        <ele>1333.7</ele>
        <time>2020-08-27T13:37:36Z</time>
      </trkpt>
      <trkpt lat="46.75274" lon="6.34786">
        <ele>1333.7</ele>
        <time>2020-08-27T13:37:37Z</time>
      </trkpt>
      <trkpt lat="46.75275" lon="6.34788">
        <ele>1333.7</ele>
        <time>2020-08-27T13:37:38Z</time>
      </trkpt>
      <trkpt lat="46.75276" lon="6.3479">
        <ele>1333.8</ele>
        <time>2020-08-27T13:37:39Z</time>
      </trkpt>
      <trkpt lat="46.75276" lon="6.34793">
        <ele>1333.8</ele>
        <time>2020-08-27T13:37:40Z</time>
      </trkpt>
      <trkpt lat="46.75277" lon="6.34796">
        <ele>1333.8</ele>
        <time>2020-08-27T13:37:41Z</time>
      </trkpt>
      <trkpt lat="46.75277" lon="6.34799">
        <ele>1333.8</ele>
        <time>2020-08-27T13:37:42Z</time>
      </trkpt>
      <trkpt lat="46.75276" lon="6.34802">
        <ele>1333.9</ele>
        <time>2020-08-27T13:37:43Z</time>
      </trkpt>
      <trkpt lat="46.75275" lon="6.34805">
        <ele>1334</ele>
        <time>2020-08-27T13:37:44Z</time>
      </trkpt>
      <trkpt lat="46.75274" lon="6.34808">
        <ele>1334</ele>
        <time>2020-08-27T13:37:45Z</time>
      </trkpt>
      <trkpt lat="46.75273" lon="6.3481">
        <ele>1334</ele>
        <time>2020-08-27T13:37:46Z</time>
      </trkpt>
      <trkpt lat="46.75273" lon="6.34813">
        <ele>1334.2</ele>
        <time>2020-08-27T13:37:47Z</time>
      </trkpt>
      <trkpt lat="46.75273" lon="6.34817">
        <ele>1334.3</ele>
        <time>2020-08-27T13:37:48Z</time>
      </trkpt>
      <trkpt lat="46.75274" lon="6.34821">
        <ele>1334.3</ele>
        <time>2020-08-27T13:37:49Z</time>
      </trkpt>
      <trkpt lat="46.75274" lon="6.34825">
        <ele>1334.4</ele>
        <time>2020-08-27T13:37:50Z</time>
      </trkpt>
      <trkpt lat="46.75275" lon="6.34828">
        <ele>1334.5</ele>
        <time>2020-08-27T13:37:51Z</time>
      </trkpt>
      <trkpt lat="46.75275" lon="6.34831">
        <ele>1334.6</ele>
        <time>2020-08-27T13:37:52Z</time>
      </trkpt>
      <trkpt lat="46.75276" lon="6.34835">
        <ele>1334.7</ele>
        <time>2020-08-27T13:37:53Z</time>
      </trkpt>
      <trkpt lat="46.75278" lon="6.34838">
        <ele>1334.7</ele>
        <time>2020-08-27T13:37:54Z</time>
      </trkpt>
      <trkpt lat="46.75279" lon="6.34841">
        <ele>1334.8</ele>
        <time>2020-08-27T13:37:55Z</time>
      </trkpt>
      <trkpt lat="46.75281" lon="6.34843">
        <ele>1334.9</ele>
        <time>2020-08-27T13:37:56Z</time>
      </trkpt>
      <trkpt lat="46.75284" lon="6.34847">
        <ele>1334.9</ele>
        <time>2020-08-27T13:37:57Z</time>
      </trkpt>
      <trkpt lat="46.75287" lon="6.34849">
        <ele>1335</ele>
        <time>2020-08-27T13:37:58Z</time>
      </trkpt>
      <trkpt lat="46.75289" lon="6.34852">
        <ele>1335</ele>
        <time>2020-08-27T13:37:59Z</time>
      </trkpt>
      <trkpt lat="46.75291" lon="6.34855">
        <ele>1335.1</ele>
        <time>2020-08-27T13:38:00Z</time>
      </trkpt>
      <trkpt lat="46.75293" lon="6.34857">
        <ele>1335.2</ele>
        <time>2020-08-27T13:38:01Z</time>
      </trkpt>
      <trkpt lat="46.75295" lon="6.3486">
        <ele>1335.3</ele>
        <time>2020-08-27T13:38:02Z</time>
      </trkpt>
      <trkpt lat="46.75298" lon="6.34863">
        <ele>1335.4</ele>
        <time>2020-08-27T13:38:03Z</time>
      </trkpt>
      <trkpt lat="46.753" lon="6.34865">
        <ele>1335.5</ele>
        <time>2020-08-27T13:38:04Z</time>
      </trkpt>
      <trkpt lat="46.75302" lon="6.34868">
        <ele>1335.6</ele>
        <time>2020-08-27T13:38:05Z</time>
      </trkpt>
      <trkpt lat="46.75304" lon="6.34869">
        <ele>1335.7</ele>
        <time>2020-08-27T13:38:06Z</time>
      </trkpt>
      <trkpt lat="46.75306" lon="6.34872">
        <ele>1335.7</ele>
        <time>2020-08-27T13:38:07Z</time>
      </trkpt>
      <trkpt lat="46.75307" lon="6.34874">
        <ele>1335.9</ele>
        <time>2020-08-27T13:38:08Z</time>
      </trkpt>
      <trkpt lat="46.75309" lon="6.34877">
        <ele>1336.1</ele>
        <time>2020-08-27T13:38:09Z</time>
      </trkpt>
      <trkpt lat="46.7531" lon="6.3488">
        <ele>1336.4</ele>
        <time>2020-08-27T13:38:10Z</time>
      </trkpt>
      <trkpt lat="46.75311" lon="6.34883">
        <ele>1336.6</ele>
        <time>2020-08-27T13:38:11Z</time>
      </trkpt>
      <trkpt lat="46.75313" lon="6.34885">
        <ele>1336.8</ele>
        <time>2020-08-27T13:38:12Z</time>
      </trkpt>
      <trkpt lat="46.75313" lon="6.34888">
        <ele>1337</ele>
        <time>2020-08-27T13:38:13Z</time>
      </trkpt>
      <trkpt lat="46.75314" lon="6.3489">
        <ele>1337.2</ele>
        <time>2020-08-27T13:38:14Z</time>
      </trkpt>
      <trkpt lat="46.75316" lon="6.34893">
        <ele>1337.3</ele>
        <time>2020-08-27T13:38:15Z</time>
      </trkpt>
      <trkpt lat="46.75317" lon="6.34896">
        <ele>1337.5</ele>
        <time>2020-08-27T13:38:16Z</time>
      </trkpt>
      <trkpt lat="46.75318" lon="6.34899">
        <ele>1337.6</ele>
        <time>2020-08-27T13:38:17Z</time>
      </trkpt>
      <trkpt lat="46.7532" lon="6.34901">
        <ele>1337.8</ele>
        <time>2020-08-27T13:38:18Z</time>
      </trkpt>
      <trkpt lat="46.75321" lon="6.34903">
        <ele>1337.9</ele>
        <time>2020-08-27T13:38:19Z</time>
      </trkpt>
      <trkpt lat="46.75322" lon="6.34906">
        <ele>1338.2</ele>
        <time>2020-08-27T13:38:20Z</time>
      </trkpt>
      <trkpt lat="46.75323" lon="6.34909">
        <ele>1338.5</ele>
        <time>2020-08-27T13:38:21Z</time>
      </trkpt>
      <trkpt lat="46.75325" lon="6.34912">
        <ele>1338.8</ele>
        <time>2020-08-27T13:38:22Z</time>
      </trkpt>
      <trkpt lat="46.75325" lon="6.34916">
        <ele>1339</ele>
        <time>2020-08-27T13:38:23Z</time>
      </trkpt>
      <trkpt lat="46.75326" lon="6.34919">
        <ele>1339.3</ele>
        <time>2020-08-27T13:38:24Z</time>
      </trkpt>
      <trkpt lat="46.75326" lon="6.34922">
        <ele>1339.4</ele>
        <time>2020-08-27T13:38:25Z</time>
      </trkpt>
      <trkpt lat="46.75326" lon="6.34925">
        <ele>1339.6</ele>
        <time>2020-08-27T13:38:26Z</time>
      </trkpt>
      <trkpt lat="46.75326" lon="6.34928">
        <ele>1339.8</ele>
        <time>2020-08-27T13:38:27Z</time>
      </trkpt>
      <trkpt lat="46.75326" lon="6.34931">
        <ele>1339.9</ele>
        <time>2020-08-27T13:38:28Z</time>
      </trkpt>
      <trkpt lat="46.75325" lon="6.34934">
        <ele>1340.1</ele>
        <time>2020-08-27T13:38:29Z</time>
      </trkpt>
      <trkpt lat="46.75325" lon="6.34937">
        <ele>1340.3</ele>
        <time>2020-08-27T13:38:30Z</time>
      </trkpt>
      <trkpt lat="46.75325" lon="6.3494">
        <ele>1340.4</ele>
        <time>2020-08-27T13:38:31Z</time>
      </trkpt>
      <trkpt lat="46.75325" lon="6.34943">
        <ele>1340.6</ele>
        <time>2020-08-27T13:38:32Z</time>
      </trkpt>
      <trkpt lat="46.75326" lon="6.34946">
        <ele>1340.7</ele>
        <time>2020-08-27T13:38:33Z</time>
      </trkpt>
      <trkpt lat="46.75327" lon="6.34948">
        <ele>1340.9</ele>
        <time>2020-08-27T13:38:34Z</time>
      </trkpt>
      <trkpt lat="46.75328" lon="6.34951">
        <ele>1341</ele>
        <time>2020-08-27T13:38:35Z</time>
      </trkpt>
      <trkpt lat="46.75329" lon="6.34954">
        <ele>1341.1</ele>
        <time>2020-08-27T13:38:36Z</time>
      </trkpt>
      <trkpt lat="46.7533" lon="6.34956">
        <ele>1341.2</ele>
        <time>2020-08-27T13:38:37Z</time>
      </trkpt>
      <trkpt lat="46.75332" lon="6.34959">
        <ele>1341.3</ele>
        <time>2020-08-27T13:38:38Z</time>
      </trkpt>
      <trkpt lat="46.75334" lon="6.34963">
        <ele>1341.5</ele>
        <time>2020-08-27T13:38:39Z</time>
      </trkpt>
      <trkpt lat="46.75335" lon="6.34967">
        <ele>1341.6</ele>
        <time>2020-08-27T13:38:40Z</time>
      </trkpt>
      <trkpt lat="46.75338" lon="6.34972">
        <ele>1341.7</ele>
        <time>2020-08-27T13:38:41Z</time>
      </trkpt>
      <trkpt lat="46.7534" lon="6.34976">
        <ele>1341.8</ele>
        <time>2020-08-27T13:38:42Z</time>
      </trkpt>
      <trkpt lat="46.75341" lon="6.34981">
        <ele>1341.9</ele>
        <time>2020-08-27T13:38:43Z</time>
      </trkpt>
      <trkpt lat="46.75344" lon="6.34987">
        <ele>1342</ele>
        <time>2020-08-27T13:38:44Z</time>
      </trkpt>
      <trkpt lat="46.75346" lon="6.34993">
        <ele>1342.1</ele>
        <time>2020-08-27T13:38:45Z</time>
      </trkpt>
      <trkpt lat="46.75348" lon="6.34999">
        <ele>1342.2</ele>
        <time>2020-08-27T13:38:46Z</time>
      </trkpt>
      <trkpt lat="46.7535" lon="6.35005">
        <ele>1342.3</ele>
        <time>2020-08-27T13:38:47Z</time>
      </trkpt>
      <trkpt lat="46.75353" lon="6.35011">
        <ele>1342.3</ele>
        <time>2020-08-27T13:38:48Z</time>
      </trkpt>
      <trkpt lat="46.75356" lon="6.35017">
        <ele>1342.2</ele>
        <time>2020-08-27T13:38:49Z</time>
      </trkpt>
      <trkpt lat="46.75359" lon="6.35024">
        <ele>1342</ele>
        <time>2020-08-27T13:38:50Z</time>
      </trkpt>
      <trkpt lat="46.75361" lon="6.3503">
        <ele>1341.6</ele>
        <time>2020-08-27T13:38:51Z</time>
      </trkpt>
      <trkpt lat="46.75365" lon="6.35037">
        <ele>1341.2</ele>
        <time>2020-08-27T13:38:52Z</time>
      </trkpt>
      <trkpt lat="46.75368" lon="6.35045">
        <ele>1340.8</ele>
        <time>2020-08-27T13:38:53Z</time>
      </trkpt>
      <trkpt lat="46.75372" lon="6.35052">
        <ele>1340.4</ele>
        <time>2020-08-27T13:38:54Z</time>
      </trkpt>
      <trkpt lat="46.75376" lon="6.35059">
        <ele>1340.1</ele>
        <time>2020-08-27T13:38:55Z</time>
      </trkpt>
      <trkpt lat="46.75379" lon="6.35066">
        <ele>1339.6</ele>
        <time>2020-08-27T13:38:56Z</time>
      </trkpt>
      <trkpt lat="46.75383" lon="6.35073">
        <ele>1339.1</ele>
        <time>2020-08-27T13:38:57Z</time>
      </trkpt>
      <trkpt lat="46.75388" lon="6.35081">
        <ele>1338.6</ele>
        <time>2020-08-27T13:38:58Z</time>
      </trkpt>
      <trkpt lat="46.75393" lon="6.35088">
        <ele>1338.2</ele>
        <time>2020-08-27T13:38:59Z</time>
      </trkpt>
      <trkpt lat="46.75397" lon="6.35094">
        <ele>1337.5</ele>
        <time>2020-08-27T13:39:00Z</time>
      </trkpt>
      <trkpt lat="46.75401" lon="6.351">
        <ele>1336.9</ele>
        <time>2020-08-27T13:39:01Z</time>
      </trkpt>
      <trkpt lat="46.75406" lon="6.35106">
        <ele>1336.3</ele>
        <time>2020-08-27T13:39:02Z</time>
      </trkpt>
      <trkpt lat="46.75411" lon="6.35112">
        <ele>1335.6</ele>
        <time>2020-08-27T13:39:03Z</time>
      </trkpt>
      <trkpt lat="46.75417" lon="6.35117">
        <ele>1335.1</ele>
        <time>2020-08-27T13:39:04Z</time>
      </trkpt>
      <trkpt lat="46.75423" lon="6.35123">
        <ele>1334.5</ele>
        <time>2020-08-27T13:39:05Z</time>
      </trkpt>
      <trkpt lat="46.7543" lon="6.35129">
        <ele>1334</ele>
        <time>2020-08-27T13:39:06Z</time>
      </trkpt>
      <trkpt lat="46.75436" lon="6.35135">
        <ele>1333.5</ele>
        <time>2020-08-27T13:39:07Z</time>
      </trkpt>
      <trkpt lat="46.75443" lon="6.35141">
        <ele>1333</ele>
        <time>2020-08-27T13:39:08Z</time>
      </trkpt>
      <trkpt lat="46.75451" lon="6.35147">
        <ele>1332.5</ele>
        <time>2020-08-27T13:39:09Z</time>
      </trkpt>
      <trkpt lat="46.75458" lon="6.35152">
        <ele>1331.9</ele>
        <time>2020-08-27T13:39:10Z</time>
      </trkpt>
      <trkpt lat="46.75465" lon="6.35157">
        <ele>1331.4</ele>
        <time>2020-08-27T13:39:11Z</time>
      </trkpt>
      <trkpt lat="46.75472" lon="6.35162">
        <ele>1330.8</ele>
        <time>2020-08-27T13:39:12Z</time>
      </trkpt>
      <trkpt lat="46.75478" lon="6.35168">
        <ele>1330.4</ele>
        <time>2020-08-27T13:39:13Z</time>
      </trkpt>
      <trkpt lat="46.75484" lon="6.35174">
        <ele>1329.9</ele>
        <time>2020-08-27T13:39:14Z</time>
      </trkpt>
      <trkpt lat="46.75489" lon="6.3518">
        <ele>1329.5</ele>
        <time>2020-08-27T13:39:15Z</time>
      </trkpt>
      <trkpt lat="46.75495" lon="6.35186">
        <ele>1329.1</ele>
        <time>2020-08-27T13:39:16Z</time>
      </trkpt>
      <trkpt lat="46.75501" lon="6.35192">
        <ele>1328.7</ele>
        <time>2020-08-27T13:39:17Z</time>
      </trkpt>
      <trkpt lat="46.75506" lon="6.35197">
        <ele>1328.4</ele>
        <time>2020-08-27T13:39:18Z</time>
      </trkpt>
      <trkpt lat="46.75511" lon="6.35201">
        <ele>1327.9</ele>
        <time>2020-08-27T13:39:19Z</time>
      </trkpt>
      <trkpt lat="46.75516" lon="6.35205">
        <ele>1327.5</ele>
        <time>2020-08-27T13:39:20Z</time>
      </trkpt>
      <trkpt lat="46.7552" lon="6.35209">
        <ele>1327.1</ele>
        <time>2020-08-27T13:39:21Z</time>
      </trkpt>
      <trkpt lat="46.75524" lon="6.35213">
        <ele>1326.7</ele>
        <time>2020-08-27T13:39:22Z</time>
      </trkpt>
      <trkpt lat="46.75527" lon="6.35216">
        <ele>1326.3</ele>
        <time>2020-08-27T13:39:23Z</time>
      </trkpt>
      <trkpt lat="46.75529" lon="6.35219">
        <ele>1325.9</ele>
        <time>2020-08-27T13:39:24Z</time>
      </trkpt>
      <trkpt lat="46.75531" lon="6.35222">
        <ele>1325.4</ele>
        <time>2020-08-27T13:39:25Z</time>
      </trkpt>
      <trkpt lat="46.75533" lon="6.35225">
        <ele>1325</ele>
        <time>2020-08-27T13:39:26Z</time>
      </trkpt>
      <trkpt lat="46.75534" lon="6.35226">
        <ele>1324.7</ele>
        <time>2020-08-27T13:39:27Z</time>
      </trkpt>
      <trkpt lat="46.75535" lon="6.35226">
        <ele>1324.3</ele>
        <time>2020-08-27T13:39:28Z</time>
      </trkpt>
      <trkpt lat="46.75535" lon="6.35227">
        <ele>1324</ele>
        <time>2020-08-27T13:39:29Z</time>
      </trkpt>
      <trkpt lat="46.75535" lon="6.35227">
        <ele>1323.7</ele>
        <time>2020-08-27T13:39:30Z</time>
      </trkpt>
      <trkpt lat="46.75536" lon="6.35228">
        <ele>1323.4</ele>
        <time>2020-08-27T13:39:31Z</time>
      </trkpt>
      <trkpt lat="46.75537" lon="6.3523">
        <ele>1323.1</ele>
        <time>2020-08-27T13:39:32Z</time>
      </trkpt>
      <trkpt lat="46.75537" lon="6.3523">
        <ele>1322.8</ele>
        <time>2020-08-27T13:39:33Z</time>
      </trkpt>
      <trkpt lat="46.75537" lon="6.35231">
        <ele>1322.6</ele>
        <time>2020-08-27T13:39:34Z</time>
      </trkpt>
      <trkpt lat="46.75537" lon="6.35231">
        <ele>1322.3</ele>
        <time>2020-08-27T13:39:35Z</time>
      </trkpt>
      <trkpt lat="46.75537" lon="6.35231">
        <ele>1322.1</ele>
        <time>2020-08-27T13:39:36Z</time>
      </trkpt>
      <trkpt lat="46.75538" lon="6.35231">
        <ele>1321.8</ele>
        <time>2020-08-27T13:39:37Z</time>
      </trkpt>
      <trkpt lat="46.75538" lon="6.35232">
        <ele>1321.6</ele>
        <time>2020-08-27T13:39:38Z</time>
      </trkpt>
      <trkpt lat="46.75538" lon="6.35233">
        <ele>1321.3</ele>
        <time>2020-08-27T13:39:39Z</time>
      </trkpt>
      <trkpt lat="46.75539" lon="6.35235">
        <ele>1321.1</ele>
        <time>2020-08-27T13:39:40Z</time>
      </trkpt>
      <trkpt lat="46.7554" lon="6.35238">
        <ele>1320.9</ele>
        <time>2020-08-27T13:39:41Z</time>
      </trkpt>
      <trkpt lat="46.75542" lon="6.35241">
        <ele>1320.8</ele>
        <time>2020-08-27T13:39:42Z</time>
      </trkpt>
      <trkpt lat="46.75543" lon="6.35244">
        <ele>1320.6</ele>
        <time>2020-08-27T13:39:43Z</time>
      </trkpt>
      <trkpt lat="46.75545" lon="6.35247">
        <ele>1320.4</ele>
        <time>2020-08-27T13:39:44Z</time>
      </trkpt>
      <trkpt lat="46.75546" lon="6.35251">
        <ele>1320.3</ele>
        <time>2020-08-27T13:39:45Z</time>
      </trkpt>
      <trkpt lat="46.75548" lon="6.35253">
        <ele>1320.1</ele>
        <time>2020-08-27T13:39:46Z</time>
      </trkpt>
      <trkpt lat="46.75549" lon="6.35256">
        <ele>1320</ele>
        <time>2020-08-27T13:39:47Z</time>
      </trkpt>
      <trkpt lat="46.75551" lon="6.35259">
        <ele>1319.9</ele>
        <time>2020-08-27T13:39:48Z</time>
      </trkpt>
      <trkpt lat="46.75553" lon="6.35263">
        <ele>1319.8</ele>
        <time>2020-08-27T13:39:49Z</time>
      </trkpt>
      <trkpt lat="46.75555" lon="6.35268">
        <ele>1319.7</ele>
        <time>2020-08-27T13:39:50Z</time>
      </trkpt>
      <trkpt lat="46.75557" lon="6.35272">
        <ele>1319.6</ele>
        <time>2020-08-27T13:39:51Z</time>
      </trkpt>
      <trkpt lat="46.75559" lon="6.35276">
        <ele>1319.5</ele>
        <time>2020-08-27T13:39:52Z</time>
      </trkpt>
      <trkpt lat="46.75561" lon="6.35281">
        <ele>1319.4</ele>
        <time>2020-08-27T13:39:53Z</time>
      </trkpt>
      <trkpt lat="46.75564" lon="6.35285">
        <ele>1319.3</ele>
        <time>2020-08-27T13:39:54Z</time>
      </trkpt>
      <trkpt lat="46.75567" lon="6.3529">
        <ele>1319.2</ele>
        <time>2020-08-27T13:39:55Z</time>
      </trkpt>
      <trkpt lat="46.7557" lon="6.35294">
        <ele>1319.1</ele>
        <time>2020-08-27T13:39:56Z</time>
      </trkpt>
      <trkpt lat="46.75572" lon="6.35297">
        <ele>1319</ele>
        <time>2020-08-27T13:39:57Z</time>
      </trkpt>
      <trkpt lat="46.75574" lon="6.35301">
        <ele>1318.9</ele>
        <time>2020-08-27T13:39:58Z</time>
      </trkpt>
      <trkpt lat="46.75576" lon="6.35304">
        <ele>1318.9</ele>
        <time>2020-08-27T13:39:59Z</time>
      </trkpt>
      <trkpt lat="46.75577" lon="6.35307">
        <ele>1318.8</ele>
        <time>2020-08-27T13:40:00Z</time>
      </trkpt>
      <trkpt lat="46.75579" lon="6.35309">
        <ele>1318.7</ele>
        <time>2020-08-27T13:40:01Z</time>
      </trkpt>
      <trkpt lat="46.75581" lon="6.35312">
        <ele>1318.8</ele>
        <time>2020-08-27T13:40:02Z</time>
      </trkpt>
      <trkpt lat="46.75583" lon="6.35314">
        <ele>1318.9</ele>
        <time>2020-08-27T13:40:03Z</time>
      </trkpt>
      <trkpt lat="46.75586" lon="6.35316">
        <ele>1318.9</ele>
        <time>2020-08-27T13:40:04Z</time>
      </trkpt>
      <trkpt lat="46.75588" lon="6.35318">
        <ele>1319</ele>
        <time>2020-08-27T13:40:05Z</time>
      </trkpt>
      <trkpt lat="46.75591" lon="6.3532">
        <ele>1319</ele>
        <time>2020-08-27T13:40:06Z</time>
      </trkpt>
      <trkpt lat="46.75593" lon="6.35323">
        <ele>1319.1</ele>
        <time>2020-08-27T13:40:07Z</time>
      </trkpt>
      <trkpt lat="46.75596" lon="6.35325">
        <ele>1319.1</ele>
        <time>2020-08-27T13:40:08Z</time>
      </trkpt>
      <trkpt lat="46.75598" lon="6.35327">
        <ele>1319.1</ele>
        <time>2020-08-27T13:40:09Z</time>
      </trkpt>
      <trkpt lat="46.75601" lon="6.35329">
        <ele>1319.2</ele>
        <time>2020-08-27T13:40:10Z</time>
      </trkpt>
      <trkpt lat="46.75603" lon="6.35331">
        <ele>1319.2</ele>
        <time>2020-08-27T13:40:11Z</time>
      </trkpt>
      <trkpt lat="46.75606" lon="6.35332">
        <ele>1319.4</ele>
        <time>2020-08-27T13:40:12Z</time>
      </trkpt>
      <trkpt lat="46.75608" lon="6.35334">
        <ele>1319.5</ele>
        <time>2020-08-27T13:40:13Z</time>
      </trkpt>
      <trkpt lat="46.7561" lon="6.35336">
        <ele>1319.7</ele>
        <time>2020-08-27T13:40:14Z</time>
      </trkpt>
      <trkpt lat="46.75612" lon="6.35337">
        <ele>1319.9</ele>
        <time>2020-08-27T13:40:15Z</time>
      </trkpt>
      <trkpt lat="46.75614" lon="6.35339">
        <ele>1320.1</ele>
        <time>2020-08-27T13:40:16Z</time>
      </trkpt>
      <trkpt lat="46.75617" lon="6.35341">
        <ele>1320.3</ele>
        <time>2020-08-27T13:40:17Z</time>
      </trkpt>
      <trkpt lat="46.75619" lon="6.35342">
        <ele>1320.4</ele>
        <time>2020-08-27T13:40:18Z</time>
      </trkpt>
      <trkpt lat="46.75621" lon="6.35344">
        <ele>1320.7</ele>
        <time>2020-08-27T13:40:19Z</time>
      </trkpt>
      <trkpt lat="46.75623" lon="6.35346">
        <ele>1320.9</ele>
        <time>2020-08-27T13:40:20Z</time>
      </trkpt>
      <trkpt lat="46.75625" lon="6.35348">
        <ele>1321.1</ele>
        <time>2020-08-27T13:40:21Z</time>
      </trkpt>
      <trkpt lat="46.75628" lon="6.35349">
        <ele>1321.3</ele>
        <time>2020-08-27T13:40:22Z</time>
      </trkpt>
      <trkpt lat="46.7563" lon="6.3535">
        <ele>1321.4</ele>
        <time>2020-08-27T13:40:23Z</time>
      </trkpt>
      <trkpt lat="46.75632" lon="6.35353">
        <ele>1321.6</ele>
        <time>2020-08-27T13:40:24Z</time>
      </trkpt>
      <trkpt lat="46.75634" lon="6.35355">
        <ele>1321.8</ele>
        <time>2020-08-27T13:40:25Z</time>
      </trkpt>
      <trkpt lat="46.75636" lon="6.35357">
        <ele>1321.9</ele>
        <time>2020-08-27T13:40:26Z</time>
      </trkpt>
      <trkpt lat="46.75638" lon="6.35359">
        <ele>1322.1</ele>
        <time>2020-08-27T13:40:27Z</time>
      </trkpt>
      <trkpt lat="46.7564" lon="6.35361">
        <ele>1322.2</ele>
        <time>2020-08-27T13:40:28Z</time>
      </trkpt>
      <trkpt lat="46.75642" lon="6.35363">
        <ele>1322.3</ele>
        <time>2020-08-27T13:40:29Z</time>
      </trkpt>
      <trkpt lat="46.75643" lon="6.35365">
        <ele>1322.5</ele>
        <time>2020-08-27T13:40:30Z</time>
      </trkpt>
      <trkpt lat="46.75645" lon="6.35367">
        <ele>1322.7</ele>
        <time>2020-08-27T13:40:31Z</time>
      </trkpt>
      <trkpt lat="46.75647" lon="6.35369">
        <ele>1322.9</ele>
        <time>2020-08-27T13:40:32Z</time>
      </trkpt>
      <trkpt lat="46.75648" lon="6.35371">
        <ele>1323</ele>
        <time>2020-08-27T13:40:33Z</time>
      </trkpt>
      <trkpt lat="46.7565" lon="6.35373">
        <ele>1323.2</ele>
        <time>2020-08-27T13:40:34Z</time>
      </trkpt>
      <trkpt lat="46.75652" lon="6.35375">
        <ele>1323.3</ele>
        <time>2020-08-27T13:40:35Z</time>
      </trkpt>
      <trkpt lat="46.75654" lon="6.35377">
        <ele>1323.5</ele>
        <time>2020-08-27T13:40:36Z</time>
      </trkpt>
      <trkpt lat="46.75656" lon="6.35379">
        <ele>1323.6</ele>
        <time>2020-08-27T13:40:37Z</time>
      </trkpt>
      <trkpt lat="46.75657" lon="6.35381">
        <ele>1323.7</ele>
        <time>2020-08-27T13:40:38Z</time>
      </trkpt>
      <trkpt lat="46.75659" lon="6.35383">
        <ele>1323.8</ele>
        <time>2020-08-27T13:40:39Z</time>
      </trkpt>
      <trkpt lat="46.75661" lon="6.35385">
        <ele>1323.9</ele>
        <time>2020-08-27T13:40:40Z</time>
      </trkpt>
      <trkpt lat="46.75663" lon="6.35387">
        <ele>1324.1</ele>
        <time>2020-08-27T13:40:41Z</time>
      </trkpt>
      <trkpt lat="46.75664" lon="6.35389">
        <ele>1324.2</ele>
        <time>2020-08-27T13:40:42Z</time>
      </trkpt>
      <trkpt lat="46.75666" lon="6.35391">
        <ele>1324.3</ele>
        <time>2020-08-27T13:40:43Z</time>
      </trkpt>
      <trkpt lat="46.75668" lon="6.35393">
        <ele>1324.4</ele>
        <time>2020-08-27T13:40:44Z</time>
      </trkpt>
      <trkpt lat="46.7567" lon="6.35396">
        <ele>1324.5</ele>
        <time>2020-08-27T13:40:45Z</time>
      </trkpt>
      <trkpt lat="46.75673" lon="6.35399">
        <ele>1324.6</ele>
        <time>2020-08-27T13:40:46Z</time>
      </trkpt>
      <trkpt lat="46.75675" lon="6.35402">
        <ele>1324.7</ele>
        <time>2020-08-27T13:40:47Z</time>
      </trkpt>
      <trkpt lat="46.75677" lon="6.35405">
        <ele>1324.8</ele>
        <time>2020-08-27T13:40:48Z</time>
      </trkpt>
      <trkpt lat="46.7568" lon="6.35408">
        <ele>1324.8</ele>
        <time>2020-08-27T13:40:49Z</time>
      </trkpt>
      <trkpt lat="46.75682" lon="6.35411">
        <ele>1324.9</ele>
        <time>2020-08-27T13:40:50Z</time>
      </trkpt>
      <trkpt lat="46.75684" lon="6.35414">
        <ele>1324.9</ele>
        <time>2020-08-27T13:40:51Z</time>
      </trkpt>
      <trkpt lat="46.75686" lon="6.35417">
        <ele>1325</ele>
        <time>2020-08-27T13:40:52Z</time>
      </trkpt>
      <trkpt lat="46.75687" lon="6.3542">
        <ele>1325</ele>
        <time>2020-08-27T13:40:53Z</time>
      </trkpt>
      <trkpt lat="46.75689" lon="6.35423">
        <ele>1325.1</ele>
        <time>2020-08-27T13:40:54Z</time>
      </trkpt>
      <trkpt lat="46.7569" lon="6.35426">
        <ele>1325.1</ele>
        <time>2020-08-27T13:40:55Z</time>
      </trkpt>
      <trkpt lat="46.75691" lon="6.3543">
        <ele>1325.1</ele>
        <time>2020-08-27T13:40:56Z</time>
      </trkpt>
      <trkpt lat="46.75693" lon="6.35434">
        <ele>1325.1</ele>
        <time>2020-08-27T13:40:57Z</time>
      </trkpt>
      <trkpt lat="46.75694" lon="6.35439">
        <ele>1325.2</ele>
        <time>2020-08-27T13:40:58Z</time>
      </trkpt>
      <trkpt lat="46.75696" lon="6.35443">
        <ele>1325.2</ele>
        <time>2020-08-27T13:40:59Z</time>
      </trkpt>
      <trkpt lat="46.75697" lon="6.35446">
        <ele>1325.1</ele>
        <time>2020-08-27T13:41:00Z</time>
      </trkpt>
      <trkpt lat="46.75698" lon="6.35447">
        <ele>1325.1</ele>
        <time>2020-08-27T13:41:01Z</time>
      </trkpt>
      <trkpt lat="46.75698" lon="6.35448">
        <ele>1325.1</ele>
        <time>2020-08-27T13:41:02Z</time>
      </trkpt>
      <trkpt lat="46.75698" lon="6.35448">
        <ele>1325.1</ele>
        <time>2020-08-27T13:41:03Z</time>
      </trkpt>
      <trkpt lat="46.75697" lon="6.35448">
        <ele>1325.1</ele>
        <time>2020-08-27T13:41:04Z</time>
      </trkpt>
      <trkpt lat="46.75697" lon="6.35448">
        <ele>1325</ele>
        <time>2020-08-27T13:41:05Z</time>
      </trkpt>
      <trkpt lat="46.75697" lon="6.35448">
        <ele>1325</ele>
        <time>2020-08-27T13:41:06Z</time>
      </trkpt>
      <trkpt lat="46.75697" lon="6.35448">
        <ele>1325</ele>
        <time>2020-08-27T13:41:07Z</time>
      </trkpt>
      <trkpt lat="46.75698" lon="6.35449">
        <ele>1325</ele>
        <time>2020-08-27T13:41:08Z</time>
      </trkpt>
      <trkpt lat="46.75699" lon="6.35451">
        <ele>1325</ele>
        <time>2020-08-27T13:41:09Z</time>
      </trkpt>
      <trkpt lat="46.757" lon="6.35455">
        <ele>1325</ele>
        <time>2020-08-27T13:41:10Z</time>
      </trkpt>
      <trkpt lat="46.75701" lon="6.35459">
        <ele>1325.1</ele>
        <time>2020-08-27T13:41:11Z</time>
      </trkpt>
      <trkpt lat="46.75703" lon="6.35464">
        <ele>1325.1</ele>
        <time>2020-08-27T13:41:12Z</time>
      </trkpt>
      <trkpt lat="46.75705" lon="6.3547">
        <ele>1325</ele>
        <time>2020-08-27T13:41:13Z</time>
      </trkpt>
      <trkpt lat="46.75708" lon="6.35475">
        <ele>1325</ele>
        <time>2020-08-27T13:41:14Z</time>
      </trkpt>
      <trkpt lat="46.75711" lon="6.3548">
        <ele>1325</ele>
        <time>2020-08-27T13:41:15Z</time>
      </trkpt>
      <trkpt lat="46.75715" lon="6.35485">
        <ele>1324.9</ele>
        <time>2020-08-27T13:41:16Z</time>
      </trkpt>
      <trkpt lat="46.75718" lon="6.3549">
        <ele>1324.8</ele>
        <time>2020-08-27T13:41:17Z</time>
      </trkpt>
      <trkpt lat="46.75722" lon="6.35495">
        <ele>1324.5</ele>
        <time>2020-08-27T13:41:18Z</time>
      </trkpt>
      <trkpt lat="46.75725" lon="6.35502">
        <ele>1324.2</ele>
        <time>2020-08-27T13:41:19Z</time>
      </trkpt>
      <trkpt lat="46.7573" lon="6.35508">
        <ele>1323.9</ele>
        <time>2020-08-27T13:41:20Z</time>
      </trkpt>
      <trkpt lat="46.75734" lon="6.35514">
        <ele>1323.7</ele>
        <time>2020-08-27T13:41:21Z</time>
      </trkpt>
      <trkpt lat="46.75738" lon="6.3552">
        <ele>1323.5</ele>
        <time>2020-08-27T13:41:22Z</time>
      </trkpt>
      <trkpt lat="46.75742" lon="6.35525">
        <ele>1323.2</ele>
        <time>2020-08-27T13:41:23Z</time>
      </trkpt>
      <trkpt lat="46.75747" lon="6.35529">
        <ele>1322.9</ele>
        <time>2020-08-27T13:41:24Z</time>
      </trkpt>
      <trkpt lat="46.75751" lon="6.35533">
        <ele>1322.7</ele>
        <time>2020-08-27T13:41:25Z</time>
      </trkpt>
      <trkpt lat="46.75756" lon="6.35538">
        <ele>1322.4</ele>
        <time>2020-08-27T13:41:26Z</time>
      </trkpt>
      <trkpt lat="46.75759" lon="6.35544">
        <ele>1322.2</ele>
        <time>2020-08-27T13:41:27Z</time>
      </trkpt>
      <trkpt lat="46.75762" lon="6.3555">
        <ele>1322</ele>
        <time>2020-08-27T13:41:28Z</time>
      </trkpt>
      <trkpt lat="46.75764" lon="6.35555">
        <ele>1321.8</ele>
        <time>2020-08-27T13:41:29Z</time>
      </trkpt>
      <trkpt lat="46.75767" lon="6.3556">
        <ele>1321.4</ele>
        <time>2020-08-27T13:41:30Z</time>
      </trkpt>
      <trkpt lat="46.75771" lon="6.35564">
        <ele>1321.1</ele>
        <time>2020-08-27T13:41:31Z</time>
      </trkpt>
      <trkpt lat="46.75775" lon="6.35567">
        <ele>1320.8</ele>
        <time>2020-08-27T13:41:32Z</time>
      </trkpt>
      <trkpt lat="46.75778" lon="6.35569">
        <ele>1320.5</ele>
        <time>2020-08-27T13:41:33Z</time>
      </trkpt>
      <trkpt lat="46.75781" lon="6.3557">
        <ele>1320.3</ele>
        <time>2020-08-27T13:41:34Z</time>
      </trkpt>
      <trkpt lat="46.75784" lon="6.35571">
        <ele>1320</ele>
        <time>2020-08-27T13:41:35Z</time>
      </trkpt>
      <trkpt lat="46.75787" lon="6.35572">
        <ele>1319.8</ele>
        <time>2020-08-27T13:41:36Z</time>
      </trkpt>
      <trkpt lat="46.75789" lon="6.35573">
        <ele>1319.6</ele>
        <time>2020-08-27T13:41:37Z</time>
      </trkpt>
      <trkpt lat="46.75792" lon="6.35574">
        <ele>1319.4</ele>
        <time>2020-08-27T13:41:38Z</time>
      </trkpt>
      <trkpt lat="46.75794" lon="6.35575">
        <ele>1319.2</ele>
        <time>2020-08-27T13:41:39Z</time>
      </trkpt>
      <trkpt lat="46.75796" lon="6.35575">
        <ele>1319</ele>
        <time>2020-08-27T13:41:40Z</time>
      </trkpt>
      <trkpt lat="46.75798" lon="6.35575">
        <ele>1318.8</ele>
        <time>2020-08-27T13:41:41Z</time>
      </trkpt>
      <trkpt lat="46.758" lon="6.35574">
        <ele>1318.4</ele>
        <time>2020-08-27T13:41:42Z</time>
      </trkpt>
      <trkpt lat="46.75804" lon="6.35571">
        <ele>1318</ele>
        <time>2020-08-27T13:41:43Z</time>
      </trkpt>
      <trkpt lat="46.75809" lon="6.3557">
        <ele>1317.5</ele>
        <time>2020-08-27T13:41:44Z</time>
      </trkpt>
      <trkpt lat="46.75814" lon="6.35572">
        <ele>1317.1</ele>
        <time>2020-08-27T13:41:45Z</time>
      </trkpt>
      <trkpt lat="46.75819" lon="6.35574">
        <ele>1316.6</ele>
        <time>2020-08-27T13:41:46Z</time>
      </trkpt>
      <trkpt lat="46.75824" lon="6.35577">
        <ele>1316.1</ele>
        <time>2020-08-27T13:41:47Z</time>
      </trkpt>
      <trkpt lat="46.75829" lon="6.3558">
        <ele>1315.6</ele>
        <time>2020-08-27T13:41:48Z</time>
      </trkpt>
      <trkpt lat="46.75835" lon="6.35584">
        <ele>1315</ele>
        <time>2020-08-27T13:41:49Z</time>
      </trkpt>
      <trkpt lat="46.75841" lon="6.35589">
        <ele>1314.5</ele>
        <time>2020-08-27T13:41:50Z</time>
      </trkpt>
      <trkpt lat="46.75847" lon="6.35594">
        <ele>1313.8</ele>
        <time>2020-08-27T13:41:51Z</time>
      </trkpt>
      <trkpt lat="46.75852" lon="6.35599">
        <ele>1313</ele>
        <time>2020-08-27T13:41:52Z</time>
      </trkpt>
      <trkpt lat="46.75858" lon="6.35603">
        <ele>1312.4</ele>
        <time>2020-08-27T13:41:53Z</time>
      </trkpt>
      <trkpt lat="46.75863" lon="6.35606">
        <ele>1311.6</ele>
        <time>2020-08-27T13:41:54Z</time>
      </trkpt>
      <trkpt lat="46.75868" lon="6.35609">
        <ele>1310.8</ele>
        <time>2020-08-27T13:41:55Z</time>
      </trkpt>
      <trkpt lat="46.75874" lon="6.35612">
        <ele>1310</ele>
        <time>2020-08-27T13:41:56Z</time>
      </trkpt>
      <trkpt lat="46.75877" lon="6.35614">
        <ele>1309.3</ele>
        <time>2020-08-27T13:41:57Z</time>
      </trkpt>
      <trkpt lat="46.7588" lon="6.35616">
        <ele>1308.5</ele>
        <time>2020-08-27T13:41:58Z</time>
      </trkpt>
      <trkpt lat="46.75883" lon="6.35618">
        <ele>1307.7</ele>
        <time>2020-08-27T13:41:59Z</time>
      </trkpt>
      <trkpt lat="46.75888" lon="6.3562">
        <ele>1307.1</ele>
        <time>2020-08-27T13:42:00Z</time>
      </trkpt>
      <trkpt lat="46.75892" lon="6.3562">
        <ele>1306.3</ele>
        <time>2020-08-27T13:42:01Z</time>
      </trkpt>
      <trkpt lat="46.75896" lon="6.35618">
        <ele>1305.6</ele>
        <time>2020-08-27T13:42:02Z</time>
      </trkpt>
      <trkpt lat="46.75899" lon="6.35615">
        <ele>1304.9</ele>
        <time>2020-08-27T13:42:03Z</time>
      </trkpt>
      <trkpt lat="46.75902" lon="6.35614">
        <ele>1304.2</ele>
        <time>2020-08-27T13:42:04Z</time>
      </trkpt>
      <trkpt lat="46.75905" lon="6.35613">
        <ele>1303.3</ele>
        <time>2020-08-27T13:42:05Z</time>
      </trkpt>
      <trkpt lat="46.75908" lon="6.35611">
        <ele>1302.5</ele>
        <time>2020-08-27T13:42:06Z</time>
      </trkpt>
      <trkpt lat="46.75911" lon="6.35609">
        <ele>1301.7</ele>
        <time>2020-08-27T13:42:07Z</time>
      </trkpt>
      <trkpt lat="46.75914" lon="6.35607">
        <ele>1301</ele>
        <time>2020-08-27T13:42:08Z</time>
      </trkpt>
      <trkpt lat="46.75916" lon="6.35605">
        <ele>1300.3</ele>
        <time>2020-08-27T13:42:09Z</time>
      </trkpt>
      <trkpt lat="46.75917" lon="6.35602">
        <ele>1299.8</ele>
        <time>2020-08-27T13:42:10Z</time>
      </trkpt>
      <trkpt lat="46.75918" lon="6.35601">
        <ele>1299.2</ele>
        <time>2020-08-27T13:42:11Z</time>
      </trkpt>
      <trkpt lat="46.75918" lon="6.35598">
        <ele>1298.7</ele>
        <time>2020-08-27T13:42:12Z</time>
      </trkpt>
      <trkpt lat="46.75919" lon="6.35595">
        <ele>1298.3</ele>
        <time>2020-08-27T13:42:13Z</time>
      </trkpt>
      <trkpt lat="46.75919" lon="6.35592">
        <ele>1297.8</ele>
        <time>2020-08-27T13:42:14Z</time>
      </trkpt>
      <trkpt lat="46.7592" lon="6.35589">
        <ele>1297.4</ele>
        <time>2020-08-27T13:42:15Z</time>
      </trkpt>
      <trkpt lat="46.75921" lon="6.35586">
        <ele>1297</ele>
        <time>2020-08-27T13:42:16Z</time>
      </trkpt>
      <trkpt lat="46.75923" lon="6.35583">
        <ele>1296.6</ele>
        <time>2020-08-27T13:42:17Z</time>
      </trkpt>
      <trkpt lat="46.75924" lon="6.3558">
        <ele>1296.2</ele>
        <time>2020-08-27T13:42:18Z</time>
      </trkpt>
      <trkpt lat="46.75926" lon="6.35578">
        <ele>1295.8</ele>
        <time>2020-08-27T13:42:19Z</time>
      </trkpt>
      <trkpt lat="46.75929" lon="6.35576">
        <ele>1295.4</ele>
        <time>2020-08-27T13:42:20Z</time>
      </trkpt>
      <trkpt lat="46.75932" lon="6.35573">
        <ele>1294.9</ele>
        <time>2020-08-27T13:42:21Z</time>
      </trkpt>
      <trkpt lat="46.75935" lon="6.3557">
        <ele>1294.4</ele>
        <time>2020-08-27T13:42:22Z</time>
      </trkpt>
      <trkpt lat="46.75938" lon="6.35567">
        <ele>1293.8</ele>
        <time>2020-08-27T13:42:23Z</time>
      </trkpt>
      <trkpt lat="46.75941" lon="6.35563">
        <ele>1293.2</ele>
        <time>2020-08-27T13:42:24Z</time>
      </trkpt>
      <trkpt lat="46.75943" lon="6.35559">
        <ele>1292.6</ele>
        <time>2020-08-27T13:42:25Z</time>
      </trkpt>
      <trkpt lat="46.75945" lon="6.35554">
        <ele>1292.1</ele>
        <time>2020-08-27T13:42:26Z</time>
      </trkpt>
      <trkpt lat="46.75947" lon="6.3555">
        <ele>1291.4</ele>
        <time>2020-08-27T13:42:27Z</time>
      </trkpt>
      <trkpt lat="46.75948" lon="6.35546">
        <ele>1290.8</ele>
        <time>2020-08-27T13:42:28Z</time>
      </trkpt>
      <trkpt lat="46.75949" lon="6.35542">
        <ele>1290.2</ele>
        <time>2020-08-27T13:42:29Z</time>
      </trkpt>
      <trkpt lat="46.7595" lon="6.35538">
        <ele>1289.7</ele>
        <time>2020-08-27T13:42:30Z</time>
      </trkpt>
      <trkpt lat="46.75951" lon="6.35534">
        <ele>1289.1</ele>
        <time>2020-08-27T13:42:31Z</time>
      </trkpt>
      <trkpt lat="46.75951" lon="6.3553">
        <ele>1288.5</ele>
        <time>2020-08-27T13:42:32Z</time>
      </trkpt>
      <trkpt lat="46.75952" lon="6.35526">
        <ele>1288</ele>
        <time>2020-08-27T13:42:33Z</time>
      </trkpt>
      <trkpt lat="46.75953" lon="6.35522">
        <ele>1287.4</ele>
        <time>2020-08-27T13:42:34Z</time>
      </trkpt>
      <trkpt lat="46.75955" lon="6.35518">
        <ele>1286.9</ele>
        <time>2020-08-27T13:42:35Z</time>
      </trkpt>
      <trkpt lat="46.75957" lon="6.35514">
        <ele>1286.3</ele>
        <time>2020-08-27T13:42:36Z</time>
      </trkpt>
      <trkpt lat="46.75959" lon="6.35511">
        <ele>1285.7</ele>
        <time>2020-08-27T13:42:37Z</time>
      </trkpt>
      <trkpt lat="46.7596" lon="6.35509">
        <ele>1285.2</ele>
        <time>2020-08-27T13:42:38Z</time>
      </trkpt>
      <trkpt lat="46.7596" lon="6.35507">
        <ele>1284.7</ele>
        <time>2020-08-27T13:42:39Z</time>
      </trkpt>
      <trkpt lat="46.75961" lon="6.35505">
        <ele>1284.2</ele>
        <time>2020-08-27T13:42:40Z</time>
      </trkpt>
      <trkpt lat="46.7596" lon="6.35503">
        <ele>1283.5</ele>
        <time>2020-08-27T13:42:41Z</time>
      </trkpt>
      <trkpt lat="46.7596" lon="6.35501">
        <ele>1282.9</ele>
        <time>2020-08-27T13:42:42Z</time>
      </trkpt>
      <trkpt lat="46.7596" lon="6.355">
        <ele>1282.3</ele>
        <time>2020-08-27T13:42:43Z</time>
      </trkpt>
      <trkpt lat="46.7596" lon="6.35498">
        <ele>1281.7</ele>
        <time>2020-08-27T13:42:44Z</time>
      </trkpt>
      <trkpt lat="46.7596" lon="6.35497">
        <ele>1281.2</ele>
        <time>2020-08-27T13:42:45Z</time>
      </trkpt>
      <trkpt lat="46.75961" lon="6.35497">
        <ele>1280.7</ele>
        <time>2020-08-27T13:42:46Z</time>
      </trkpt>
      <trkpt lat="46.75961" lon="6.35497">
        <ele>1280.2</ele>
        <time>2020-08-27T13:42:47Z</time>
      </trkpt>
      <trkpt lat="46.75961" lon="6.35496">
        <ele>1279.8</ele>
        <time>2020-08-27T13:42:48Z</time>
      </trkpt>
      <trkpt lat="46.7596" lon="6.35496">
        <ele>1279.4</ele>
        <time>2020-08-27T13:42:49Z</time>
      </trkpt>
      <trkpt lat="46.7596" lon="6.35495">
        <ele>1279</ele>
        <time>2020-08-27T13:42:50Z</time>
      </trkpt>
      <trkpt lat="46.7596" lon="6.35494">
        <ele>1278.6</ele>
        <time>2020-08-27T13:42:51Z</time>
      </trkpt>
      <trkpt lat="46.75959" lon="6.35493">
        <ele>1278.3</ele>
        <time>2020-08-27T13:42:52Z</time>
      </trkpt>
      <trkpt lat="46.75958" lon="6.35493">
        <ele>1278</ele>
        <time>2020-08-27T13:42:53Z</time>
      </trkpt>
      <trkpt lat="46.75958" lon="6.35492">
        <ele>1277.7</ele>
        <time>2020-08-27T13:42:54Z</time>
      </trkpt>
      <trkpt lat="46.75958" lon="6.35492">
        <ele>1277.4</ele>
        <time>2020-08-27T13:42:55Z</time>
      </trkpt>
      <trkpt lat="46.75958" lon="6.35491">
        <ele>1277.2</ele>
        <time>2020-08-27T13:42:56Z</time>
      </trkpt>
      <trkpt lat="46.75957" lon="6.35491">
        <ele>1276.9</ele>
        <time>2020-08-27T13:42:57Z</time>
      </trkpt>
      <trkpt lat="46.75956" lon="6.3549">
        <ele>1276.7</ele>
        <time>2020-08-27T13:42:58Z</time>
      </trkpt>
      <trkpt lat="46.75955" lon="6.3549">
        <ele>1276.5</ele>
        <time>2020-08-27T13:42:59Z</time>
      </trkpt>
      <trkpt lat="46.75954" lon="6.35488">
        <ele>1276.2</ele>
        <time>2020-08-27T13:43:00Z</time>
      </trkpt>
      <trkpt lat="46.75952" lon="6.35487">
        <ele>1276</ele>
        <time>2020-08-27T13:43:01Z</time>
      </trkpt>
      <trkpt lat="46.75951" lon="6.35485">
        <ele>1275.9</ele>
        <time>2020-08-27T13:43:02Z</time>
      </trkpt>
      <trkpt lat="46.75949" lon="6.35483">
        <ele>1275.7</ele>
        <time>2020-08-27T13:43:03Z</time>
      </trkpt>
      <trkpt lat="46.75948" lon="6.3548">
        <ele>1275.5</ele>
        <time>2020-08-27T13:43:04Z</time>
      </trkpt>
      <trkpt lat="46.75946" lon="6.35478">
        <ele>1275.4</ele>
        <time>2020-08-27T13:43:05Z</time>
      </trkpt>
      <trkpt lat="46.75945" lon="6.35475">
        <ele>1275.2</ele>
        <time>2020-08-27T13:43:06Z</time>
      </trkpt>
      <trkpt lat="46.75943" lon="6.35473">
        <ele>1275.1</ele>
        <time>2020-08-27T13:43:07Z</time>
      </trkpt>
      <trkpt lat="46.75942" lon="6.35471">
        <ele>1275</ele>
        <time>2020-08-27T13:43:08Z</time>
      </trkpt>
      <trkpt lat="46.75942" lon="6.35468">
        <ele>1274.9</ele>
        <time>2020-08-27T13:43:09Z</time>
      </trkpt>
      <trkpt lat="46.75942" lon="6.35466">
        <ele>1274.8</ele>
        <time>2020-08-27T13:43:10Z</time>
      </trkpt>
      <trkpt lat="46.75941" lon="6.35463">
        <ele>1274.7</ele>
        <time>2020-08-27T13:43:11Z</time>
      </trkpt>
      <trkpt lat="46.75941" lon="6.3546">
        <ele>1274.6</ele>
        <time>2020-08-27T13:43:12Z</time>
      </trkpt>
      <trkpt lat="46.75942" lon="6.35459">
        <ele>1274.5</ele>
        <time>2020-08-27T13:43:13Z</time>
      </trkpt>
      <trkpt lat="46.75942" lon="6.35457">
        <ele>1274.3</ele>
        <time>2020-08-27T13:43:14Z</time>
      </trkpt>
      <trkpt lat="46.75941" lon="6.35454">
        <ele>1274.2</ele>
        <time>2020-08-27T13:43:15Z</time>
      </trkpt>
      <trkpt lat="46.75941" lon="6.35452">
        <ele>1274</ele>
        <time>2020-08-27T13:43:16Z</time>
      </trkpt>
      <trkpt lat="46.75941" lon="6.35449">
        <ele>1273.7</ele>
        <time>2020-08-27T13:43:17Z</time>
      </trkpt>
      <trkpt lat="46.75941" lon="6.35446">
        <ele>1273.5</ele>
        <time>2020-08-27T13:43:18Z</time>
      </trkpt>
      <trkpt lat="46.75942" lon="6.35443">
        <ele>1273.2</ele>
        <time>2020-08-27T13:43:19Z</time>
      </trkpt>
      <trkpt lat="46.75943" lon="6.3544">
        <ele>1273</ele>
        <time>2020-08-27T13:43:20Z</time>
      </trkpt>
      <trkpt lat="46.75944" lon="6.35438">
        <ele>1272.8</ele>
        <time>2020-08-27T13:43:21Z</time>
      </trkpt>
      <trkpt lat="46.75945" lon="6.35435">
        <ele>1272.6</ele>
        <time>2020-08-27T13:43:22Z</time>
      </trkpt>
      <trkpt lat="46.75947" lon="6.35431">
        <ele>1272.4</ele>
        <time>2020-08-27T13:43:23Z</time>
      </trkpt>
      <trkpt lat="46.75948" lon="6.35427">
        <ele>1271.9</ele>
        <time>2020-08-27T13:43:24Z</time>
      </trkpt>
      <trkpt lat="46.75949" lon="6.35424">
        <ele>1271.5</ele>
        <time>2020-08-27T13:43:25Z</time>
      </trkpt>
      <trkpt lat="46.75951" lon="6.35423">
        <ele>1270.9</ele>
        <time>2020-08-27T13:43:26Z</time>
      </trkpt>
      <trkpt lat="46.75952" lon="6.35424">
        <ele>1270.4</ele>
        <time>2020-08-27T13:43:27Z</time>
      </trkpt>
      <trkpt lat="46.75954" lon="6.35424">
        <ele>1269.9</ele>
        <time>2020-08-27T13:43:28Z</time>
      </trkpt>
      <trkpt lat="46.75957" lon="6.35425">
        <ele>1269.5</ele>
        <time>2020-08-27T13:43:29Z</time>
      </trkpt>
      <trkpt lat="46.75961" lon="6.35427">
        <ele>1269</ele>
        <time>2020-08-27T13:43:30Z</time>
      </trkpt>
      <trkpt lat="46.75964" lon="6.3543">
        <ele>1268.6</ele>
        <time>2020-08-27T13:43:31Z</time>
      </trkpt>
      <trkpt lat="46.75968" lon="6.35433">
        <ele>1268.2</ele>
        <time>2020-08-27T13:43:32Z</time>
      </trkpt>
      <trkpt lat="46.75972" lon="6.35437">
        <ele>1267.9</ele>
        <time>2020-08-27T13:43:33Z</time>
      </trkpt>
      <trkpt lat="46.75976" lon="6.35443">
        <ele>1267.5</ele>
        <time>2020-08-27T13:43:34Z</time>
      </trkpt>
      <trkpt lat="46.75981" lon="6.3545">
        <ele>1267.2</ele>
        <time>2020-08-27T13:43:35Z</time>
      </trkpt>
      <trkpt lat="46.75985" lon="6.35458">
        <ele>1266.9</ele>
        <time>2020-08-27T13:43:36Z</time>
      </trkpt>
      <trkpt lat="46.7599" lon="6.35466">
        <ele>1266.6</ele>
        <time>2020-08-27T13:43:37Z</time>
      </trkpt>
      <trkpt lat="46.75995" lon="6.35475">
        <ele>1266.1</ele>
        <time>2020-08-27T13:43:38Z</time>
      </trkpt>
      <trkpt lat="46.76001" lon="6.35485">
        <ele>1265.7</ele>
        <time>2020-08-27T13:43:39Z</time>
      </trkpt>
      <trkpt lat="46.76006" lon="6.35494">
        <ele>1265</ele>
        <time>2020-08-27T13:43:40Z</time>
      </trkpt>
      <trkpt lat="46.76012" lon="6.35504">
        <ele>1264.5</ele>
        <time>2020-08-27T13:43:41Z</time>
      </trkpt>
      <trkpt lat="46.76016" lon="6.35513">
        <ele>1263.9</ele>
        <time>2020-08-27T13:43:42Z</time>
      </trkpt>
      <trkpt lat="46.76021" lon="6.35521">
        <ele>1263.4</ele>
        <time>2020-08-27T13:43:43Z</time>
      </trkpt>
      <trkpt lat="46.76025" lon="6.35529">
        <ele>1263</ele>
        <time>2020-08-27T13:43:44Z</time>
      </trkpt>
      <trkpt lat="46.76028" lon="6.35538">
        <ele>1262.4</ele>
        <time>2020-08-27T13:43:45Z</time>
      </trkpt>
      <trkpt lat="46.76031" lon="6.35546">
        <ele>1261.8</ele>
        <time>2020-08-27T13:43:46Z</time>
      </trkpt>
      <trkpt lat="46.76034" lon="6.35553">
        <ele>1261.3</ele>
        <time>2020-08-27T13:43:47Z</time>
      </trkpt>
      <trkpt lat="46.76037" lon="6.3556">
        <ele>1260.7</ele>
        <time>2020-08-27T13:43:48Z</time>
      </trkpt>
      <trkpt lat="46.76041" lon="6.35567">
        <ele>1260.2</ele>
        <time>2020-08-27T13:43:49Z</time>
      </trkpt>
      <trkpt lat="46.76045" lon="6.35574">
        <ele>1259.6</ele>
        <time>2020-08-27T13:43:50Z</time>
      </trkpt>
      <trkpt lat="46.76049" lon="6.35581">
        <ele>1259.1</ele>
        <time>2020-08-27T13:43:51Z</time>
      </trkpt>
      <trkpt lat="46.76053" lon="6.35588">
        <ele>1258.6</ele>
        <time>2020-08-27T13:43:52Z</time>
      </trkpt>
      <trkpt lat="46.76057" lon="6.35596">
        <ele>1258.1</ele>
        <time>2020-08-27T13:43:53Z</time>
      </trkpt>
      <trkpt lat="46.7606" lon="6.35603">
        <ele>1257.6</ele>
        <time>2020-08-27T13:43:54Z</time>
      </trkpt>
      <trkpt lat="46.76063" lon="6.35611">
        <ele>1257.1</ele>
        <time>2020-08-27T13:43:55Z</time>
      </trkpt>
      <trkpt lat="46.76066" lon="6.35619">
        <ele>1256.7</ele>
        <time>2020-08-27T13:43:56Z</time>
      </trkpt>
      <trkpt lat="46.76069" lon="6.35626">
        <ele>1256.3</ele>
        <time>2020-08-27T13:43:57Z</time>
      </trkpt>
      <trkpt lat="46.7607" lon="6.35635">
        <ele>1255.9</ele>
        <time>2020-08-27T13:43:58Z</time>
      </trkpt>
      <trkpt lat="46.76071" lon="6.35643">
        <ele>1255.5</ele>
        <time>2020-08-27T13:43:59Z</time>
      </trkpt>
      <trkpt lat="46.76072" lon="6.35652">
        <ele>1255.1</ele>
        <time>2020-08-27T13:44:00Z</time>
      </trkpt>
      <trkpt lat="46.76074" lon="6.3566">
        <ele>1254.7</ele>
        <time>2020-08-27T13:44:01Z</time>
      </trkpt>
      <trkpt lat="46.76075" lon="6.35668">
        <ele>1254.3</ele>
        <time>2020-08-27T13:44:02Z</time>
      </trkpt>
      <trkpt lat="46.76075" lon="6.35675">
        <ele>1253.9</ele>
        <time>2020-08-27T13:44:03Z</time>
      </trkpt>
      <trkpt lat="46.76076" lon="6.35682">
        <ele>1253.5</ele>
        <time>2020-08-27T13:44:04Z</time>
      </trkpt>
      <trkpt lat="46.76076" lon="6.3569">
        <ele>1253.1</ele>
        <time>2020-08-27T13:44:05Z</time>
      </trkpt>
      <trkpt lat="46.76077" lon="6.35697">
        <ele>1252.8</ele>
        <time>2020-08-27T13:44:06Z</time>
      </trkpt>
      <trkpt lat="46.76078" lon="6.35705">
        <ele>1252.4</ele>
        <time>2020-08-27T13:44:07Z</time>
      </trkpt>
      <trkpt lat="46.7608" lon="6.35713">
        <ele>1252.1</ele>
        <time>2020-08-27T13:44:08Z</time>
      </trkpt>
      <trkpt lat="46.76081" lon="6.35722">
        <ele>1251.8</ele>
        <time>2020-08-27T13:44:09Z</time>
      </trkpt>
      <trkpt lat="46.76083" lon="6.35732">
        <ele>1251.6</ele>
        <time>2020-08-27T13:44:10Z</time>
      </trkpt>
      <trkpt lat="46.76085" lon="6.35742">
        <ele>1251.2</ele>
        <time>2020-08-27T13:44:11Z</time>
      </trkpt>
      <trkpt lat="46.76087" lon="6.35753">
        <ele>1250.9</ele>
        <time>2020-08-27T13:44:12Z</time>
      </trkpt>
      <trkpt lat="46.76089" lon="6.35764">
        <ele>1250.6</ele>
        <time>2020-08-27T13:44:13Z</time>
      </trkpt>
      <trkpt lat="46.7609" lon="6.35776">
        <ele>1250.3</ele>
        <time>2020-08-27T13:44:14Z</time>
      </trkpt>
      <trkpt lat="46.76092" lon="6.35787">
        <ele>1250</ele>
        <time>2020-08-27T13:44:15Z</time>
      </trkpt>
      <trkpt lat="46.76094" lon="6.35799">
        <ele>1249.6</ele>
        <time>2020-08-27T13:44:16Z</time>
      </trkpt>
      <trkpt lat="46.76095" lon="6.35811">
        <ele>1249.3</ele>
        <time>2020-08-27T13:44:17Z</time>
      </trkpt>
      <trkpt lat="46.76096" lon="6.35824">
        <ele>1248.8</ele>
        <time>2020-08-27T13:44:18Z</time>
      </trkpt>
      <trkpt lat="46.76097" lon="6.35838">
        <ele>1248.3</ele>
        <time>2020-08-27T13:44:19Z</time>
      </trkpt>
      <trkpt lat="46.76097" lon="6.35851">
        <ele>1247.8</ele>
        <time>2020-08-27T13:44:20Z</time>
      </trkpt>
      <trkpt lat="46.76099" lon="6.35864">
        <ele>1247.3</ele>
        <time>2020-08-27T13:44:21Z</time>
      </trkpt>
      <trkpt lat="46.761" lon="6.35878">
        <ele>1246.9</ele>
        <time>2020-08-27T13:44:22Z</time>
      </trkpt>
      <trkpt lat="46.76101" lon="6.35891">
        <ele>1246.4</ele>
        <time>2020-08-27T13:44:23Z</time>
      </trkpt>
      <trkpt lat="46.76102" lon="6.35905">
        <ele>1246</ele>
        <time>2020-08-27T13:44:24Z</time>
      </trkpt>
      <trkpt lat="46.76104" lon="6.35919">
        <ele>1245.4</ele>
        <time>2020-08-27T13:44:25Z</time>
      </trkpt>
      <trkpt lat="46.76105" lon="6.35932">
        <ele>1244.8</ele>
        <time>2020-08-27T13:44:26Z</time>
      </trkpt>
      <trkpt lat="46.76106" lon="6.35945">
        <ele>1244.2</ele>
        <time>2020-08-27T13:44:27Z</time>
      </trkpt>
      <trkpt lat="46.76107" lon="6.35957">
        <ele>1243.6</ele>
        <time>2020-08-27T13:44:28Z</time>
      </trkpt>
      <trkpt lat="46.76109" lon="6.35969">
        <ele>1243</ele>
        <time>2020-08-27T13:44:29Z</time>
      </trkpt>
      <trkpt lat="46.76109" lon="6.35979">
        <ele>1242.3</ele>
        <time>2020-08-27T13:44:30Z</time>
      </trkpt>
      <trkpt lat="46.76109" lon="6.35989">
        <ele>1241.7</ele>
        <time>2020-08-27T13:44:31Z</time>
      </trkpt>
      <trkpt lat="46.76109" lon="6.35998">
        <ele>1241.1</ele>
        <time>2020-08-27T13:44:32Z</time>
      </trkpt>
      <trkpt lat="46.76108" lon="6.36007">
        <ele>1240.4</ele>
        <time>2020-08-27T13:44:33Z</time>
      </trkpt>
      <trkpt lat="46.76107" lon="6.36014">
        <ele>1239.8</ele>
        <time>2020-08-27T13:44:34Z</time>
      </trkpt>
      <trkpt lat="46.76106" lon="6.3602">
        <ele>1239.2</ele>
        <time>2020-08-27T13:44:35Z</time>
      </trkpt>
      <trkpt lat="46.76105" lon="6.36027">
        <ele>1238.6</ele>
        <time>2020-08-27T13:44:36Z</time>
      </trkpt>
      <trkpt lat="46.76104" lon="6.36033">
        <ele>1237.9</ele>
        <time>2020-08-27T13:44:37Z</time>
      </trkpt>
      <trkpt lat="46.76102" lon="6.3604">
        <ele>1237.3</ele>
        <time>2020-08-27T13:44:38Z</time>
      </trkpt>
      <trkpt lat="46.76101" lon="6.36047">
        <ele>1236.7</ele>
        <time>2020-08-27T13:44:39Z</time>
      </trkpt>
      <trkpt lat="46.761" lon="6.36054">
        <ele>1236.2</ele>
        <time>2020-08-27T13:44:40Z</time>
      </trkpt>
      <trkpt lat="46.76099" lon="6.3606">
        <ele>1235.7</ele>
        <time>2020-08-27T13:44:41Z</time>
      </trkpt>
      <trkpt lat="46.76099" lon="6.36065">
        <ele>1235.1</ele>
        <time>2020-08-27T13:44:42Z</time>
      </trkpt>
      <trkpt lat="46.76098" lon="6.36071">
        <ele>1234.6</ele>
        <time>2020-08-27T13:44:43Z</time>
      </trkpt>
      <trkpt lat="46.76098" lon="6.36077">
        <ele>1234.1</ele>
        <time>2020-08-27T13:44:44Z</time>
      </trkpt>
      <trkpt lat="46.76099" lon="6.36084">
        <ele>1233.5</ele>
        <time>2020-08-27T13:44:45Z</time>
      </trkpt>
      <trkpt lat="46.76099" lon="6.36091">
        <ele>1233</ele>
        <time>2020-08-27T13:44:46Z</time>
      </trkpt>
      <trkpt lat="46.761" lon="6.36099">
        <ele>1232.5</ele>
        <time>2020-08-27T13:44:47Z</time>
      </trkpt>
      <trkpt lat="46.76101" lon="6.36107">
        <ele>1232</ele>
        <time>2020-08-27T13:44:48Z</time>
      </trkpt>
      <trkpt lat="46.76102" lon="6.36115">
        <ele>1231.5</ele>
        <time>2020-08-27T13:44:49Z</time>
      </trkpt>
      <trkpt lat="46.76103" lon="6.36121">
        <ele>1231</ele>
        <time>2020-08-27T13:44:50Z</time>
      </trkpt>
      <trkpt lat="46.76103" lon="6.36127">
        <ele>1230.5</ele>
        <time>2020-08-27T13:44:51Z</time>
      </trkpt>
      <trkpt lat="46.76104" lon="6.36133">
        <ele>1230</ele>
        <time>2020-08-27T13:44:52Z</time>
      </trkpt>
      <trkpt lat="46.76105" lon="6.36139">
        <ele>1229.6</ele>
        <time>2020-08-27T13:44:53Z</time>
      </trkpt>
      <trkpt lat="46.76105" lon="6.36145">
        <ele>1229</ele>
        <time>2020-08-27T13:44:54Z</time>
      </trkpt>
      <trkpt lat="46.76105" lon="6.36153">
        <ele>1228.4</ele>
        <time>2020-08-27T13:44:55Z</time>
      </trkpt>
      <trkpt lat="46.76106" lon="6.36161">
        <ele>1227.9</ele>
        <time>2020-08-27T13:44:56Z</time>
      </trkpt>
      <trkpt lat="46.76105" lon="6.36166">
        <ele>1227.3</ele>
        <time>2020-08-27T13:44:57Z</time>
      </trkpt>
      <trkpt lat="46.76105" lon="6.3617">
        <ele>1226.9</ele>
        <time>2020-08-27T13:44:58Z</time>
      </trkpt>
      <trkpt lat="46.76104" lon="6.36173">
        <ele>1226.4</ele>
        <time>2020-08-27T13:44:59Z</time>
      </trkpt>
      <trkpt lat="46.76103" lon="6.36176">
        <ele>1226</ele>
        <time>2020-08-27T13:45:00Z</time>
      </trkpt>
      <trkpt lat="46.76102" lon="6.36181">
        <ele>1225.6</ele>
        <time>2020-08-27T13:45:01Z</time>
      </trkpt>
      <trkpt lat="46.76101" lon="6.36185">
        <ele>1225.2</ele>
        <time>2020-08-27T13:45:02Z</time>
      </trkpt>
      <trkpt lat="46.76101" lon="6.36189">
        <ele>1224.8</ele>
        <time>2020-08-27T13:45:03Z</time>
      </trkpt>
      <trkpt lat="46.761" lon="6.36195">
        <ele>1224.5</ele>
        <time>2020-08-27T13:45:04Z</time>
      </trkpt>
      <trkpt lat="46.761" lon="6.36201">
        <ele>1224.2</ele>
        <time>2020-08-27T13:45:05Z</time>
      </trkpt>
      <trkpt lat="46.76099" lon="6.36206">
        <ele>1223.9</ele>
        <time>2020-08-27T13:45:06Z</time>
      </trkpt>
      <trkpt lat="46.76099" lon="6.36212">
        <ele>1223.6</ele>
        <time>2020-08-27T13:45:07Z</time>
      </trkpt>
      <trkpt lat="46.76098" lon="6.36217">
        <ele>1223.4</ele>
        <time>2020-08-27T13:45:08Z</time>
      </trkpt>
      <trkpt lat="46.76097" lon="6.36221">
        <ele>1223.1</ele>
        <time>2020-08-27T13:45:09Z</time>
      </trkpt>
      <trkpt lat="46.76097" lon="6.36226">
        <ele>1222.9</ele>
        <time>2020-08-27T13:45:10Z</time>
      </trkpt>
      <trkpt lat="46.76097" lon="6.36231">
        <ele>1222.6</ele>
        <time>2020-08-27T13:45:11Z</time>
      </trkpt>
      <trkpt lat="46.76096" lon="6.36236">
        <ele>1222.3</ele>
        <time>2020-08-27T13:45:12Z</time>
      </trkpt>
      <trkpt lat="46.76096" lon="6.36243">
        <ele>1222</ele>
        <time>2020-08-27T13:45:13Z</time>
      </trkpt>
      <trkpt lat="46.76095" lon="6.36249">
        <ele>1221.8</ele>
        <time>2020-08-27T13:45:14Z</time>
      </trkpt>
      <trkpt lat="46.76094" lon="6.36257">
        <ele>1221.5</ele>
        <time>2020-08-27T13:45:15Z</time>
      </trkpt>
      <trkpt lat="46.76094" lon="6.36264">
        <ele>1221.3</ele>
        <time>2020-08-27T13:45:16Z</time>
      </trkpt>
      <trkpt lat="46.76093" lon="6.3627">
        <ele>1221</ele>
        <time>2020-08-27T13:45:17Z</time>
      </trkpt>
      <trkpt lat="46.76093" lon="6.36275">
        <ele>1220.8</ele>
        <time>2020-08-27T13:45:18Z</time>
      </trkpt>
      <trkpt lat="46.76092" lon="6.36277">
        <ele>1220.6</ele>
        <time>2020-08-27T13:45:19Z</time>
      </trkpt>
      <trkpt lat="46.7609" lon="6.36277">
        <ele>1220.2</ele>
        <time>2020-08-27T13:45:20Z</time>
      </trkpt>
      <trkpt lat="46.76089" lon="6.36274">
        <ele>1219.8</ele>
        <time>2020-08-27T13:45:21Z</time>
      </trkpt>
      <trkpt lat="46.76089" lon="6.36271">
        <ele>1219.4</ele>
        <time>2020-08-27T13:45:22Z</time>
      </trkpt>
      <trkpt lat="46.76089" lon="6.36267">
        <ele>1219</ele>
        <time>2020-08-27T13:45:23Z</time>
      </trkpt>
      <trkpt lat="46.7609" lon="6.36265">
        <ele>1218.7</ele>
        <time>2020-08-27T13:45:24Z</time>
      </trkpt>
      <trkpt lat="46.7609" lon="6.36261">
        <ele>1218.4</ele>
        <time>2020-08-27T13:45:25Z</time>
      </trkpt>
      <trkpt lat="46.76089" lon="6.36258">
        <ele>1218.1</ele>
        <time>2020-08-27T13:45:26Z</time>
      </trkpt>
      <trkpt lat="46.76088" lon="6.36257">
        <ele>1217.8</ele>
        <time>2020-08-27T13:45:27Z</time>
      </trkpt>
      <trkpt lat="46.76087" lon="6.36258">
        <ele>1217.6</ele>
        <time>2020-08-27T13:45:28Z</time>
      </trkpt>
      <trkpt lat="46.76087" lon="6.36261">
        <ele>1217.3</ele>
        <time>2020-08-27T13:45:29Z</time>
      </trkpt>
      <trkpt lat="46.76088" lon="6.36266">
        <ele>1217.1</ele>
        <time>2020-08-27T13:45:30Z</time>
      </trkpt>
      <trkpt lat="46.76089" lon="6.36272">
        <ele>1216.8</ele>
        <time>2020-08-27T13:45:31Z</time>
      </trkpt>
      <trkpt lat="46.76088" lon="6.36277">
        <ele>1216.4</ele>
        <time>2020-08-27T13:45:32Z</time>
      </trkpt>
      <trkpt lat="46.76087" lon="6.36283">
        <ele>1216.1</ele>
        <time>2020-08-27T13:45:33Z</time>
      </trkpt>
      <trkpt lat="46.76086" lon="6.36289">
        <ele>1215.8</ele>
        <time>2020-08-27T13:45:34Z</time>
      </trkpt>
      <trkpt lat="46.76086" lon="6.36295">
        <ele>1215.5</ele>
        <time>2020-08-27T13:45:35Z</time>
      </trkpt>
      <trkpt lat="46.76087" lon="6.363">
        <ele>1215.2</ele>
        <time>2020-08-27T13:45:36Z</time>
      </trkpt>
      <trkpt lat="46.76086" lon="6.36304">
        <ele>1214.9</ele>
        <time>2020-08-27T13:45:37Z</time>
      </trkpt>
      <trkpt lat="46.76086" lon="6.36308">
        <ele>1214.7</ele>
        <time>2020-08-27T13:45:38Z</time>
      </trkpt>
      <trkpt lat="46.76085" lon="6.36313">
        <ele>1214.4</ele>
        <time>2020-08-27T13:45:39Z</time>
      </trkpt>
      <trkpt lat="46.76085" lon="6.36319">
        <ele>1214.2</ele>
        <time>2020-08-27T13:45:40Z</time>
      </trkpt>
      <trkpt lat="46.76084" lon="6.36327">
        <ele>1213.9</ele>
        <time>2020-08-27T13:45:41Z</time>
      </trkpt>
      <trkpt lat="46.76083" lon="6.36334">
        <ele>1213.7</ele>
        <time>2020-08-27T13:45:42Z</time>
      </trkpt>
      <trkpt lat="46.76082" lon="6.36342">
        <ele>1213.5</ele>
        <time>2020-08-27T13:45:43Z</time>
      </trkpt>
      <trkpt lat="46.76081" lon="6.36349">
        <ele>1213.3</ele>
        <time>2020-08-27T13:45:44Z</time>
      </trkpt>
      <trkpt lat="46.7608" lon="6.36357">
        <ele>1213.1</ele>
        <time>2020-08-27T13:45:45Z</time>
      </trkpt>
      <trkpt lat="46.7608" lon="6.36365">
        <ele>1212.7</ele>
        <time>2020-08-27T13:45:46Z</time>
      </trkpt>
      <trkpt lat="46.7608" lon="6.36373">
        <ele>1212.3</ele>
        <time>2020-08-27T13:45:47Z</time>
      </trkpt>
      <trkpt lat="46.76081" lon="6.3638">
        <ele>1212</ele>
        <time>2020-08-27T13:45:48Z</time>
      </trkpt>
      <trkpt lat="46.76081" lon="6.36388">
        <ele>1211.7</ele>
        <time>2020-08-27T13:45:49Z</time>
      </trkpt>
      <trkpt lat="46.76082" lon="6.36393">
        <ele>1211.4</ele>
        <time>2020-08-27T13:45:50Z</time>
      </trkpt>
      <trkpt lat="46.76081" lon="6.36397">
        <ele>1211.1</ele>
        <time>2020-08-27T13:45:51Z</time>
      </trkpt>
      <trkpt lat="46.7608" lon="6.36398">
        <ele>1210.8</ele>
        <time>2020-08-27T13:45:52Z</time>
      </trkpt>
      <trkpt lat="46.76078" lon="6.36397">
        <ele>1210.5</ele>
        <time>2020-08-27T13:45:53Z</time>
      </trkpt>
      <trkpt lat="46.76077" lon="6.36396">
        <ele>1210.2</ele>
        <time>2020-08-27T13:45:54Z</time>
      </trkpt>
      <trkpt lat="46.76076" lon="6.36395">
        <ele>1210</ele>
        <time>2020-08-27T13:45:55Z</time>
      </trkpt>
      <trkpt lat="46.76075" lon="6.36393">
        <ele>1209.7</ele>
        <time>2020-08-27T13:45:56Z</time>
      </trkpt>
      <trkpt lat="46.76074" lon="6.36391">
        <ele>1209.5</ele>
        <time>2020-08-27T13:45:57Z</time>
      </trkpt>
      <trkpt lat="46.76073" lon="6.3639">
        <ele>1209.2</ele>
        <time>2020-08-27T13:45:58Z</time>
      </trkpt>
      <trkpt lat="46.76072" lon="6.3639">
        <ele>1208.9</ele>
        <time>2020-08-27T13:45:59Z</time>
      </trkpt>
      <trkpt lat="46.7607" lon="6.36391">
        <ele>1208.5</ele>
        <time>2020-08-27T13:46:00Z</time>
      </trkpt>
      <trkpt lat="46.76069" lon="6.36391">
        <ele>1208.2</ele>
        <time>2020-08-27T13:46:01Z</time>
      </trkpt>
      <trkpt lat="46.76067" lon="6.36392">
        <ele>1207.8</ele>
        <time>2020-08-27T13:46:02Z</time>
      </trkpt>
      <trkpt lat="46.76065" lon="6.36395">
        <ele>1207.5</ele>
        <time>2020-08-27T13:46:03Z</time>
      </trkpt>
      <trkpt lat="46.76063" lon="6.36398">
        <ele>1207.1</ele>
        <time>2020-08-27T13:46:04Z</time>
      </trkpt>
      <trkpt lat="46.76061" lon="6.36401">
        <ele>1206.8</ele>
        <time>2020-08-27T13:46:05Z</time>
      </trkpt>
      <trkpt lat="46.76059" lon="6.36404">
        <ele>1206.4</ele>
        <time>2020-08-27T13:46:06Z</time>
      </trkpt>
      <trkpt lat="46.76057" lon="6.36406">
        <ele>1206.1</ele>
        <time>2020-08-27T13:46:07Z</time>
      </trkpt>
      <trkpt lat="46.76055" lon="6.36408">
        <ele>1205.7</ele>
        <time>2020-08-27T13:46:08Z</time>
      </trkpt>
      <trkpt lat="46.76052" lon="6.36412">
        <ele>1205.2</ele>
        <time>2020-08-27T13:46:09Z</time>
      </trkpt>
      <trkpt lat="46.7605" lon="6.36415">
        <ele>1204.7</ele>
        <time>2020-08-27T13:46:10Z</time>
      </trkpt>
      <trkpt lat="46.76049" lon="6.36418">
        <ele>1204.2</ele>
        <time>2020-08-27T13:46:11Z</time>
      </trkpt>
      <trkpt lat="46.76048" lon="6.36422">
        <ele>1203.7</ele>
        <time>2020-08-27T13:46:12Z</time>
      </trkpt>
      <trkpt lat="46.76047" lon="6.36426">
        <ele>1203.2</ele>
        <time>2020-08-27T13:46:13Z</time>
      </trkpt>
      <trkpt lat="46.76047" lon="6.36431">
        <ele>1202.8</ele>
        <time>2020-08-27T13:46:14Z</time>
      </trkpt>
      <trkpt lat="46.76046" lon="6.36435">
        <ele>1202.2</ele>
        <time>2020-08-27T13:46:15Z</time>
      </trkpt>
      <trkpt lat="46.76045" lon="6.36438">
        <ele>1201.7</ele>
        <time>2020-08-27T13:46:16Z</time>
      </trkpt>
      <trkpt lat="46.76044" lon="6.3644">
        <ele>1201.1</ele>
        <time>2020-08-27T13:46:17Z</time>
      </trkpt>
      <trkpt lat="46.76043" lon="6.36442">
        <ele>1200.5</ele>
        <time>2020-08-27T13:46:18Z</time>
      </trkpt>
      <trkpt lat="46.76042" lon="6.36445">
        <ele>1199.9</ele>
        <time>2020-08-27T13:46:19Z</time>
      </trkpt>
      <trkpt lat="46.76043" lon="6.36448">
        <ele>1199.3</ele>
        <time>2020-08-27T13:46:20Z</time>
      </trkpt>
      <trkpt lat="46.76042" lon="6.36451">
        <ele>1198.7</ele>
        <time>2020-08-27T13:46:21Z</time>
      </trkpt>
      <trkpt lat="46.76041" lon="6.36454">
        <ele>1198.1</ele>
        <time>2020-08-27T13:46:22Z</time>
      </trkpt>
      <trkpt lat="46.7604" lon="6.36457">
        <ele>1197.6</ele>
        <time>2020-08-27T13:46:23Z</time>
      </trkpt>
      <trkpt lat="46.76039" lon="6.36461">
        <ele>1197</ele>
        <time>2020-08-27T13:46:24Z</time>
      </trkpt>
      <trkpt lat="46.76038" lon="6.36464">
        <ele>1196.4</ele>
        <time>2020-08-27T13:46:25Z</time>
      </trkpt>
      <trkpt lat="46.76036" lon="6.36468">
        <ele>1195.7</ele>
        <time>2020-08-27T13:46:26Z</time>
      </trkpt>
      <trkpt lat="46.76035" lon="6.36471">
        <ele>1195</ele>
        <time>2020-08-27T13:46:27Z</time>
      </trkpt>
      <trkpt lat="46.76034" lon="6.36474">
        <ele>1194.4</ele>
        <time>2020-08-27T13:46:28Z</time>
      </trkpt>
      <trkpt lat="46.76033" lon="6.36477">
        <ele>1193.8</ele>
        <time>2020-08-27T13:46:29Z</time>
      </trkpt>
      <trkpt lat="46.76032" lon="6.3648">
        <ele>1193.3</ele>
        <time>2020-08-27T13:46:30Z</time>
      </trkpt>
      <trkpt lat="46.7603" lon="6.36481">
        <ele>1192.7</ele>
        <time>2020-08-27T13:46:31Z</time>
      </trkpt>
      <trkpt lat="46.7603" lon="6.3648">
        <ele>1192.3</ele>
        <time>2020-08-27T13:46:32Z</time>
      </trkpt>
      <trkpt lat="46.76029" lon="6.3648">
        <ele>1191.8</ele>
        <time>2020-08-27T13:46:33Z</time>
      </trkpt>
      <trkpt lat="46.76028" lon="6.36479">
        <ele>1191.4</ele>
        <time>2020-08-27T13:46:34Z</time>
      </trkpt>
      <trkpt lat="46.76027" lon="6.36477">
        <ele>1191</ele>
        <time>2020-08-27T13:46:35Z</time>
      </trkpt>
      <trkpt lat="46.76027" lon="6.36476">
        <ele>1190.6</ele>
        <time>2020-08-27T13:46:36Z</time>
      </trkpt>
      <trkpt lat="46.76026" lon="6.36473">
        <ele>1190.2</ele>
        <time>2020-08-27T13:46:37Z</time>
      </trkpt>
      <trkpt lat="46.76025" lon="6.36471">
        <ele>1189.8</ele>
        <time>2020-08-27T13:46:38Z</time>
      </trkpt>
      <trkpt lat="46.76023" lon="6.36469">
        <ele>1189.4</ele>
        <time>2020-08-27T13:46:39Z</time>
      </trkpt>
      <trkpt lat="46.7602" lon="6.3647">
        <ele>1189.1</ele>
        <time>2020-08-27T13:46:40Z</time>
      </trkpt>
      <trkpt lat="46.76018" lon="6.36472">
        <ele>1188.8</ele>
        <time>2020-08-27T13:46:41Z</time>
      </trkpt>
      <trkpt lat="46.76017" lon="6.36474">
        <ele>1188.5</ele>
        <time>2020-08-27T13:46:42Z</time>
      </trkpt>
      <trkpt lat="46.76016" lon="6.36478">
        <ele>1188.2</ele>
        <time>2020-08-27T13:46:43Z</time>
      </trkpt>
      <trkpt lat="46.76016" lon="6.36482">
        <ele>1187.9</ele>
        <time>2020-08-27T13:46:44Z</time>
      </trkpt>
      <trkpt lat="46.76015" lon="6.36486">
        <ele>1187.7</ele>
        <time>2020-08-27T13:46:45Z</time>
      </trkpt>
      <trkpt lat="46.76013" lon="6.3649">
        <ele>1187.3</ele>
        <time>2020-08-27T13:46:46Z</time>
      </trkpt>
      <trkpt lat="46.76012" lon="6.36493">
        <ele>1186.9</ele>
        <time>2020-08-27T13:46:47Z</time>
      </trkpt>
      <trkpt lat="46.76009" lon="6.36494">
        <ele>1186.5</ele>
        <time>2020-08-27T13:46:48Z</time>
      </trkpt>
      <trkpt lat="46.76008" lon="6.36493">
        <ele>1186.1</ele>
        <time>2020-08-27T13:46:49Z</time>
      </trkpt>
      <trkpt lat="46.76007" lon="6.3649">
        <ele>1185.7</ele>
        <time>2020-08-27T13:46:50Z</time>
      </trkpt>
      <trkpt lat="46.76006" lon="6.36487">
        <ele>1185.4</ele>
        <time>2020-08-27T13:46:51Z</time>
      </trkpt>
      <trkpt lat="46.76006" lon="6.36484">
        <ele>1185.1</ele>
        <time>2020-08-27T13:46:52Z</time>
      </trkpt>
      <trkpt lat="46.76006" lon="6.3648">
        <ele>1184.8</ele>
        <time>2020-08-27T13:46:53Z</time>
      </trkpt>
      <trkpt lat="46.76005" lon="6.36477">
        <ele>1184.6</ele>
        <time>2020-08-27T13:46:54Z</time>
      </trkpt>
      <trkpt lat="46.76004" lon="6.36474">
        <ele>1184.3</ele>
        <time>2020-08-27T13:46:55Z</time>
      </trkpt>
      <trkpt lat="46.76002" lon="6.36471">
        <ele>1184</ele>
        <time>2020-08-27T13:46:56Z</time>
      </trkpt>
      <trkpt lat="46.76" lon="6.36472">
        <ele>1183.6</ele>
        <time>2020-08-27T13:46:57Z</time>
      </trkpt>
      <trkpt lat="46.75997" lon="6.36475">
        <ele>1183.2</ele>
        <time>2020-08-27T13:46:58Z</time>
      </trkpt>
      <trkpt lat="46.75994" lon="6.36479">
        <ele>1182.8</ele>
        <time>2020-08-27T13:46:59Z</time>
      </trkpt>
      <trkpt lat="46.75991" lon="6.36482">
        <ele>1182.5</ele>
        <time>2020-08-27T13:47:00Z</time>
      </trkpt>
      <trkpt lat="46.75988" lon="6.36486">
        <ele>1182.2</ele>
        <time>2020-08-27T13:47:01Z</time>
      </trkpt>
      <trkpt lat="46.75986" lon="6.3649">
        <ele>1181.8</ele>
        <time>2020-08-27T13:47:02Z</time>
      </trkpt>
      <trkpt lat="46.75984" lon="6.36493">
        <ele>1181.5</ele>
        <time>2020-08-27T13:47:03Z</time>
      </trkpt>
      <trkpt lat="46.75983" lon="6.36497">
        <ele>1181.2</ele>
        <time>2020-08-27T13:47:04Z</time>
      </trkpt>
      <trkpt lat="46.75983" lon="6.36502">
        <ele>1181</ele>
        <time>2020-08-27T13:47:05Z</time>
      </trkpt>
      <trkpt lat="46.75982" lon="6.36506">
        <ele>1180.7</ele>
        <time>2020-08-27T13:47:06Z</time>
      </trkpt>
      <trkpt lat="46.75982" lon="6.36511">
        <ele>1180.5</ele>
        <time>2020-08-27T13:47:07Z</time>
      </trkpt>
      <trkpt lat="46.75983" lon="6.36516">
        <ele>1180.3</ele>
        <time>2020-08-27T13:47:08Z</time>
      </trkpt>
      <trkpt lat="46.75985" lon="6.36519">
        <ele>1180</ele>
        <time>2020-08-27T13:47:09Z</time>
      </trkpt>
      <trkpt lat="46.75986" lon="6.36522">
        <ele>1179.7</ele>
        <time>2020-08-27T13:47:10Z</time>
      </trkpt>
      <trkpt lat="46.75987" lon="6.36526">
        <ele>1179.4</ele>
        <time>2020-08-27T13:47:11Z</time>
      </trkpt>
      <trkpt lat="46.75985" lon="6.36529">
        <ele>1179.2</ele>
        <time>2020-08-27T13:47:12Z</time>
      </trkpt>
      <trkpt lat="46.75981" lon="6.3653">
        <ele>1178.9</ele>
        <time>2020-08-27T13:47:13Z</time>
      </trkpt>
      <trkpt lat="46.75978" lon="6.36531">
        <ele>1178.7</ele>
        <time>2020-08-27T13:47:14Z</time>
      </trkpt>
      <trkpt lat="46.75975" lon="6.36533">
        <ele>1178.5</ele>
        <time>2020-08-27T13:47:15Z</time>
      </trkpt>
      <trkpt lat="46.75973" lon="6.36536">
        <ele>1178.3</ele>
        <time>2020-08-27T13:47:16Z</time>
      </trkpt>
      <trkpt lat="46.75972" lon="6.3654">
        <ele>1178.2</ele>
        <time>2020-08-27T13:47:17Z</time>
      </trkpt>
      <trkpt lat="46.75974" lon="6.36544">
        <ele>1178</ele>
        <time>2020-08-27T13:47:18Z</time>
      </trkpt>
      <trkpt lat="46.75975" lon="6.36547">
        <ele>1177.7</ele>
        <time>2020-08-27T13:47:19Z</time>
      </trkpt>
      <trkpt lat="46.75977" lon="6.36549">
        <ele>1177.4</ele>
        <time>2020-08-27T13:47:20Z</time>
      </trkpt>
      <trkpt lat="46.7598" lon="6.36552">
        <ele>1177.1</ele>
        <time>2020-08-27T13:47:21Z</time>
      </trkpt>
      <trkpt lat="46.75983" lon="6.36554">
        <ele>1176.8</ele>
        <time>2020-08-27T13:47:22Z</time>
      </trkpt>
      <trkpt lat="46.75985" lon="6.36557">
        <ele>1176.5</ele>
        <time>2020-08-27T13:47:23Z</time>
      </trkpt>
      <trkpt lat="46.75987" lon="6.36559">
        <ele>1176.3</ele>
        <time>2020-08-27T13:47:24Z</time>
      </trkpt>
      <trkpt lat="46.7599" lon="6.36561">
        <ele>1176</ele>
        <time>2020-08-27T13:47:25Z</time>
      </trkpt>
      <trkpt lat="46.75994" lon="6.36565">
        <ele>1175.7</ele>
        <time>2020-08-27T13:47:26Z</time>
      </trkpt>
      <trkpt lat="46.75998" lon="6.36569">
        <ele>1175.5</ele>
        <time>2020-08-27T13:47:27Z</time>
      </trkpt>
      <trkpt lat="46.76003" lon="6.36574">
        <ele>1175.2</ele>
        <time>2020-08-27T13:47:28Z</time>
      </trkpt>
      <trkpt lat="46.76007" lon="6.36578">
        <ele>1175</ele>
        <time>2020-08-27T13:47:29Z</time>
      </trkpt>
      <trkpt lat="46.76012" lon="6.36582">
        <ele>1174.7</ele>
        <time>2020-08-27T13:47:30Z</time>
      </trkpt>
      <trkpt lat="46.76016" lon="6.36584">
        <ele>1174.3</ele>
        <time>2020-08-27T13:47:31Z</time>
      </trkpt>
      <trkpt lat="46.76017" lon="6.36587">
        <ele>1173.8</ele>
        <time>2020-08-27T13:47:32Z</time>
      </trkpt>
      <trkpt lat="46.76016" lon="6.36589">
        <ele>1173.5</ele>
        <time>2020-08-27T13:47:33Z</time>
      </trkpt>
      <trkpt lat="46.76015" lon="6.3659">
        <ele>1173.1</ele>
        <time>2020-08-27T13:47:34Z</time>
      </trkpt>
      <trkpt lat="46.76013" lon="6.36591">
        <ele>1172.7</ele>
        <time>2020-08-27T13:47:35Z</time>
      </trkpt>
      <trkpt lat="46.76011" lon="6.36592">
        <ele>1172.3</ele>
        <time>2020-08-27T13:47:36Z</time>
      </trkpt>
      <trkpt lat="46.76007" lon="6.36592">
        <ele>1171.9</ele>
        <time>2020-08-27T13:47:37Z</time>
      </trkpt>
      <trkpt lat="46.76004" lon="6.36591">
        <ele>1171.6</ele>
        <time>2020-08-27T13:47:38Z</time>
      </trkpt>
      <trkpt lat="46.76" lon="6.36592">
        <ele>1171.2</ele>
        <time>2020-08-27T13:47:39Z</time>
      </trkpt>
      <trkpt lat="46.75998" lon="6.36594">
        <ele>1170.9</ele>
        <time>2020-08-27T13:47:40Z</time>
      </trkpt>
      <trkpt lat="46.75998" lon="6.36597">
        <ele>1170.6</ele>
        <time>2020-08-27T13:47:41Z</time>
      </trkpt>
      <trkpt lat="46.76001" lon="6.366">
        <ele>1170.4</ele>
        <time>2020-08-27T13:47:42Z</time>
      </trkpt>
      <trkpt lat="46.76004" lon="6.36602">
        <ele>1170.1</ele>
        <time>2020-08-27T13:47:43Z</time>
      </trkpt>
      <trkpt lat="46.76007" lon="6.36605">
        <ele>1169.9</ele>
        <time>2020-08-27T13:47:44Z</time>
      </trkpt>
      <trkpt lat="46.76009" lon="6.36608">
        <ele>1169.7</ele>
        <time>2020-08-27T13:47:45Z</time>
      </trkpt>
      <trkpt lat="46.76013" lon="6.36613">
        <ele>1169.5</ele>
        <time>2020-08-27T13:47:46Z</time>
      </trkpt>
      <trkpt lat="46.76015" lon="6.36618">
        <ele>1169.2</ele>
        <time>2020-08-27T13:47:47Z</time>
      </trkpt>
      <trkpt lat="46.76018" lon="6.36621">
        <ele>1169</ele>
        <time>2020-08-27T13:47:48Z</time>
      </trkpt>
      <trkpt lat="46.76021" lon="6.36625">
        <ele>1168.7</ele>
        <time>2020-08-27T13:47:49Z</time>
      </trkpt>
      <trkpt lat="46.76026" lon="6.3663">
        <ele>1168.5</ele>
        <time>2020-08-27T13:47:50Z</time>
      </trkpt>
      <trkpt lat="46.76033" lon="6.36635">
        <ele>1168.3</ele>
        <time>2020-08-27T13:47:51Z</time>
      </trkpt>
      <trkpt lat="46.7604" lon="6.36639">
        <ele>1168</ele>
        <time>2020-08-27T13:47:52Z</time>
      </trkpt>
      <trkpt lat="46.76047" lon="6.36643">
        <ele>1167.6</ele>
        <time>2020-08-27T13:47:53Z</time>
      </trkpt>
      <trkpt lat="46.76054" lon="6.36646">
        <ele>1167.2</ele>
        <time>2020-08-27T13:47:54Z</time>
      </trkpt>
      <trkpt lat="46.7606" lon="6.36649">
        <ele>1166.8</ele>
        <time>2020-08-27T13:47:55Z</time>
      </trkpt>
      <trkpt lat="46.76066" lon="6.36651">
        <ele>1166.4</ele>
        <time>2020-08-27T13:47:56Z</time>
      </trkpt>
      <trkpt lat="46.76073" lon="6.36653">
        <ele>1166</ele>
        <time>2020-08-27T13:47:57Z</time>
      </trkpt>
      <trkpt lat="46.76078" lon="6.36658">
        <ele>1165.6</ele>
        <time>2020-08-27T13:47:58Z</time>
      </trkpt>
      <trkpt lat="46.76083" lon="6.36664">
        <ele>1165.1</ele>
        <time>2020-08-27T13:47:59Z</time>
      </trkpt>
      <trkpt lat="46.76087" lon="6.36668">
        <ele>1164.6</ele>
        <time>2020-08-27T13:48:00Z</time>
      </trkpt>
      <trkpt lat="46.76092" lon="6.3667">
        <ele>1164.2</ele>
        <time>2020-08-27T13:48:01Z</time>
      </trkpt>
      <trkpt lat="46.76096" lon="6.36673">
        <ele>1163.8</ele>
        <time>2020-08-27T13:48:02Z</time>
      </trkpt>
      <trkpt lat="46.761" lon="6.36677">
        <ele>1163.4</ele>
        <time>2020-08-27T13:48:03Z</time>
      </trkpt>
      <trkpt lat="46.76104" lon="6.3668">
        <ele>1163</ele>
        <time>2020-08-27T13:48:04Z</time>
      </trkpt>
      <trkpt lat="46.76108" lon="6.36681">
        <ele>1162.5</ele>
        <time>2020-08-27T13:48:05Z</time>
      </trkpt>
      <trkpt lat="46.76111" lon="6.3668">
        <ele>1162.1</ele>
        <time>2020-08-27T13:48:06Z</time>
      </trkpt>
      <trkpt lat="46.76114" lon="6.3668">
        <ele>1161.7</ele>
        <time>2020-08-27T13:48:07Z</time>
      </trkpt>
      <trkpt lat="46.76119" lon="6.36682">
        <ele>1161.3</ele>
        <time>2020-08-27T13:48:08Z</time>
      </trkpt>
      <trkpt lat="46.76123" lon="6.36686">
        <ele>1160.8</ele>
        <time>2020-08-27T13:48:09Z</time>
      </trkpt>
      <trkpt lat="46.76128" lon="6.36686">
        <ele>1160.4</ele>
        <time>2020-08-27T13:48:10Z</time>
      </trkpt>
      <trkpt lat="46.76133" lon="6.36685">
        <ele>1159.8</ele>
        <time>2020-08-27T13:48:11Z</time>
      </trkpt>
      <trkpt lat="46.76138" lon="6.36684">
        <ele>1159.3</ele>
        <time>2020-08-27T13:48:12Z</time>
      </trkpt>
      <trkpt lat="46.76143" lon="6.36684">
        <ele>1158.8</ele>
        <time>2020-08-27T13:48:13Z</time>
      </trkpt>
      <trkpt lat="46.76148" lon="6.36683">
        <ele>1158.3</ele>
        <time>2020-08-27T13:48:14Z</time>
      </trkpt>
      <trkpt lat="46.76153" lon="6.36682">
        <ele>1157.9</ele>
        <time>2020-08-27T13:48:15Z</time>
      </trkpt>
      <trkpt lat="46.76159" lon="6.36681">
        <ele>1157.3</ele>
        <time>2020-08-27T13:48:16Z</time>
      </trkpt>
      <trkpt lat="46.76164" lon="6.36678">
        <ele>1156.6</ele>
        <time>2020-08-27T13:48:17Z</time>
      </trkpt>
      <trkpt lat="46.76169" lon="6.36676">
        <ele>1156</ele>
        <time>2020-08-27T13:48:18Z</time>
      </trkpt>
      <trkpt lat="46.76174" lon="6.36673">
        <ele>1155.3</ele>
        <time>2020-08-27T13:48:19Z</time>
      </trkpt>
      <trkpt lat="46.76178" lon="6.36671">
        <ele>1154.7</ele>
        <time>2020-08-27T13:48:20Z</time>
      </trkpt>
      <trkpt lat="46.76182" lon="6.36667">
        <ele>1154.2</ele>
        <time>2020-08-27T13:48:21Z</time>
      </trkpt>
      <trkpt lat="46.76187" lon="6.36663">
        <ele>1153.7</ele>
        <time>2020-08-27T13:48:22Z</time>
      </trkpt>
      <trkpt lat="46.76191" lon="6.36657">
        <ele>1153.1</ele>
        <time>2020-08-27T13:48:23Z</time>
      </trkpt>
      <trkpt lat="46.76195" lon="6.36652">
        <ele>1152.6</ele>
        <time>2020-08-27T13:48:24Z</time>
      </trkpt>
      <trkpt lat="46.762" lon="6.3665">
        <ele>1152</ele>
        <time>2020-08-27T13:48:25Z</time>
      </trkpt>
      <trkpt lat="46.76204" lon="6.36648">
        <ele>1151.6</ele>
        <time>2020-08-27T13:48:26Z</time>
      </trkpt>
      <trkpt lat="46.76209" lon="6.36647">
        <ele>1151.1</ele>
        <time>2020-08-27T13:48:27Z</time>
      </trkpt>
      <trkpt lat="46.76214" lon="6.36648">
        <ele>1150.6</ele>
        <time>2020-08-27T13:48:28Z</time>
      </trkpt>
      <trkpt lat="46.76219" lon="6.3665">
        <ele>1150.1</ele>
        <time>2020-08-27T13:48:29Z</time>
      </trkpt>
      <trkpt lat="46.76224" lon="6.36651">
        <ele>1149.5</ele>
        <time>2020-08-27T13:48:30Z</time>
      </trkpt>
      <trkpt lat="46.76229" lon="6.36653">
        <ele>1148.9</ele>
        <time>2020-08-27T13:48:31Z</time>
      </trkpt>
      <trkpt lat="46.76234" lon="6.36653">
        <ele>1148.4</ele>
        <time>2020-08-27T13:48:32Z</time>
      </trkpt>
      <trkpt lat="46.7624" lon="6.36653">
        <ele>1147.9</ele>
        <time>2020-08-27T13:48:33Z</time>
      </trkpt>
      <trkpt lat="46.76246" lon="6.36651">
        <ele>1147.4</ele>
        <time>2020-08-27T13:48:34Z</time>
      </trkpt>
      <trkpt lat="46.76252" lon="6.36648">
        <ele>1146.9</ele>
        <time>2020-08-27T13:48:35Z</time>
      </trkpt>
      <trkpt lat="46.76257" lon="6.36645">
        <ele>1146.5</ele>
        <time>2020-08-27T13:48:36Z</time>
      </trkpt>
      <trkpt lat="46.76264" lon="6.36641">
        <ele>1145.9</ele>
        <time>2020-08-27T13:48:37Z</time>
      </trkpt>
      <trkpt lat="46.7627" lon="6.36635">
        <ele>1145.3</ele>
        <time>2020-08-27T13:48:38Z</time>
      </trkpt>
      <trkpt lat="46.76275" lon="6.36628">
        <ele>1144.6</ele>
        <time>2020-08-27T13:48:39Z</time>
      </trkpt>
      <trkpt lat="46.76278" lon="6.36622">
        <ele>1144</ele>
        <time>2020-08-27T13:48:40Z</time>
      </trkpt>
      <trkpt lat="46.76281" lon="6.36615">
        <ele>1143.4</ele>
        <time>2020-08-27T13:48:41Z</time>
      </trkpt>
      <trkpt lat="46.76285" lon="6.36609">
        <ele>1142.8</ele>
        <time>2020-08-27T13:48:42Z</time>
      </trkpt>
      <trkpt lat="46.76289" lon="6.36602">
        <ele>1142.3</ele>
        <time>2020-08-27T13:48:43Z</time>
      </trkpt>
      <trkpt lat="46.76292" lon="6.36594">
        <ele>1141.8</ele>
        <time>2020-08-27T13:48:44Z</time>
      </trkpt>
      <trkpt lat="46.76296" lon="6.36586">
        <ele>1141.3</ele>
        <time>2020-08-27T13:48:45Z</time>
      </trkpt>
      <trkpt lat="46.76299" lon="6.36577">
        <ele>1140.9</ele>
        <time>2020-08-27T13:48:46Z</time>
      </trkpt>
      <trkpt lat="46.76302" lon="6.36569">
        <ele>1140.3</ele>
        <time>2020-08-27T13:48:47Z</time>
      </trkpt>
      <trkpt lat="46.76305" lon="6.36562">
        <ele>1139.8</ele>
        <time>2020-08-27T13:48:48Z</time>
      </trkpt>
      <trkpt lat="46.76309" lon="6.36555">
        <ele>1139.2</ele>
        <time>2020-08-27T13:48:49Z</time>
      </trkpt>
      <trkpt lat="46.76311" lon="6.36547">
        <ele>1138.7</ele>
        <time>2020-08-27T13:48:50Z</time>
      </trkpt>
      <trkpt lat="46.76314" lon="6.36538">
        <ele>1138</ele>
        <time>2020-08-27T13:48:51Z</time>
      </trkpt>
      <trkpt lat="46.76317" lon="6.36529">
        <ele>1137.4</ele>
        <time>2020-08-27T13:48:52Z</time>
      </trkpt>
      <trkpt lat="46.7632" lon="6.36519">
        <ele>1136.8</ele>
        <time>2020-08-27T13:48:53Z</time>
      </trkpt>
      <trkpt lat="46.76323" lon="6.36511">
        <ele>1136.2</ele>
        <time>2020-08-27T13:48:54Z</time>
      </trkpt>
      <trkpt lat="46.76327" lon="6.36503">
        <ele>1135.7</ele>
        <time>2020-08-27T13:48:55Z</time>
      </trkpt>
      <trkpt lat="46.76331" lon="6.36496">
        <ele>1135.2</ele>
        <time>2020-08-27T13:48:56Z</time>
      </trkpt>
      <trkpt lat="46.76335" lon="6.36488">
        <ele>1134.7</ele>
        <time>2020-08-27T13:48:57Z</time>
      </trkpt>
      <trkpt lat="46.7634" lon="6.36479">
        <ele>1134.2</ele>
        <time>2020-08-27T13:48:58Z</time>
      </trkpt>
      <trkpt lat="46.76344" lon="6.3647">
        <ele>1133.6</ele>
        <time>2020-08-27T13:48:59Z</time>
      </trkpt>
      <trkpt lat="46.76348" lon="6.36464">
        <ele>1133.1</ele>
        <time>2020-08-27T13:49:00Z</time>
      </trkpt>
      <trkpt lat="46.76352" lon="6.3646">
        <ele>1132.6</ele>
        <time>2020-08-27T13:49:01Z</time>
      </trkpt>
      <trkpt lat="46.76356" lon="6.36456">
        <ele>1132.1</ele>
        <time>2020-08-27T13:49:02Z</time>
      </trkpt>
      <trkpt lat="46.76362" lon="6.36453">
        <ele>1131.5</ele>
        <time>2020-08-27T13:49:03Z</time>
      </trkpt>
      <trkpt lat="46.76367" lon="6.36448">
        <ele>1131</ele>
        <time>2020-08-27T13:49:04Z</time>
      </trkpt>
      <trkpt lat="46.76371" lon="6.36444">
        <ele>1130.5</ele>
        <time>2020-08-27T13:49:05Z</time>
      </trkpt>
      <trkpt lat="46.76375" lon="6.36439">
        <ele>1129.9</ele>
        <time>2020-08-27T13:49:06Z</time>
      </trkpt>
      <trkpt lat="46.76378" lon="6.36434">
        <ele>1129.3</ele>
        <time>2020-08-27T13:49:07Z</time>
      </trkpt>
      <trkpt lat="46.76381" lon="6.36429">
        <ele>1128.6</ele>
        <time>2020-08-27T13:49:08Z</time>
      </trkpt>
      <trkpt lat="46.76383" lon="6.36423">
        <ele>1128</ele>
        <time>2020-08-27T13:49:09Z</time>
      </trkpt>
      <trkpt lat="46.76385" lon="6.36417">
        <ele>1127.4</ele>
        <time>2020-08-27T13:49:10Z</time>
      </trkpt>
      <trkpt lat="46.76387" lon="6.36412">
        <ele>1126.9</ele>
        <time>2020-08-27T13:49:11Z</time>
      </trkpt>
      <trkpt lat="46.76389" lon="6.36407">
        <ele>1126.3</ele>
        <time>2020-08-27T13:49:12Z</time>
      </trkpt>
      <trkpt lat="46.76391" lon="6.36404">
        <ele>1125.8</ele>
        <time>2020-08-27T13:49:13Z</time>
      </trkpt>
      <trkpt lat="46.76393" lon="6.36403">
        <ele>1125.4</ele>
        <time>2020-08-27T13:49:14Z</time>
      </trkpt>
      <trkpt lat="46.76396" lon="6.36401">
        <ele>1124.9</ele>
        <time>2020-08-27T13:49:15Z</time>
      </trkpt>
      <trkpt lat="46.76399" lon="6.36398">
        <ele>1124.5</ele>
        <time>2020-08-27T13:49:16Z</time>
      </trkpt>
      <trkpt lat="46.76401" lon="6.36394">
        <ele>1124</ele>
        <time>2020-08-27T13:49:17Z</time>
      </trkpt>
      <trkpt lat="46.76403" lon="6.36388">
        <ele>1123.6</ele>
        <time>2020-08-27T13:49:18Z</time>
      </trkpt>
      <trkpt lat="46.76405" lon="6.36383">
        <ele>1123.1</ele>
        <time>2020-08-27T13:49:19Z</time>
      </trkpt>
      <trkpt lat="46.76407" lon="6.36378">
        <ele>1122.6</ele>
        <time>2020-08-27T13:49:20Z</time>
      </trkpt>
      <trkpt lat="46.76408" lon="6.36375">
        <ele>1122.2</ele>
        <time>2020-08-27T13:49:21Z</time>
      </trkpt>
      <trkpt lat="46.76409" lon="6.36373">
        <ele>1121.6</ele>
        <time>2020-08-27T13:49:22Z</time>
      </trkpt>
      <trkpt lat="46.76409" lon="6.36374">
        <ele>1121.1</ele>
        <time>2020-08-27T13:49:23Z</time>
      </trkpt>
      <trkpt lat="46.7641" lon="6.36377">
        <ele>1120.6</ele>
        <time>2020-08-27T13:49:24Z</time>
      </trkpt>
      <trkpt lat="46.76412" lon="6.36379">
        <ele>1120.2</ele>
        <time>2020-08-27T13:49:25Z</time>
      </trkpt>
      <trkpt lat="46.76416" lon="6.36379">
        <ele>1119.8</ele>
        <time>2020-08-27T13:49:26Z</time>
      </trkpt>
      <trkpt lat="46.76419" lon="6.36377">
        <ele>1119.4</ele>
        <time>2020-08-27T13:49:27Z</time>
      </trkpt>
      <trkpt lat="46.76421" lon="6.36373">
        <ele>1119</ele>
        <time>2020-08-27T13:49:28Z</time>
      </trkpt>
      <trkpt lat="46.76422" lon="6.36368">
        <ele>1118.7</ele>
        <time>2020-08-27T13:49:29Z</time>
      </trkpt>
      <trkpt lat="46.76422" lon="6.36362">
        <ele>1118.4</ele>
        <time>2020-08-27T13:49:30Z</time>
      </trkpt>
      <trkpt lat="46.76423" lon="6.36357">
        <ele>1118.1</ele>
        <time>2020-08-27T13:49:31Z</time>
      </trkpt>
      <trkpt lat="46.76425" lon="6.36351">
        <ele>1117.6</ele>
        <time>2020-08-27T13:49:32Z</time>
      </trkpt>
      <trkpt lat="46.76426" lon="6.36343">
        <ele>1117.2</ele>
        <time>2020-08-27T13:49:33Z</time>
      </trkpt>
      <trkpt lat="46.76428" lon="6.36336">
        <ele>1116.8</ele>
        <time>2020-08-27T13:49:34Z</time>
      </trkpt>
      <trkpt lat="46.76429" lon="6.36329">
        <ele>1116.4</ele>
        <time>2020-08-27T13:49:35Z</time>
      </trkpt>
      <trkpt lat="46.76431" lon="6.36323">
        <ele>1116.1</ele>
        <time>2020-08-27T13:49:36Z</time>
      </trkpt>
      <trkpt lat="46.76434" lon="6.36319">
        <ele>1115.8</ele>
        <time>2020-08-27T13:49:37Z</time>
      </trkpt>
      <trkpt lat="46.76438" lon="6.36317">
        <ele>1115.5</ele>
        <time>2020-08-27T13:49:38Z</time>
      </trkpt>
      <trkpt lat="46.76442" lon="6.36318">
        <ele>1115</ele>
        <time>2020-08-27T13:49:39Z</time>
      </trkpt>
      <trkpt lat="46.76445" lon="6.36322">
        <ele>1114.6</ele>
        <time>2020-08-27T13:49:40Z</time>
      </trkpt>
      <trkpt lat="46.76447" lon="6.36327">
        <ele>1114.2</ele>
        <time>2020-08-27T13:49:41Z</time>
      </trkpt>
      <trkpt lat="46.76449" lon="6.36328">
        <ele>1113.8</ele>
        <time>2020-08-27T13:49:42Z</time>
      </trkpt>
      <trkpt lat="46.76452" lon="6.36326">
        <ele>1113.4</ele>
        <time>2020-08-27T13:49:43Z</time>
      </trkpt>
      <trkpt lat="46.76455" lon="6.36321">
        <ele>1113.1</ele>
        <time>2020-08-27T13:49:44Z</time>
      </trkpt>
      <trkpt lat="46.76458" lon="6.36315">
        <ele>1112.8</ele>
        <time>2020-08-27T13:49:45Z</time>
      </trkpt>
      <trkpt lat="46.7646" lon="6.3631">
        <ele>1112.4</ele>
        <time>2020-08-27T13:49:46Z</time>
      </trkpt>
      <trkpt lat="46.76464" lon="6.36309">
        <ele>1112.1</ele>
        <time>2020-08-27T13:49:47Z</time>
      </trkpt>
      <trkpt lat="46.76466" lon="6.36309">
        <ele>1111.5</ele>
        <time>2020-08-27T13:49:48Z</time>
      </trkpt>
      <trkpt lat="46.76468" lon="6.36308">
        <ele>1111</ele>
        <time>2020-08-27T13:49:49Z</time>
      </trkpt>
      <trkpt lat="46.7647" lon="6.36308">
        <ele>1110.6</ele>
        <time>2020-08-27T13:49:50Z</time>
      </trkpt>
      <trkpt lat="46.76471" lon="6.36306">
        <ele>1110.1</ele>
        <time>2020-08-27T13:49:51Z</time>
      </trkpt>
      <trkpt lat="46.76473" lon="6.36304">
        <ele>1109.7</ele>
        <time>2020-08-27T13:49:52Z</time>
      </trkpt>
      <trkpt lat="46.76476" lon="6.36301">
        <ele>1109.3</ele>
        <time>2020-08-27T13:49:53Z</time>
      </trkpt>
      <trkpt lat="46.76477" lon="6.36297">
        <ele>1109</ele>
        <time>2020-08-27T13:49:54Z</time>
      </trkpt>
      <trkpt lat="46.76479" lon="6.36293">
        <ele>1108.5</ele>
        <time>2020-08-27T13:49:55Z</time>
      </trkpt>
      <trkpt lat="46.76483" lon="6.36289">
        <ele>1108</ele>
        <time>2020-08-27T13:49:56Z</time>
      </trkpt>
      <trkpt lat="46.76487" lon="6.36287">
        <ele>1107.5</ele>
        <time>2020-08-27T13:49:57Z</time>
      </trkpt>
      <trkpt lat="46.76492" lon="6.36283">
        <ele>1107</ele>
        <time>2020-08-27T13:49:58Z</time>
      </trkpt>
      <trkpt lat="46.76496" lon="6.36278">
        <ele>1106.5</ele>
        <time>2020-08-27T13:49:59Z</time>
      </trkpt>
      <trkpt lat="46.76498" lon="6.36272">
        <ele>1106</ele>
        <time>2020-08-27T13:50:00Z</time>
      </trkpt>
      <trkpt lat="46.76497" lon="6.36265">
        <ele>1105.6</ele>
        <time>2020-08-27T13:50:01Z</time>
      </trkpt>
      <trkpt lat="46.76497" lon="6.36259">
        <ele>1105.1</ele>
        <time>2020-08-27T13:50:02Z</time>
      </trkpt>
      <trkpt lat="46.76499" lon="6.36255">
        <ele>1104.7</ele>
        <time>2020-08-27T13:50:03Z</time>
      </trkpt>
      <trkpt lat="46.76501" lon="6.36253">
        <ele>1104.2</ele>
        <time>2020-08-27T13:50:04Z</time>
      </trkpt>
      <trkpt lat="46.76504" lon="6.36252">
        <ele>1103.8</ele>
        <time>2020-08-27T13:50:05Z</time>
      </trkpt>
      <trkpt lat="46.76506" lon="6.3625">
        <ele>1103.4</ele>
        <time>2020-08-27T13:50:06Z</time>
      </trkpt>
      <trkpt lat="46.76508" lon="6.36247">
        <ele>1103</ele>
        <time>2020-08-27T13:50:07Z</time>
      </trkpt>
      <trkpt lat="46.76509" lon="6.36243">
        <ele>1102.6</ele>
        <time>2020-08-27T13:50:08Z</time>
      </trkpt>
      <trkpt lat="46.76509" lon="6.36238">
        <ele>1102.2</ele>
        <time>2020-08-27T13:50:09Z</time>
      </trkpt>
      <trkpt lat="46.7651" lon="6.36233">
        <ele>1101.8</ele>
        <time>2020-08-27T13:50:10Z</time>
      </trkpt>
      <trkpt lat="46.76511" lon="6.3623">
        <ele>1101.5</ele>
        <time>2020-08-27T13:50:11Z</time>
      </trkpt>
      <trkpt lat="46.76513" lon="6.36231">
        <ele>1101.1</ele>
        <time>2020-08-27T13:50:12Z</time>
      </trkpt>
      <trkpt lat="46.76514" lon="6.36234">
        <ele>1100.6</ele>
        <time>2020-08-27T13:50:13Z</time>
      </trkpt>
      <trkpt lat="46.76516" lon="6.36238">
        <ele>1100.2</ele>
        <time>2020-08-27T13:50:14Z</time>
      </trkpt>
      <trkpt lat="46.76517" lon="6.36241">
        <ele>1099.8</ele>
        <time>2020-08-27T13:50:15Z</time>
      </trkpt>
      <trkpt lat="46.76518" lon="6.3624">
        <ele>1099.5</ele>
        <time>2020-08-27T13:50:16Z</time>
      </trkpt>
      <trkpt lat="46.7652" lon="6.36237">
        <ele>1099.1</ele>
        <time>2020-08-27T13:50:17Z</time>
      </trkpt>
      <trkpt lat="46.76522" lon="6.36233">
        <ele>1098.8</ele>
        <time>2020-08-27T13:50:18Z</time>
      </trkpt>
      <trkpt lat="46.76524" lon="6.3623">
        <ele>1098.4</ele>
        <time>2020-08-27T13:50:19Z</time>
      </trkpt>
      <trkpt lat="46.76527" lon="6.36229">
        <ele>1098.1</ele>
        <time>2020-08-27T13:50:20Z</time>
      </trkpt>
      <trkpt lat="46.76531" lon="6.3623">
        <ele>1097.7</ele>
        <time>2020-08-27T13:50:21Z</time>
      </trkpt>
      <trkpt lat="46.76535" lon="6.36231">
        <ele>1097.4</ele>
        <time>2020-08-27T13:50:22Z</time>
      </trkpt>
      <trkpt lat="46.76538" lon="6.36229">
        <ele>1097.1</ele>
        <time>2020-08-27T13:50:23Z</time>
      </trkpt>
      <trkpt lat="46.76541" lon="6.36224">
        <ele>1096.7</ele>
        <time>2020-08-27T13:50:24Z</time>
      </trkpt>
      <trkpt lat="46.76543" lon="6.36218">
        <ele>1096.3</ele>
        <time>2020-08-27T13:50:25Z</time>
      </trkpt>
      <trkpt lat="46.76545" lon="6.3621">
        <ele>1095.8</ele>
        <time>2020-08-27T13:50:26Z</time>
      </trkpt>
      <trkpt lat="46.76547" lon="6.36201">
        <ele>1095.3</ele>
        <time>2020-08-27T13:50:27Z</time>
      </trkpt>
      <trkpt lat="46.76548" lon="6.36193">
        <ele>1094.9</ele>
        <time>2020-08-27T13:50:28Z</time>
      </trkpt>
      <trkpt lat="46.7655" lon="6.36186">
        <ele>1094.5</ele>
        <time>2020-08-27T13:50:29Z</time>
      </trkpt>
      <trkpt lat="46.76553" lon="6.36179">
        <ele>1094</ele>
        <time>2020-08-27T13:50:30Z</time>
      </trkpt>
      <trkpt lat="46.76555" lon="6.36172">
        <ele>1093.7</ele>
        <time>2020-08-27T13:50:31Z</time>
      </trkpt>
      <trkpt lat="46.76556" lon="6.36166">
        <ele>1093.3</ele>
        <time>2020-08-27T13:50:32Z</time>
      </trkpt>
      <trkpt lat="46.76557" lon="6.3616">
        <ele>1092.9</ele>
        <time>2020-08-27T13:50:33Z</time>
      </trkpt>
      <trkpt lat="46.76557" lon="6.36154">
        <ele>1092.5</ele>
        <time>2020-08-27T13:50:34Z</time>
      </trkpt>
      <trkpt lat="46.76557" lon="6.36151">
        <ele>1092.1</ele>
        <time>2020-08-27T13:50:35Z</time>
      </trkpt>
      <trkpt lat="46.76557" lon="6.36146">
        <ele>1091.8</ele>
        <time>2020-08-27T13:50:36Z</time>
      </trkpt>
      <trkpt lat="46.76558" lon="6.3614">
        <ele>1091.4</ele>
        <time>2020-08-27T13:50:37Z</time>
      </trkpt>
      <trkpt lat="46.7656" lon="6.36137">
        <ele>1091</ele>
        <time>2020-08-27T13:50:38Z</time>
      </trkpt>
      <trkpt lat="46.76562" lon="6.36138">
        <ele>1090.6</ele>
        <time>2020-08-27T13:50:39Z</time>
      </trkpt>
      <trkpt lat="46.76564" lon="6.36143">
        <ele>1090.1</ele>
        <time>2020-08-27T13:50:40Z</time>
      </trkpt>
      <trkpt lat="46.76563" lon="6.36147">
        <ele>1089.7</ele>
        <time>2020-08-27T13:50:41Z</time>
      </trkpt>
      <trkpt lat="46.76563" lon="6.36152">
        <ele>1089.3</ele>
        <time>2020-08-27T13:50:42Z</time>
      </trkpt>
      <trkpt lat="46.76561" lon="6.36156">
        <ele>1088.9</ele>
        <time>2020-08-27T13:50:43Z</time>
      </trkpt>
      <trkpt lat="46.76562" lon="6.36159">
        <ele>1088.6</ele>
        <time>2020-08-27T13:50:44Z</time>
      </trkpt>
      <trkpt lat="46.76566" lon="6.3616">
        <ele>1088.2</ele>
        <time>2020-08-27T13:50:45Z</time>
      </trkpt>
      <trkpt lat="46.7657" lon="6.36156">
        <ele>1087.8</ele>
        <time>2020-08-27T13:50:46Z</time>
      </trkpt>
      <trkpt lat="46.76572" lon="6.3615">
        <ele>1087.5</ele>
        <time>2020-08-27T13:50:47Z</time>
      </trkpt>
      <trkpt lat="46.76574" lon="6.36142">
        <ele>1087</ele>
        <time>2020-08-27T13:50:48Z</time>
      </trkpt>
      <trkpt lat="46.76574" lon="6.36135">
        <ele>1086.5</ele>
        <time>2020-08-27T13:50:49Z</time>
      </trkpt>
      <trkpt lat="46.76574" lon="6.36128">
        <ele>1086</ele>
        <time>2020-08-27T13:50:50Z</time>
      </trkpt>
      <trkpt lat="46.76574" lon="6.36121">
        <ele>1085.5</ele>
        <time>2020-08-27T13:50:51Z</time>
      </trkpt>
      <trkpt lat="46.76573" lon="6.36113">
        <ele>1085.1</ele>
        <time>2020-08-27T13:50:52Z</time>
      </trkpt>
      <trkpt lat="46.76572" lon="6.36104">
        <ele>1084.7</ele>
        <time>2020-08-27T13:50:53Z</time>
      </trkpt>
      <trkpt lat="46.76572" lon="6.36097">
        <ele>1084.3</ele>
        <time>2020-08-27T13:50:54Z</time>
      </trkpt>
      <trkpt lat="46.76573" lon="6.3609">
        <ele>1083.9</ele>
        <time>2020-08-27T13:50:55Z</time>
      </trkpt>
      <trkpt lat="46.76574" lon="6.36083">
        <ele>1083.5</ele>
        <time>2020-08-27T13:50:56Z</time>
      </trkpt>
      <trkpt lat="46.76576" lon="6.36078">
        <ele>1083.1</ele>
        <time>2020-08-27T13:50:57Z</time>
      </trkpt>
      <trkpt lat="46.7658" lon="6.36072">
        <ele>1082.7</ele>
        <time>2020-08-27T13:50:58Z</time>
      </trkpt>
      <trkpt lat="46.76584" lon="6.36065">
        <ele>1082.1</ele>
        <time>2020-08-27T13:50:59Z</time>
      </trkpt>
      <trkpt lat="46.76586" lon="6.36056">
        <ele>1081.6</ele>
        <time>2020-08-27T13:51:00Z</time>
      </trkpt>
      <trkpt lat="46.76588" lon="6.36047">
        <ele>1081.2</ele>
        <time>2020-08-27T13:51:01Z</time>
      </trkpt>
      <trkpt lat="46.76589" lon="6.36037">
        <ele>1080.6</ele>
        <time>2020-08-27T13:51:02Z</time>
      </trkpt>
      <trkpt lat="46.7659" lon="6.36029">
        <ele>1080.1</ele>
        <time>2020-08-27T13:51:03Z</time>
      </trkpt>
      <trkpt lat="46.76593" lon="6.36022">
        <ele>1079.5</ele>
        <time>2020-08-27T13:51:04Z</time>
      </trkpt>
      <trkpt lat="46.76595" lon="6.36014">
        <ele>1079</ele>
        <time>2020-08-27T13:51:05Z</time>
      </trkpt>
      <trkpt lat="46.76597" lon="6.36007">
        <ele>1078.4</ele>
        <time>2020-08-27T13:51:06Z</time>
      </trkpt>
      <trkpt lat="46.76598" lon="6.36">
        <ele>1077.9</ele>
        <time>2020-08-27T13:51:07Z</time>
      </trkpt>
      <trkpt lat="46.76599" lon="6.35992">
        <ele>1077.4</ele>
        <time>2020-08-27T13:51:08Z</time>
      </trkpt>
      <trkpt lat="46.76599" lon="6.35985">
        <ele>1076.8</ele>
        <time>2020-08-27T13:51:09Z</time>
      </trkpt>
      <trkpt lat="46.76597" lon="6.35979">
        <ele>1076.3</ele>
        <time>2020-08-27T13:51:10Z</time>
      </trkpt>
      <trkpt lat="46.76594" lon="6.35974">
        <ele>1075.8</ele>
        <time>2020-08-27T13:51:11Z</time>
      </trkpt>
      <trkpt lat="46.76591" lon="6.35969">
        <ele>1075.3</ele>
        <time>2020-08-27T13:51:12Z</time>
      </trkpt>
      <trkpt lat="46.76588" lon="6.35965">
        <ele>1074.9</ele>
        <time>2020-08-27T13:51:13Z</time>
      </trkpt>
      <trkpt lat="46.76584" lon="6.35961">
        <ele>1074.5</ele>
        <time>2020-08-27T13:51:14Z</time>
      </trkpt>
      <trkpt lat="46.76582" lon="6.35957">
        <ele>1074.1</ele>
        <time>2020-08-27T13:51:15Z</time>
      </trkpt>
      <trkpt lat="46.76579" lon="6.35953">
        <ele>1073.7</ele>
        <time>2020-08-27T13:51:16Z</time>
      </trkpt>
      <trkpt lat="46.76576" lon="6.35947">
        <ele>1073.4</ele>
        <time>2020-08-27T13:51:17Z</time>
      </trkpt>
      <trkpt lat="46.76574" lon="6.3594">
        <ele>1073</ele>
        <time>2020-08-27T13:51:18Z</time>
      </trkpt>
      <trkpt lat="46.76573" lon="6.35933">
        <ele>1072.7</ele>
        <time>2020-08-27T13:51:19Z</time>
      </trkpt>
      <trkpt lat="46.76571" lon="6.35926">
        <ele>1072.4</ele>
        <time>2020-08-27T13:51:20Z</time>
      </trkpt>
      <trkpt lat="46.76569" lon="6.3592">
        <ele>1072.1</ele>
        <time>2020-08-27T13:51:21Z</time>
      </trkpt>
      <trkpt lat="46.76568" lon="6.35914">
        <ele>1071.8</ele>
        <time>2020-08-27T13:51:22Z</time>
      </trkpt>
      <trkpt lat="46.76568" lon="6.35907">
        <ele>1071.5</ele>
        <time>2020-08-27T13:51:23Z</time>
      </trkpt>
      <trkpt lat="46.76569" lon="6.359">
        <ele>1071.1</ele>
        <time>2020-08-27T13:51:24Z</time>
      </trkpt>
      <trkpt lat="46.76569" lon="6.35895">
        <ele>1070.8</ele>
        <time>2020-08-27T13:51:25Z</time>
      </trkpt>
      <trkpt lat="46.76569" lon="6.35889">
        <ele>1070.4</ele>
        <time>2020-08-27T13:51:26Z</time>
      </trkpt>
      <trkpt lat="46.76569" lon="6.35885">
        <ele>1070.2</ele>
        <time>2020-08-27T13:51:27Z</time>
      </trkpt>
      <trkpt lat="46.76569" lon="6.3588">
        <ele>1069.8</ele>
        <time>2020-08-27T13:51:28Z</time>
      </trkpt>
      <trkpt lat="46.76569" lon="6.35875">
        <ele>1069.4</ele>
        <time>2020-08-27T13:51:29Z</time>
      </trkpt>
      <trkpt lat="46.76569" lon="6.35869">
        <ele>1068.9</ele>
        <time>2020-08-27T13:51:30Z</time>
      </trkpt>
      <trkpt lat="46.7657" lon="6.35864">
        <ele>1068.5</ele>
        <time>2020-08-27T13:51:31Z</time>
      </trkpt>
      <trkpt lat="46.7657" lon="6.35859">
        <ele>1068.1</ele>
        <time>2020-08-27T13:51:32Z</time>
      </trkpt>
      <trkpt lat="46.7657" lon="6.35853">
        <ele>1067.6</ele>
        <time>2020-08-27T13:51:33Z</time>
      </trkpt>
      <trkpt lat="46.76571" lon="6.35849">
        <ele>1067.2</ele>
        <time>2020-08-27T13:51:34Z</time>
      </trkpt>
      <trkpt lat="46.76573" lon="6.35845">
        <ele>1066.8</ele>
        <time>2020-08-27T13:51:35Z</time>
      </trkpt>
      <trkpt lat="46.76575" lon="6.3584">
        <ele>1066.5</ele>
        <time>2020-08-27T13:51:36Z</time>
      </trkpt>
      <trkpt lat="46.76578" lon="6.35837">
        <ele>1066.1</ele>
        <time>2020-08-27T13:51:37Z</time>
      </trkpt>
      <trkpt lat="46.76582" lon="6.35833">
        <ele>1065.7</ele>
        <time>2020-08-27T13:51:38Z</time>
      </trkpt>
      <trkpt lat="46.76586" lon="6.35829">
        <ele>1065.2</ele>
        <time>2020-08-27T13:51:39Z</time>
      </trkpt>
      <trkpt lat="46.7659" lon="6.35825">
        <ele>1064.7</ele>
        <time>2020-08-27T13:51:40Z</time>
      </trkpt>
      <trkpt lat="46.76594" lon="6.3582">
        <ele>1064.2</ele>
        <time>2020-08-27T13:51:41Z</time>
      </trkpt>
      <trkpt lat="46.76598" lon="6.35815">
        <ele>1063.8</ele>
        <time>2020-08-27T13:51:42Z</time>
      </trkpt>
      <trkpt lat="46.76601" lon="6.35812">
        <ele>1063.3</ele>
        <time>2020-08-27T13:51:43Z</time>
      </trkpt>
      <trkpt lat="46.76603" lon="6.35809">
        <ele>1062.9</ele>
        <time>2020-08-27T13:51:44Z</time>
      </trkpt>
      <trkpt lat="46.76607" lon="6.35809">
        <ele>1062.5</ele>
        <time>2020-08-27T13:51:45Z</time>
      </trkpt>
      <trkpt lat="46.7661" lon="6.3581">
        <ele>1062.2</ele>
        <time>2020-08-27T13:51:46Z</time>
      </trkpt>
      <trkpt lat="46.76611" lon="6.35812">
        <ele>1061.9</ele>
        <time>2020-08-27T13:51:47Z</time>
      </trkpt>
      <trkpt lat="46.76612" lon="6.35815">
        <ele>1061.5</ele>
        <time>2020-08-27T13:51:48Z</time>
      </trkpt>
      <trkpt lat="46.76612" lon="6.35818">
        <ele>1061.3</ele>
        <time>2020-08-27T13:51:49Z</time>
      </trkpt>
      <trkpt lat="46.76613" lon="6.35822">
        <ele>1061</ele>
        <time>2020-08-27T13:51:50Z</time>
      </trkpt>
      <trkpt lat="46.76614" lon="6.35825">
        <ele>1060.7</ele>
        <time>2020-08-27T13:51:51Z</time>
      </trkpt>
      <trkpt lat="46.76615" lon="6.35827">
        <ele>1060.5</ele>
        <time>2020-08-27T13:51:52Z</time>
      </trkpt>
      <trkpt lat="46.76618" lon="6.35827">
        <ele>1060.3</ele>
        <time>2020-08-27T13:51:53Z</time>
      </trkpt>
      <trkpt lat="46.76623" lon="6.35827">
        <ele>1060</ele>
        <time>2020-08-27T13:51:54Z</time>
      </trkpt>
      <trkpt lat="46.76629" lon="6.35826">
        <ele>1059.7</ele>
        <time>2020-08-27T13:51:55Z</time>
      </trkpt>
      <trkpt lat="46.76635" lon="6.35825">
        <ele>1059.3</ele>
        <time>2020-08-27T13:51:56Z</time>
      </trkpt>
      <trkpt lat="46.7664" lon="6.35824">
        <ele>1059</ele>
        <time>2020-08-27T13:51:57Z</time>
      </trkpt>
      <trkpt lat="46.76645" lon="6.35824">
        <ele>1058.6</ele>
        <time>2020-08-27T13:51:58Z</time>
      </trkpt>
      <trkpt lat="46.76649" lon="6.35824">
        <ele>1058.3</ele>
        <time>2020-08-27T13:51:59Z</time>
      </trkpt>
      <trkpt lat="46.76654" lon="6.35824">
        <ele>1058</ele>
        <time>2020-08-27T13:52:00Z</time>
      </trkpt>
      <trkpt lat="46.76658" lon="6.35822">
        <ele>1057.7</ele>
        <time>2020-08-27T13:52:01Z</time>
      </trkpt>
      <trkpt lat="46.76662" lon="6.3582">
        <ele>1057.5</ele>
        <time>2020-08-27T13:52:02Z</time>
      </trkpt>
      <trkpt lat="46.76665" lon="6.35817">
        <ele>1057.2</ele>
        <time>2020-08-27T13:52:03Z</time>
      </trkpt>
      <trkpt lat="46.76668" lon="6.35814">
        <ele>1056.9</ele>
        <time>2020-08-27T13:52:04Z</time>
      </trkpt>
      <trkpt lat="46.76671" lon="6.3581">
        <ele>1056.6</ele>
        <time>2020-08-27T13:52:05Z</time>
      </trkpt>
      <trkpt lat="46.76673" lon="6.35807">
        <ele>1056.3</ele>
        <time>2020-08-27T13:52:06Z</time>
      </trkpt>
      <trkpt lat="46.76674" lon="6.35804">
        <ele>1056.1</ele>
        <time>2020-08-27T13:52:07Z</time>
      </trkpt>
      <trkpt lat="46.76676" lon="6.35801">
        <ele>1055.9</ele>
        <time>2020-08-27T13:52:08Z</time>
      </trkpt>
      <trkpt lat="46.76677" lon="6.35798">
        <ele>1055.7</ele>
        <time>2020-08-27T13:52:09Z</time>
      </trkpt>
      <trkpt lat="46.76677" lon="6.35794">
        <ele>1055.5</ele>
        <time>2020-08-27T13:52:10Z</time>
      </trkpt>
      <trkpt lat="46.76677" lon="6.3579">
        <ele>1055.3</ele>
        <time>2020-08-27T13:52:11Z</time>
      </trkpt>
      <trkpt lat="46.76677" lon="6.35787">
        <ele>1055.2</ele>
        <time>2020-08-27T13:52:12Z</time>
      </trkpt>
      <trkpt lat="46.76677" lon="6.35785">
        <ele>1055</ele>
        <time>2020-08-27T13:52:13Z</time>
      </trkpt>
      <trkpt lat="46.76677" lon="6.35783">
        <ele>1054.9</ele>
        <time>2020-08-27T13:52:14Z</time>
      </trkpt>
      <trkpt lat="46.76677" lon="6.3578">
        <ele>1054.7</ele>
        <time>2020-08-27T13:52:15Z</time>
      </trkpt>
      <trkpt lat="46.76678" lon="6.35779">
        <ele>1054.5</ele>
        <time>2020-08-27T13:52:16Z</time>
      </trkpt>
      <trkpt lat="46.76678" lon="6.35777">
        <ele>1054.3</ele>
        <time>2020-08-27T13:52:17Z</time>
      </trkpt>
      <trkpt lat="46.76678" lon="6.35775">
        <ele>1054.1</ele>
        <time>2020-08-27T13:52:18Z</time>
      </trkpt>
      <trkpt lat="46.76678" lon="6.35773">
        <ele>1053.9</ele>
        <time>2020-08-27T13:52:19Z</time>
      </trkpt>
      <trkpt lat="46.76678" lon="6.3577">
        <ele>1053.8</ele>
        <time>2020-08-27T13:52:20Z</time>
      </trkpt>
      <trkpt lat="46.76677" lon="6.35769">
        <ele>1053.6</ele>
        <time>2020-08-27T13:52:21Z</time>
      </trkpt>
      <trkpt lat="46.76677" lon="6.35768">
        <ele>1053.5</ele>
        <time>2020-08-27T13:52:22Z</time>
      </trkpt>
      <trkpt lat="46.76677" lon="6.35768">
        <ele>1053.4</ele>
        <time>2020-08-27T13:52:23Z</time>
      </trkpt>
      <trkpt lat="46.76677" lon="6.35768">
        <ele>1053.3</ele>
        <time>2020-08-27T13:52:24Z</time>
      </trkpt>
      <trkpt lat="46.76677" lon="6.35767">
        <ele>1053.1</ele>
        <time>2020-08-27T13:52:25Z</time>
      </trkpt>
      <trkpt lat="46.76677" lon="6.35767">
        <ele>1053</ele>
        <time>2020-08-27T13:52:26Z</time>
      </trkpt>
      <trkpt lat="46.76677" lon="6.35767">
        <ele>1053</ele>
        <time>2020-08-27T13:52:27Z</time>
      </trkpt>
      <trkpt lat="46.76677" lon="6.35767">
        <ele>1052.9</ele>
        <time>2020-08-27T13:52:28Z</time>
      </trkpt>
      <trkpt lat="46.76677" lon="6.35767">
        <ele>1052.8</ele>
        <time>2020-08-27T13:52:29Z</time>
      </trkpt>
      <trkpt lat="46.76677" lon="6.35767">
        <ele>1052.7</ele>
        <time>2020-08-27T13:52:30Z</time>
      </trkpt>
      <trkpt lat="46.76677" lon="6.35766">
        <ele>1052.6</ele>
        <time>2020-08-27T13:52:31Z</time>
      </trkpt>
      <trkpt lat="46.76677" lon="6.35766">
        <ele>1052.6</ele>
        <time>2020-08-27T13:52:32Z</time>
      </trkpt>
      <trkpt lat="46.76677" lon="6.35766">
        <ele>1052.6</ele>
        <time>2020-08-27T13:52:33Z</time>
      </trkpt>
      <trkpt lat="46.76677" lon="6.35766">
        <ele>1052.5</ele>
        <time>2020-08-27T13:52:34Z</time>
      </trkpt>
      <trkpt lat="46.76677" lon="6.35765">
        <ele>1052.5</ele>
        <time>2020-08-27T13:52:35Z</time>
      </trkpt>
      <trkpt lat="46.76677" lon="6.35765">
        <ele>1052.5</ele>
        <time>2020-08-27T13:52:36Z</time>
      </trkpt>
      <trkpt lat="46.76677" lon="6.35765">
        <ele>1052.5</ele>
        <time>2020-08-27T13:52:37Z</time>
      </trkpt>
      <trkpt lat="46.76676" lon="6.35764">
        <ele>1052.4</ele>
        <time>2020-08-27T13:52:38Z</time>
      </trkpt>
      <trkpt lat="46.76676" lon="6.35763">
        <ele>1052.4</ele>
        <time>2020-08-27T13:52:39Z</time>
      </trkpt>
      <trkpt lat="46.76676" lon="6.35762">
        <ele>1052.4</ele>
        <time>2020-08-27T13:52:40Z</time>
      </trkpt>
      <trkpt lat="46.76677" lon="6.35761">
        <ele>1052.3</ele>
        <time>2020-08-27T13:52:41Z</time>
      </trkpt>
      <trkpt lat="46.76677" lon="6.35759">
        <ele>1052.3</ele>
        <time>2020-08-27T13:52:42Z</time>
      </trkpt>
      <trkpt lat="46.76678" lon="6.35757">
        <ele>1052.3</ele>
        <time>2020-08-27T13:52:43Z</time>
      </trkpt>
      <trkpt lat="46.76679" lon="6.35756">
        <ele>1052.3</ele>
        <time>2020-08-27T13:52:44Z</time>
      </trkpt>
      <trkpt lat="46.76682" lon="6.35754">
        <ele>1052.2</ele>
        <time>2020-08-27T13:52:45Z</time>
      </trkpt>
      <trkpt lat="46.76685" lon="6.35753">
        <ele>1052.2</ele>
        <time>2020-08-27T13:52:46Z</time>
      </trkpt>
      <trkpt lat="46.76689" lon="6.35752">
        <ele>1052.1</ele>
        <time>2020-08-27T13:52:47Z</time>
      </trkpt>
      <trkpt lat="46.76694" lon="6.35752">
        <ele>1052</ele>
        <time>2020-08-27T13:52:48Z</time>
      </trkpt>
      <trkpt lat="46.76699" lon="6.35752">
        <ele>1051.9</ele>
        <time>2020-08-27T13:52:49Z</time>
      </trkpt>
      <trkpt lat="46.76703" lon="6.35752">
        <ele>1051.8</ele>
        <time>2020-08-27T13:52:50Z</time>
      </trkpt>
      <trkpt lat="46.76707" lon="6.35752">
        <ele>1051.6</ele>
        <time>2020-08-27T13:52:51Z</time>
      </trkpt>
      <trkpt lat="46.7671" lon="6.35753">
        <ele>1051.4</ele>
        <time>2020-08-27T13:52:52Z</time>
      </trkpt>
      <trkpt lat="46.76713" lon="6.35753">
        <ele>1051.1</ele>
        <time>2020-08-27T13:52:53Z</time>
      </trkpt>
      <trkpt lat="46.76716" lon="6.35752">
        <ele>1050.9</ele>
        <time>2020-08-27T13:52:54Z</time>
      </trkpt>
      <trkpt lat="46.76719" lon="6.35752">
        <ele>1050.7</ele>
        <time>2020-08-27T13:52:55Z</time>
      </trkpt>
      <trkpt lat="46.76722" lon="6.35753">
        <ele>1050.5</ele>
        <time>2020-08-27T13:52:56Z</time>
      </trkpt>
      <trkpt lat="46.76726" lon="6.35754">
        <ele>1050.3</ele>
        <time>2020-08-27T13:52:57Z</time>
      </trkpt>
      <trkpt lat="46.76729" lon="6.35756">
        <ele>1050</ele>
        <time>2020-08-27T13:52:58Z</time>
      </trkpt>
      <trkpt lat="46.76733" lon="6.35757">
        <ele>1049.8</ele>
        <time>2020-08-27T13:52:59Z</time>
      </trkpt>
      <trkpt lat="46.76738" lon="6.35758">
        <ele>1049.6</ele>
        <time>2020-08-27T13:53:00Z</time>
      </trkpt>
      <trkpt lat="46.76744" lon="6.35759">
        <ele>1049.3</ele>
        <time>2020-08-27T13:53:01Z</time>
      </trkpt>
      <trkpt lat="46.7675" lon="6.3576">
        <ele>1049</ele>
        <time>2020-08-27T13:53:02Z</time>
      </trkpt>
      <trkpt lat="46.76755" lon="6.35759">
        <ele>1048.7</ele>
        <time>2020-08-27T13:53:03Z</time>
      </trkpt>
      <trkpt lat="46.76761" lon="6.35756">
        <ele>1048.4</ele>
        <time>2020-08-27T13:53:04Z</time>
      </trkpt>
      <trkpt lat="46.76766" lon="6.35752">
        <ele>1048.1</ele>
        <time>2020-08-27T13:53:05Z</time>
      </trkpt>
      <trkpt lat="46.76769" lon="6.35746">
        <ele>1047.8</ele>
        <time>2020-08-27T13:53:06Z</time>
      </trkpt>
      <trkpt lat="46.7677" lon="6.3574">
        <ele>1047.5</ele>
        <time>2020-08-27T13:53:07Z</time>
      </trkpt>
      <trkpt lat="46.76771" lon="6.35734">
        <ele>1047.1</ele>
        <time>2020-08-27T13:53:08Z</time>
      </trkpt>
      <trkpt lat="46.76772" lon="6.35729">
        <ele>1046.7</ele>
        <time>2020-08-27T13:53:09Z</time>
      </trkpt>
      <trkpt lat="46.76772" lon="6.35723">
        <ele>1046.3</ele>
        <time>2020-08-27T13:53:10Z</time>
      </trkpt>
      <trkpt lat="46.76773" lon="6.35718">
        <ele>1046</ele>
        <time>2020-08-27T13:53:11Z</time>
      </trkpt>
    </trkseg>
  </trk>
</gpx>